<?xml version="1.0" encoding="UTF-8" standalone="no" ?>
<gpx xmlns="http://www.topografix.com/GPX/1/1" xmlns:xsi="http://www.w3.org/2001/XMLSchema-instance" xsi:schemaLocation="http://www.topografix.com/GPX/1/1 http://www.topografix.com/GPX/1/1/gpx.xsd" version="1.1" creator="VisuGPX - https://www.visugpx.com">
  <metadata>
    <name>Pic de Barrès près des 3 Seigneurs</name>
    <desc><![CDATA[Dimanche 8 Décembre : Objectif Pic des 3 Seigneurs !
C%u2019est sous un soleil et des sourires radieux que nous démarrons notre ascension, les raquetteurs nous ayant semés sur  place en attendant qu%u2019on s%u2019équipent sérieusement.   
C%u2019était génial, la montée héroïque, la crête onirique, la descente stimulante, le spectacle tout du long.
Pour les 2 ados une première en toute facilité%u2026

Le repas, on retrouve les raquettes, sympa ! 
Proche du sommet, mais celui-ci ne sera pas accessible en raison des corniches de neige.

Tout le monde se retrouve aux voitures, les skieurs en tête comme prévu.
]]></desc>
  </metadata>
  <trk>
    <name><![CDATA[SKI RANDO]]></name>
    <trkseg>
      <trkpt lat="42.8074" lon="1.43369">
        <ele>1260.91</ele>
        <time>2013-12-08T09:30:52Z</time>
      </trkpt>
      <trkpt lat="42.80733" lon="1.43377">
        <ele>1244.08</ele>
        <time>2013-12-08T09:31:12Z</time>
      </trkpt>
      <trkpt lat="42.80729" lon="1.43375">
        <ele>1248.41</ele>
        <time>2013-12-08T09:31:30Z</time>
      </trkpt>
      <trkpt lat="42.8073" lon="1.43376">
        <ele>1249.85</ele>
        <time>2013-12-08T09:31:54Z</time>
      </trkpt>
      <trkpt lat="42.80734" lon="1.43375">
        <ele>1249.85</ele>
        <time>2013-12-08T09:32:16Z</time>
      </trkpt>
      <trkpt lat="42.80733" lon="1.43378">
        <ele>1249.85</ele>
        <time>2013-12-08T09:32:33Z</time>
      </trkpt>
      <trkpt lat="42.80733" lon="1.43378">
        <ele>1246.97</ele>
        <time>2013-12-08T09:32:54Z</time>
      </trkpt>
      <trkpt lat="42.80733" lon="1.43377">
        <ele>1247.93</ele>
        <time>2013-12-08T09:33:17Z</time>
      </trkpt>
      <trkpt lat="42.80734" lon="1.43376">
        <ele>1248.41</ele>
        <time>2013-12-08T09:33:41Z</time>
      </trkpt>
      <trkpt lat="42.80733" lon="1.43377">
        <ele>1246.49</ele>
        <time>2013-12-08T09:34:12Z</time>
      </trkpt>
      <trkpt lat="42.80733" lon="1.43378">
        <ele>1246.49</ele>
        <time>2013-12-08T09:34:35Z</time>
      </trkpt>
      <trkpt lat="42.80733" lon="1.43377">
        <ele>1246.01</ele>
        <time>2013-12-08T09:34:57Z</time>
      </trkpt>
      <trkpt lat="42.80733" lon="1.43378">
        <ele>1246.49</ele>
        <time>2013-12-08T09:35:21Z</time>
      </trkpt>
      <trkpt lat="42.80733" lon="1.43378">
        <ele>1246.01</ele>
        <time>2013-12-08T09:35:39Z</time>
      </trkpt>
      <trkpt lat="42.80741" lon="1.43375">
        <ele>1248.89</ele>
        <time>2013-12-08T09:35:52Z</time>
      </trkpt>
      <trkpt lat="42.80744" lon="1.43373">
        <ele>1250.81</ele>
        <time>2013-12-08T09:36:04Z</time>
      </trkpt>
      <trkpt lat="42.80746" lon="1.43372">
        <ele>1250.33</ele>
        <time>2013-12-08T09:36:24Z</time>
      </trkpt>
      <trkpt lat="42.80748" lon="1.43371">
        <ele>1251.29</ele>
        <time>2013-12-08T09:36:40Z</time>
      </trkpt>
      <trkpt lat="42.80756" lon="1.43368">
        <ele>1253.7</ele>
        <time>2013-12-08T09:36:52Z</time>
      </trkpt>
      <trkpt lat="42.80769" lon="1.43365">
        <ele>1254.18</ele>
        <time>2013-12-08T09:37:02Z</time>
      </trkpt>
      <trkpt lat="42.80787" lon="1.43361">
        <ele>1255.14</ele>
        <time>2013-12-08T09:37:15Z</time>
      </trkpt>
      <trkpt lat="42.80804" lon="1.43357">
        <ele>1254.18</ele>
        <time>2013-12-08T09:37:28Z</time>
      </trkpt>
      <trkpt lat="42.80808" lon="1.43353">
        <ele>1254.18</ele>
        <time>2013-12-08T09:37:34Z</time>
      </trkpt>
      <trkpt lat="42.80817" lon="1.43345">
        <ele>1254.66</ele>
        <time>2013-12-08T09:37:46Z</time>
      </trkpt>
      <trkpt lat="42.8083" lon="1.43334">
        <ele>1255.14</ele>
        <time>2013-12-08T09:37:58Z</time>
      </trkpt>
      <trkpt lat="42.8084" lon="1.43324">
        <ele>1257.06</ele>
        <time>2013-12-08T09:38:10Z</time>
      </trkpt>
      <trkpt lat="42.80844" lon="1.43316">
        <ele>1256.1</ele>
        <time>2013-12-08T09:38:25Z</time>
      </trkpt>
      <trkpt lat="42.80847" lon="1.43314">
        <ele>1257.06</ele>
        <time>2013-12-08T09:38:41Z</time>
      </trkpt>
      <trkpt lat="42.80848" lon="1.43313">
        <ele>1256.58</ele>
        <time>2013-12-08T09:39:00Z</time>
      </trkpt>
      <trkpt lat="42.80848" lon="1.43312">
        <ele>1257.06</ele>
        <time>2013-12-08T09:39:14Z</time>
      </trkpt>
      <trkpt lat="42.80848" lon="1.43312">
        <ele>1258.5</ele>
        <time>2013-12-08T09:39:30Z</time>
      </trkpt>
      <trkpt lat="42.8085" lon="1.43312">
        <ele>1258.98</ele>
        <time>2013-12-08T09:39:47Z</time>
      </trkpt>
      <trkpt lat="42.8085" lon="1.43312">
        <ele>1258.98</ele>
        <time>2013-12-08T09:40:11Z</time>
      </trkpt>
      <trkpt lat="42.8085" lon="1.43312">
        <ele>1258.98</ele>
        <time>2013-12-08T09:40:34Z</time>
      </trkpt>
      <trkpt lat="42.8085" lon="1.43312">
        <ele>1258.5</ele>
        <time>2013-12-08T09:40:56Z</time>
      </trkpt>
      <trkpt lat="42.80849" lon="1.43312">
        <ele>1258.98</ele>
        <time>2013-12-08T09:41:12Z</time>
      </trkpt>
      <trkpt lat="42.80849" lon="1.43313">
        <ele>1259.46</ele>
        <time>2013-12-08T09:41:37Z</time>
      </trkpt>
      <trkpt lat="42.80851" lon="1.43311">
        <ele>1259.46</ele>
        <time>2013-12-08T09:42:01Z</time>
      </trkpt>
      <trkpt lat="42.80849" lon="1.43311">
        <ele>1261.87</ele>
        <time>2013-12-08T09:42:16Z</time>
      </trkpt>
      <trkpt lat="42.80849" lon="1.43309">
        <ele>1262.83</ele>
        <time>2013-12-08T09:42:31Z</time>
      </trkpt>
      <trkpt lat="42.80849" lon="1.4331">
        <ele>1262.35</ele>
        <time>2013-12-08T09:42:50Z</time>
      </trkpt>
      <trkpt lat="42.80848" lon="1.43311">
        <ele>1262.35</ele>
        <time>2013-12-08T09:43:12Z</time>
      </trkpt>
      <trkpt lat="42.80851" lon="1.4331">
        <ele>1260.91</ele>
        <time>2013-12-08T09:43:41Z</time>
      </trkpt>
      <trkpt lat="42.80851" lon="1.4331">
        <ele>1260.43</ele>
        <time>2013-12-08T09:44:05Z</time>
      </trkpt>
      <trkpt lat="42.80852" lon="1.43311">
        <ele>1260.91</ele>
        <time>2013-12-08T09:44:24Z</time>
      </trkpt>
      <trkpt lat="42.80854" lon="1.43312">
        <ele>1260.91</ele>
        <time>2013-12-08T09:44:37Z</time>
      </trkpt>
      <trkpt lat="42.80851" lon="1.43313">
        <ele>1262.35</ele>
        <time>2013-12-08T09:44:48Z</time>
      </trkpt>
      <trkpt lat="42.8085" lon="1.43313">
        <ele>1263.31</ele>
        <time>2013-12-08T09:45:06Z</time>
      </trkpt>
      <trkpt lat="42.80851" lon="1.43314">
        <ele>1262.83</ele>
        <time>2013-12-08T09:45:26Z</time>
      </trkpt>
      <trkpt lat="42.80851" lon="1.43313">
        <ele>1262.83</ele>
        <time>2013-12-08T09:45:43Z</time>
      </trkpt>
      <trkpt lat="42.80852" lon="1.43313">
        <ele>1262.83</ele>
        <time>2013-12-08T09:46:03Z</time>
      </trkpt>
      <trkpt lat="42.80852" lon="1.43313">
        <ele>1262.35</ele>
        <time>2013-12-08T09:46:25Z</time>
      </trkpt>
      <trkpt lat="42.80855" lon="1.43308">
        <ele>1262.83</ele>
        <time>2013-12-08T09:46:38Z</time>
      </trkpt>
      <trkpt lat="42.80856" lon="1.43292">
        <ele>1262.83</ele>
        <time>2013-12-08T09:46:53Z</time>
      </trkpt>
      <trkpt lat="42.80859" lon="1.43277">
        <ele>1260.43</ele>
        <time>2013-12-08T09:47:05Z</time>
      </trkpt>
      <trkpt lat="42.8086" lon="1.43276">
        <ele>1260.43</ele>
        <time>2013-12-08T09:47:07Z</time>
      </trkpt>
      <trkpt lat="42.80861" lon="1.43272">
        <ele>1260.91</ele>
        <time>2013-12-08T09:47:10Z</time>
      </trkpt>
      <trkpt lat="42.80867" lon="1.43256">
        <ele>1262.35</ele>
        <time>2013-12-08T09:47:21Z</time>
      </trkpt>
      <trkpt lat="42.80866" lon="1.43246">
        <ele>1262.35</ele>
        <time>2013-12-08T09:47:31Z</time>
      </trkpt>
      <trkpt lat="42.80867" lon="1.43227">
        <ele>1261.87</ele>
        <time>2013-12-08T09:47:45Z</time>
      </trkpt>
      <trkpt lat="42.80868" lon="1.43211">
        <ele>1260.91</ele>
        <time>2013-12-08T09:47:57Z</time>
      </trkpt>
      <trkpt lat="42.80873" lon="1.43192">
        <ele>1260.91</ele>
        <time>2013-12-08T09:48:13Z</time>
      </trkpt>
      <trkpt lat="42.80874" lon="1.43176">
        <ele>1258.5</ele>
        <time>2013-12-08T09:48:28Z</time>
      </trkpt>
      <trkpt lat="42.80876" lon="1.43157">
        <ele>1258.98</ele>
        <time>2013-12-08T09:48:44Z</time>
      </trkpt>
      <trkpt lat="42.80869" lon="1.43139">
        <ele>1263.31</ele>
        <time>2013-12-08T09:49:00Z</time>
      </trkpt>
      <trkpt lat="42.80865" lon="1.43128">
        <ele>1265.71</ele>
        <time>2013-12-08T09:49:11Z</time>
      </trkpt>
      <trkpt lat="42.80858" lon="1.43111">
        <ele>1270.04</ele>
        <time>2013-12-08T09:49:28Z</time>
      </trkpt>
      <trkpt lat="42.80852" lon="1.43092">
        <ele>1273.4</ele>
        <time>2013-12-08T09:49:45Z</time>
      </trkpt>
      <trkpt lat="42.80851" lon="1.43087">
        <ele>1272.92</ele>
        <time>2013-12-08T09:49:49Z</time>
      </trkpt>
      <trkpt lat="42.80842" lon="1.43062">
        <ele>1274.85</ele>
        <time>2013-12-08T09:50:06Z</time>
      </trkpt>
      <trkpt lat="42.8084" lon="1.43052">
        <ele>1273.88</ele>
        <time>2013-12-08T09:50:19Z</time>
      </trkpt>
      <trkpt lat="42.80831" lon="1.43043">
        <ele>1275.33</ele>
        <time>2013-12-08T09:50:34Z</time>
      </trkpt>
      <trkpt lat="42.80818" lon="1.43034">
        <ele>1276.77</ele>
        <time>2013-12-08T09:50:49Z</time>
      </trkpt>
      <trkpt lat="42.80813" lon="1.43034">
        <ele>1277.25</ele>
        <time>2013-12-08T09:51:01Z</time>
      </trkpt>
      <trkpt lat="42.80813" lon="1.43035">
        <ele>1276.77</ele>
        <time>2013-12-08T09:51:18Z</time>
      </trkpt>
      <trkpt lat="42.8081" lon="1.43034">
        <ele>1278.21</ele>
        <time>2013-12-08T09:51:33Z</time>
      </trkpt>
      <trkpt lat="42.80802" lon="1.43028">
        <ele>1278.21</ele>
        <time>2013-12-08T09:51:47Z</time>
      </trkpt>
      <trkpt lat="42.80789" lon="1.43021">
        <ele>1280.61</ele>
        <time>2013-12-08T09:51:59Z</time>
      </trkpt>
      <trkpt lat="42.80778" lon="1.43016">
        <ele>1282.06</ele>
        <time>2013-12-08T09:52:13Z</time>
      </trkpt>
      <trkpt lat="42.80772" lon="1.4301">
        <ele>1282.54</ele>
        <time>2013-12-08T09:52:25Z</time>
      </trkpt>
      <trkpt lat="42.80762" lon="1.43003">
        <ele>1282.54</ele>
        <time>2013-12-08T09:52:38Z</time>
      </trkpt>
      <trkpt lat="42.80747" lon="1.43003">
        <ele>1283.02</ele>
        <time>2013-12-08T09:52:51Z</time>
      </trkpt>
      <trkpt lat="42.80735" lon="1.43003">
        <ele>1283.98</ele>
        <time>2013-12-08T09:53:06Z</time>
      </trkpt>
      <trkpt lat="42.80726" lon="1.43001">
        <ele>1285.9</ele>
        <time>2013-12-08T09:53:19Z</time>
      </trkpt>
      <trkpt lat="42.80718" lon="1.42996">
        <ele>1285.9</ele>
        <time>2013-12-08T09:53:34Z</time>
      </trkpt>
      <trkpt lat="42.80711" lon="1.42991">
        <ele>1283.98</ele>
        <time>2013-12-08T09:53:45Z</time>
      </trkpt>
      <trkpt lat="42.80707" lon="1.42975">
        <ele>1282.54</ele>
        <time>2013-12-08T09:54:00Z</time>
      </trkpt>
      <trkpt lat="42.80706" lon="1.42959">
        <ele>1283.02</ele>
        <time>2013-12-08T09:54:16Z</time>
      </trkpt>
      <trkpt lat="42.80706" lon="1.42949">
        <ele>1282.06</ele>
        <time>2013-12-08T09:54:28Z</time>
      </trkpt>
      <trkpt lat="42.80696" lon="1.42927">
        <ele>1284.46</ele>
        <time>2013-12-08T09:54:43Z</time>
      </trkpt>
      <trkpt lat="42.80691" lon="1.42907">
        <ele>1288.3</ele>
        <time>2013-12-08T09:55:00Z</time>
      </trkpt>
      <trkpt lat="42.80682" lon="1.42892">
        <ele>1292.15</ele>
        <time>2013-12-08T09:55:18Z</time>
      </trkpt>
      <trkpt lat="42.80676" lon="1.42875">
        <ele>1293.59</ele>
        <time>2013-12-08T09:55:32Z</time>
      </trkpt>
      <trkpt lat="42.80672" lon="1.42859">
        <ele>1295.99</ele>
        <time>2013-12-08T09:55:46Z</time>
      </trkpt>
      <trkpt lat="42.80669" lon="1.42849">
        <ele>1297.44</ele>
        <time>2013-12-08T09:56:03Z</time>
      </trkpt>
      <trkpt lat="42.80664" lon="1.4284">
        <ele>1296.96</ele>
        <time>2013-12-08T09:56:18Z</time>
      </trkpt>
      <trkpt lat="42.80658" lon="1.42828">
        <ele>1297.92</ele>
        <time>2013-12-08T09:56:32Z</time>
      </trkpt>
      <trkpt lat="42.80655" lon="1.42822">
        <ele>1299.36</ele>
        <time>2013-12-08T09:56:54Z</time>
      </trkpt>
      <trkpt lat="42.80648" lon="1.42804">
        <ele>1302.72</ele>
        <time>2013-12-08T09:57:12Z</time>
      </trkpt>
      <trkpt lat="42.80646" lon="1.42783">
        <ele>1304.17</ele>
        <time>2013-12-08T09:57:28Z</time>
      </trkpt>
      <trkpt lat="42.80646" lon="1.42776">
        <ele>1304.65</ele>
        <time>2013-12-08T09:57:33Z</time>
      </trkpt>
      <trkpt lat="42.80646" lon="1.42766">
        <ele>1304.17</ele>
        <time>2013-12-08T09:57:45Z</time>
      </trkpt>
      <trkpt lat="42.80646" lon="1.42751">
        <ele>1302.72</ele>
        <time>2013-12-08T09:57:56Z</time>
      </trkpt>
      <trkpt lat="42.80647" lon="1.42737">
        <ele>1302.72</ele>
        <time>2013-12-08T09:58:09Z</time>
      </trkpt>
      <trkpt lat="42.80654" lon="1.42724">
        <ele>1297.44</ele>
        <time>2013-12-08T09:58:24Z</time>
      </trkpt>
      <trkpt lat="42.80656" lon="1.42712">
        <ele>1297.92</ele>
        <time>2013-12-08T09:58:35Z</time>
      </trkpt>
      <trkpt lat="42.80656" lon="1.42695">
        <ele>1303.69</ele>
        <time>2013-12-08T09:58:49Z</time>
      </trkpt>
      <trkpt lat="42.80662" lon="1.4268">
        <ele>1304.65</ele>
        <time>2013-12-08T09:59:01Z</time>
      </trkpt>
      <trkpt lat="42.80665" lon="1.4267">
        <ele>1307.05</ele>
        <time>2013-12-08T09:59:13Z</time>
      </trkpt>
      <trkpt lat="42.80665" lon="1.42662">
        <ele>1307.53</ele>
        <time>2013-12-08T09:59:20Z</time>
      </trkpt>
      <trkpt lat="42.80668" lon="1.42659">
        <ele>1307.05</ele>
        <time>2013-12-08T09:59:31Z</time>
      </trkpt>
      <trkpt lat="42.80667" lon="1.42654">
        <ele>1306.57</ele>
        <time>2013-12-08T09:59:54Z</time>
      </trkpt>
      <trkpt lat="42.8067" lon="1.4265">
        <ele>1308.01</ele>
        <time>2013-12-08T10:00:13Z</time>
      </trkpt>
      <trkpt lat="42.8067" lon="1.42646">
        <ele>1308.97</ele>
        <time>2013-12-08T10:00:16Z</time>
      </trkpt>
      <trkpt lat="42.80675" lon="1.42633">
        <ele>1309.93</ele>
        <time>2013-12-08T10:00:28Z</time>
      </trkpt>
      <trkpt lat="42.80675" lon="1.42623">
        <ele>1312.82</ele>
        <time>2013-12-08T10:00:35Z</time>
      </trkpt>
      <trkpt lat="42.8068" lon="1.42611">
        <ele>1310.9</ele>
        <time>2013-12-08T10:00:46Z</time>
      </trkpt>
      <trkpt lat="42.80682" lon="1.42595">
        <ele>1309.45</ele>
        <time>2013-12-08T10:00:59Z</time>
      </trkpt>
      <trkpt lat="42.80686" lon="1.42583">
        <ele>1305.61</ele>
        <time>2013-12-08T10:01:11Z</time>
      </trkpt>
      <trkpt lat="42.80687" lon="1.4258">
        <ele>1304.17</ele>
        <time>2013-12-08T10:01:14Z</time>
      </trkpt>
      <trkpt lat="42.80689" lon="1.42569">
        <ele>1302.72</ele>
        <time>2013-12-08T10:01:26Z</time>
      </trkpt>
      <trkpt lat="42.80692" lon="1.42553">
        <ele>1305.13</ele>
        <time>2013-12-08T10:01:39Z</time>
      </trkpt>
      <trkpt lat="42.80688" lon="1.42533">
        <ele>1311.86</ele>
        <time>2013-12-08T10:01:51Z</time>
      </trkpt>
      <trkpt lat="42.80688" lon="1.42531">
        <ele>1312.82</ele>
        <time>2013-12-08T10:01:53Z</time>
      </trkpt>
      <trkpt lat="42.8069" lon="1.42515">
        <ele>1318.59</ele>
        <time>2013-12-08T10:02:05Z</time>
      </trkpt>
      <trkpt lat="42.80692" lon="1.42501">
        <ele>1320.99</ele>
        <time>2013-12-08T10:02:17Z</time>
      </trkpt>
      <trkpt lat="42.80692" lon="1.42494">
        <ele>1323.39</ele>
        <time>2013-12-08T10:02:23Z</time>
      </trkpt>
      <trkpt lat="42.8069" lon="1.42475">
        <ele>1323.39</ele>
        <time>2013-12-08T10:02:37Z</time>
      </trkpt>
      <trkpt lat="42.80689" lon="1.42462">
        <ele>1324.83</ele>
        <time>2013-12-08T10:02:50Z</time>
      </trkpt>
      <trkpt lat="42.80689" lon="1.42448">
        <ele>1325.8</ele>
        <time>2013-12-08T10:03:03Z</time>
      </trkpt>
      <trkpt lat="42.80689" lon="1.42442">
        <ele>1327.24</ele>
        <time>2013-12-08T10:03:09Z</time>
      </trkpt>
      <trkpt lat="42.80684" lon="1.42425">
        <ele>1328.2</ele>
        <time>2013-12-08T10:03:22Z</time>
      </trkpt>
      <trkpt lat="42.80682" lon="1.42419">
        <ele>1328.68</ele>
        <time>2013-12-08T10:03:29Z</time>
      </trkpt>
      <trkpt lat="42.8067" lon="1.42406">
        <ele>1329.16</ele>
        <time>2013-12-08T10:03:43Z</time>
      </trkpt>
      <trkpt lat="42.8066" lon="1.42402">
        <ele>1329.16</ele>
        <time>2013-12-08T10:03:56Z</time>
      </trkpt>
      <trkpt lat="42.80652" lon="1.424">
        <ele>1330.12</ele>
        <time>2013-12-08T10:04:09Z</time>
      </trkpt>
      <trkpt lat="42.80649" lon="1.424">
        <ele>1331.08</ele>
        <time>2013-12-08T10:04:22Z</time>
      </trkpt>
      <trkpt lat="42.80649" lon="1.42401">
        <ele>1330.6</ele>
        <time>2013-12-08T10:04:40Z</time>
      </trkpt>
      <trkpt lat="42.80649" lon="1.42402">
        <ele>1330.6</ele>
        <time>2013-12-08T10:05:04Z</time>
      </trkpt>
      <trkpt lat="42.80649" lon="1.42402">
        <ele>1331.56</ele>
        <time>2013-12-08T10:05:23Z</time>
      </trkpt>
      <trkpt lat="42.80648" lon="1.42402">
        <ele>1332.04</ele>
        <time>2013-12-08T10:05:42Z</time>
      </trkpt>
      <trkpt lat="42.80644" lon="1.42401">
        <ele>1330.6</ele>
        <time>2013-12-08T10:05:57Z</time>
      </trkpt>
      <trkpt lat="42.80645" lon="1.42401">
        <ele>1331.08</ele>
        <time>2013-12-08T10:06:19Z</time>
      </trkpt>
      <trkpt lat="42.80645" lon="1.42401">
        <ele>1330.6</ele>
        <time>2013-12-08T10:06:41Z</time>
      </trkpt>
      <trkpt lat="42.80643" lon="1.42399">
        <ele>1332.52</ele>
        <time>2013-12-08T10:06:55Z</time>
      </trkpt>
      <trkpt lat="42.80642" lon="1.42398">
        <ele>1333.97</ele>
        <time>2013-12-08T10:07:09Z</time>
      </trkpt>
      <trkpt lat="42.80641" lon="1.42398">
        <ele>1335.41</ele>
        <time>2013-12-08T10:07:35Z</time>
      </trkpt>
      <trkpt lat="42.80639" lon="1.42397">
        <ele>1335.89</ele>
        <time>2013-12-08T10:07:53Z</time>
      </trkpt>
      <trkpt lat="42.80634" lon="1.42394">
        <ele>1337.81</ele>
        <time>2013-12-08T10:08:04Z</time>
      </trkpt>
      <trkpt lat="42.80635" lon="1.42382">
        <ele>1336.85</ele>
        <time>2013-12-08T10:08:16Z</time>
      </trkpt>
      <trkpt lat="42.80636" lon="1.4237">
        <ele>1337.81</ele>
        <time>2013-12-08T10:08:29Z</time>
      </trkpt>
      <trkpt lat="42.80636" lon="1.42358">
        <ele>1338.29</ele>
        <time>2013-12-08T10:08:42Z</time>
      </trkpt>
      <trkpt lat="42.80638" lon="1.42347">
        <ele>1340.7</ele>
        <time>2013-12-08T10:08:57Z</time>
      </trkpt>
      <trkpt lat="42.8064" lon="1.42337">
        <ele>1340.22</ele>
        <time>2013-12-08T10:09:11Z</time>
      </trkpt>
      <trkpt lat="42.8064" lon="1.42325">
        <ele>1341.66</ele>
        <time>2013-12-08T10:09:25Z</time>
      </trkpt>
      <trkpt lat="42.80639" lon="1.42313">
        <ele>1341.66</ele>
        <time>2013-12-08T10:09:38Z</time>
      </trkpt>
      <trkpt lat="42.80639" lon="1.42306">
        <ele>1343.58</ele>
        <time>2013-12-08T10:09:50Z</time>
      </trkpt>
      <trkpt lat="42.8064" lon="1.42305">
        <ele>1345.5</ele>
        <time>2013-12-08T10:10:08Z</time>
      </trkpt>
      <trkpt lat="42.80642" lon="1.42297">
        <ele>1346.46</ele>
        <time>2013-12-08T10:10:22Z</time>
      </trkpt>
      <trkpt lat="42.80642" lon="1.42287">
        <ele>1348.39</ele>
        <time>2013-12-08T10:10:33Z</time>
      </trkpt>
      <trkpt lat="42.80631" lon="1.42287">
        <ele>1355.12</ele>
        <time>2013-12-08T10:10:47Z</time>
      </trkpt>
      <trkpt lat="42.80626" lon="1.42282">
        <ele>1358.48</ele>
        <time>2013-12-08T10:11:01Z</time>
      </trkpt>
      <trkpt lat="42.80626" lon="1.4227">
        <ele>1361.36</ele>
        <time>2013-12-08T10:11:12Z</time>
      </trkpt>
      <trkpt lat="42.80624" lon="1.42261">
        <ele>1364.25</ele>
        <time>2013-12-08T10:11:24Z</time>
      </trkpt>
      <trkpt lat="42.80622" lon="1.42248">
        <ele>1366.65</ele>
        <time>2013-12-08T10:11:38Z</time>
      </trkpt>
      <trkpt lat="42.80619" lon="1.42242">
        <ele>1369.05</ele>
        <time>2013-12-08T10:11:49Z</time>
      </trkpt>
      <trkpt lat="42.80614" lon="1.42233">
        <ele>1370.5</ele>
        <time>2013-12-08T10:12:02Z</time>
      </trkpt>
      <trkpt lat="42.80611" lon="1.42226">
        <ele>1372.42</ele>
        <time>2013-12-08T10:12:13Z</time>
      </trkpt>
      <trkpt lat="42.80608" lon="1.42221">
        <ele>1373.38</ele>
        <time>2013-12-08T10:12:23Z</time>
      </trkpt>
      <trkpt lat="42.80606" lon="1.42215">
        <ele>1372.9</ele>
        <time>2013-12-08T10:12:33Z</time>
      </trkpt>
      <trkpt lat="42.80603" lon="1.42207">
        <ele>1371.94</ele>
        <time>2013-12-08T10:12:48Z</time>
      </trkpt>
      <trkpt lat="42.80597" lon="1.42196">
        <ele>1372.42</ele>
        <time>2013-12-08T10:13:01Z</time>
      </trkpt>
      <trkpt lat="42.8059" lon="1.42189">
        <ele>1375.3</ele>
        <time>2013-12-08T10:13:13Z</time>
      </trkpt>
      <trkpt lat="42.80587" lon="1.42177">
        <ele>1376.26</ele>
        <time>2013-12-08T10:13:27Z</time>
      </trkpt>
      <trkpt lat="42.80582" lon="1.42172">
        <ele>1377.71</ele>
        <time>2013-12-08T10:13:41Z</time>
      </trkpt>
      <trkpt lat="42.80575" lon="1.42158">
        <ele>1385.4</ele>
        <time>2013-12-08T10:13:55Z</time>
      </trkpt>
      <trkpt lat="42.80571" lon="1.42146">
        <ele>1386.84</ele>
        <time>2013-12-08T10:14:08Z</time>
      </trkpt>
      <trkpt lat="42.8057" lon="1.42133">
        <ele>1386.84</ele>
        <time>2013-12-08T10:14:20Z</time>
      </trkpt>
      <trkpt lat="42.80567" lon="1.42127">
        <ele>1387.8</ele>
        <time>2013-12-08T10:14:34Z</time>
      </trkpt>
      <trkpt lat="42.80566" lon="1.42126">
        <ele>1389.24</ele>
        <time>2013-12-08T10:14:48Z</time>
      </trkpt>
      <trkpt lat="42.80566" lon="1.42126">
        <ele>1389.24</ele>
        <time>2013-12-08T10:15:01Z</time>
      </trkpt>
      <trkpt lat="42.80565" lon="1.42125">
        <ele>1390.2</ele>
        <time>2013-12-08T10:15:23Z</time>
      </trkpt>
      <trkpt lat="42.80565" lon="1.42118">
        <ele>1390.2</ele>
        <time>2013-12-08T10:15:36Z</time>
      </trkpt>
      <trkpt lat="42.80565" lon="1.42118">
        <ele>1391.17</ele>
        <time>2013-12-08T10:15:59Z</time>
      </trkpt>
      <trkpt lat="42.80566" lon="1.42116">
        <ele>1391.17</ele>
        <time>2013-12-08T10:16:14Z</time>
      </trkpt>
      <trkpt lat="42.80566" lon="1.4211">
        <ele>1391.65</ele>
        <time>2013-12-08T10:16:18Z</time>
      </trkpt>
      <trkpt lat="42.80565" lon="1.42091">
        <ele>1393.57</ele>
        <time>2013-12-08T10:16:31Z</time>
      </trkpt>
      <trkpt lat="42.80565" lon="1.4208">
        <ele>1395.01</ele>
        <time>2013-12-08T10:16:42Z</time>
      </trkpt>
      <trkpt lat="42.80564" lon="1.4207">
        <ele>1395.01</ele>
        <time>2013-12-08T10:16:54Z</time>
      </trkpt>
      <trkpt lat="42.80564" lon="1.4206">
        <ele>1394.05</ele>
        <time>2013-12-08T10:17:07Z</time>
      </trkpt>
      <trkpt lat="42.80564" lon="1.42045">
        <ele>1392.13</ele>
        <time>2013-12-08T10:17:19Z</time>
      </trkpt>
      <trkpt lat="42.80563" lon="1.42038">
        <ele>1392.61</ele>
        <time>2013-12-08T10:17:30Z</time>
      </trkpt>
      <trkpt lat="42.80562" lon="1.42036">
        <ele>1395.01</ele>
        <time>2013-12-08T10:17:47Z</time>
      </trkpt>
      <trkpt lat="42.80556" lon="1.42024">
        <ele>1395.01</ele>
        <time>2013-12-08T10:18:00Z</time>
      </trkpt>
      <trkpt lat="42.8055" lon="1.42008">
        <ele>1398.86</ele>
        <time>2013-12-08T10:18:13Z</time>
      </trkpt>
      <trkpt lat="42.80549" lon="1.42006">
        <ele>1399.34</ele>
        <time>2013-12-08T10:18:14Z</time>
      </trkpt>
      <trkpt lat="42.80548" lon="1.41994">
        <ele>1402.22</ele>
        <time>2013-12-08T10:18:25Z</time>
      </trkpt>
      <trkpt lat="42.8055" lon="1.41979">
        <ele>1405.58</ele>
        <time>2013-12-08T10:18:37Z</time>
      </trkpt>
      <trkpt lat="42.8055" lon="1.41978">
        <ele>1406.55</ele>
        <time>2013-12-08T10:18:38Z</time>
      </trkpt>
      <trkpt lat="42.80553" lon="1.4197">
        <ele>1407.03</ele>
        <time>2013-12-08T10:18:44Z</time>
      </trkpt>
      <trkpt lat="42.80554" lon="1.41964">
        <ele>1408.47</ele>
        <time>2013-12-08T10:18:49Z</time>
      </trkpt>
      <trkpt lat="42.80557" lon="1.41953">
        <ele>1409.43</ele>
        <time>2013-12-08T10:19:02Z</time>
      </trkpt>
      <trkpt lat="42.80559" lon="1.41939">
        <ele>1409.91</ele>
        <time>2013-12-08T10:19:14Z</time>
      </trkpt>
      <trkpt lat="42.80565" lon="1.4193">
        <ele>1409.91</ele>
        <time>2013-12-08T10:19:26Z</time>
      </trkpt>
      <trkpt lat="42.80566" lon="1.41918">
        <ele>1410.87</ele>
        <time>2013-12-08T10:19:37Z</time>
      </trkpt>
      <trkpt lat="42.80568" lon="1.41906">
        <ele>1411.35</ele>
        <time>2013-12-08T10:19:49Z</time>
      </trkpt>
      <trkpt lat="42.80572" lon="1.41895">
        <ele>1413.76</ele>
        <time>2013-12-08T10:20:02Z</time>
      </trkpt>
      <trkpt lat="42.80573" lon="1.41887">
        <ele>1414.72</ele>
        <time>2013-12-08T10:20:10Z</time>
      </trkpt>
      <trkpt lat="42.80575" lon="1.41871">
        <ele>1414.72</ele>
        <time>2013-12-08T10:20:22Z</time>
      </trkpt>
      <trkpt lat="42.80578" lon="1.41863">
        <ele>1416.16</ele>
        <time>2013-12-08T10:20:33Z</time>
      </trkpt>
      <trkpt lat="42.8058" lon="1.41856">
        <ele>1418.56</ele>
        <time>2013-12-08T10:20:44Z</time>
      </trkpt>
      <trkpt lat="42.80585" lon="1.41845">
        <ele>1422.41</ele>
        <time>2013-12-08T10:20:56Z</time>
      </trkpt>
      <trkpt lat="42.80586" lon="1.41832">
        <ele>1426.25</ele>
        <time>2013-12-08T10:21:08Z</time>
      </trkpt>
      <trkpt lat="42.80589" lon="1.41826">
        <ele>1427.21</ele>
        <time>2013-12-08T10:21:14Z</time>
      </trkpt>
      <trkpt lat="42.80592" lon="1.41817">
        <ele>1427.21</ele>
        <time>2013-12-08T10:21:21Z</time>
      </trkpt>
      <trkpt lat="42.80594" lon="1.41809">
        <ele>1430.1</ele>
        <time>2013-12-08T10:21:33Z</time>
      </trkpt>
      <trkpt lat="42.80594" lon="1.41808">
        <ele>1431.06</ele>
        <time>2013-12-08T10:21:57Z</time>
      </trkpt>
      <trkpt lat="42.80593" lon="1.41809">
        <ele>1430.58</ele>
        <time>2013-12-08T10:22:20Z</time>
      </trkpt>
      <trkpt lat="42.80593" lon="1.41809">
        <ele>1430.58</ele>
        <time>2013-12-08T10:22:43Z</time>
      </trkpt>
      <trkpt lat="42.80593" lon="1.41809">
        <ele>1429.62</ele>
        <time>2013-12-08T10:23:06Z</time>
      </trkpt>
      <trkpt lat="42.80593" lon="1.4181">
        <ele>1430.1</ele>
        <time>2013-12-08T10:23:24Z</time>
      </trkpt>
      <trkpt lat="42.80594" lon="1.4181">
        <ele>1429.62</ele>
        <time>2013-12-08T10:23:50Z</time>
      </trkpt>
      <trkpt lat="42.80594" lon="1.41811">
        <ele>1429.62</ele>
        <time>2013-12-08T10:24:15Z</time>
      </trkpt>
      <trkpt lat="42.80594" lon="1.41811">
        <ele>1430.1</ele>
        <time>2013-12-08T10:24:37Z</time>
      </trkpt>
      <trkpt lat="42.80594" lon="1.41811">
        <ele>1430.1</ele>
        <time>2013-12-08T10:24:58Z</time>
      </trkpt>
      <trkpt lat="42.80594" lon="1.4181">
        <ele>1430.1</ele>
        <time>2013-12-08T10:25:18Z</time>
      </trkpt>
      <trkpt lat="42.80594" lon="1.41811">
        <ele>1430.1</ele>
        <time>2013-12-08T10:25:39Z</time>
      </trkpt>
      <trkpt lat="42.80594" lon="1.4181">
        <ele>1429.62</ele>
        <time>2013-12-08T10:26:01Z</time>
      </trkpt>
      <trkpt lat="42.80594" lon="1.4181">
        <ele>1430.1</ele>
        <time>2013-12-08T10:26:22Z</time>
      </trkpt>
      <trkpt lat="42.80594" lon="1.4181">
        <ele>1430.1</ele>
        <time>2013-12-08T10:26:47Z</time>
      </trkpt>
      <trkpt lat="42.80594" lon="1.41809">
        <ele>1429.62</ele>
        <time>2013-12-08T10:27:07Z</time>
      </trkpt>
      <trkpt lat="42.80594" lon="1.4181">
        <ele>1429.14</ele>
        <time>2013-12-08T10:27:25Z</time>
      </trkpt>
      <trkpt lat="42.80594" lon="1.41809">
        <ele>1429.62</ele>
        <time>2013-12-08T10:27:46Z</time>
      </trkpt>
      <trkpt lat="42.80595" lon="1.41797">
        <ele>1428.66</ele>
        <time>2013-12-08T10:27:59Z</time>
      </trkpt>
      <trkpt lat="42.80598" lon="1.4178">
        <ele>1429.14</ele>
        <time>2013-12-08T10:28:13Z</time>
      </trkpt>
      <trkpt lat="42.80598" lon="1.41764">
        <ele>1430.58</ele>
        <time>2013-12-08T10:28:27Z</time>
      </trkpt>
      <trkpt lat="42.80601" lon="1.41749">
        <ele>1430.58</ele>
        <time>2013-12-08T10:28:41Z</time>
      </trkpt>
      <trkpt lat="42.80602" lon="1.41736">
        <ele>1431.54</ele>
        <time>2013-12-08T10:28:57Z</time>
      </trkpt>
      <trkpt lat="42.80602" lon="1.41722">
        <ele>1432.5</ele>
        <time>2013-12-08T10:29:09Z</time>
      </trkpt>
      <trkpt lat="42.80603" lon="1.41709">
        <ele>1433.94</ele>
        <time>2013-12-08T10:29:24Z</time>
      </trkpt>
      <trkpt lat="42.80604" lon="1.41697">
        <ele>1434.91</ele>
        <time>2013-12-08T10:29:34Z</time>
      </trkpt>
      <trkpt lat="42.80604" lon="1.41686">
        <ele>1434.42</ele>
        <time>2013-12-08T10:29:46Z</time>
      </trkpt>
      <trkpt lat="42.80604" lon="1.41685">
        <ele>1434.42</ele>
        <time>2013-12-08T10:29:48Z</time>
      </trkpt>
      <trkpt lat="42.80603" lon="1.41668">
        <ele>1433.94</ele>
        <time>2013-12-08T10:30:03Z</time>
      </trkpt>
      <trkpt lat="42.80598" lon="1.41656">
        <ele>1433.46</ele>
        <time>2013-12-08T10:30:16Z</time>
      </trkpt>
      <trkpt lat="42.80598" lon="1.41645">
        <ele>1434.42</ele>
        <time>2013-12-08T10:30:30Z</time>
      </trkpt>
      <trkpt lat="42.80596" lon="1.41638">
        <ele>1434.91</ele>
        <time>2013-12-08T10:30:40Z</time>
      </trkpt>
      <trkpt lat="42.80592" lon="1.41626">
        <ele>1435.39</ele>
        <time>2013-12-08T10:30:50Z</time>
      </trkpt>
      <trkpt lat="42.80587" lon="1.41614">
        <ele>1434.91</ele>
        <time>2013-12-08T10:31:02Z</time>
      </trkpt>
      <trkpt lat="42.80582" lon="1.41602">
        <ele>1437.31</ele>
        <time>2013-12-08T10:31:14Z</time>
      </trkpt>
      <trkpt lat="42.80577" lon="1.41592">
        <ele>1439.71</ele>
        <time>2013-12-08T10:31:26Z</time>
      </trkpt>
      <trkpt lat="42.80575" lon="1.41583">
        <ele>1441.15</ele>
        <time>2013-12-08T10:31:37Z</time>
      </trkpt>
      <trkpt lat="42.80571" lon="1.4157">
        <ele>1445</ele>
        <time>2013-12-08T10:31:51Z</time>
      </trkpt>
      <trkpt lat="42.80566" lon="1.4156">
        <ele>1448.84</ele>
        <time>2013-12-08T10:32:05Z</time>
      </trkpt>
      <trkpt lat="42.80566" lon="1.41551">
        <ele>1453.65</ele>
        <time>2013-12-08T10:32:20Z</time>
      </trkpt>
      <trkpt lat="42.80567" lon="1.4154">
        <ele>1456.53</ele>
        <time>2013-12-08T10:32:33Z</time>
      </trkpt>
      <trkpt lat="42.80569" lon="1.41531">
        <ele>1457.98</ele>
        <time>2013-12-08T10:32:46Z</time>
      </trkpt>
      <trkpt lat="42.80575" lon="1.41522">
        <ele>1463.26</ele>
        <time>2013-12-08T10:33:01Z</time>
      </trkpt>
      <trkpt lat="42.80582" lon="1.41517">
        <ele>1466.15</ele>
        <time>2013-12-08T10:33:16Z</time>
      </trkpt>
      <trkpt lat="42.80591" lon="1.41514">
        <ele>1465.67</ele>
        <time>2013-12-08T10:33:30Z</time>
      </trkpt>
      <trkpt lat="42.80596" lon="1.41504">
        <ele>1469.03</ele>
        <time>2013-12-08T10:33:47Z</time>
      </trkpt>
      <trkpt lat="42.80601" lon="1.41496">
        <ele>1471.44</ele>
        <time>2013-12-08T10:34:01Z</time>
      </trkpt>
      <trkpt lat="42.80605" lon="1.41489">
        <ele>1473.84</ele>
        <time>2013-12-08T10:34:15Z</time>
      </trkpt>
      <trkpt lat="42.80606" lon="1.41478">
        <ele>1477.2</ele>
        <time>2013-12-08T10:34:32Z</time>
      </trkpt>
      <trkpt lat="42.80606" lon="1.41473">
        <ele>1477.68</ele>
        <time>2013-12-08T10:34:45Z</time>
      </trkpt>
      <trkpt lat="42.80609" lon="1.41462">
        <ele>1479.61</ele>
        <time>2013-12-08T10:35:00Z</time>
      </trkpt>
      <trkpt lat="42.80615" lon="1.41455">
        <ele>1482.01</ele>
        <time>2013-12-08T10:35:13Z</time>
      </trkpt>
      <trkpt lat="42.80614" lon="1.41446">
        <ele>1484.89</ele>
        <time>2013-12-08T10:35:24Z</time>
      </trkpt>
      <trkpt lat="42.80612" lon="1.41441">
        <ele>1486.34</ele>
        <time>2013-12-08T10:35:31Z</time>
      </trkpt>
      <trkpt lat="42.80614" lon="1.4143">
        <ele>1487.78</ele>
        <time>2013-12-08T10:35:43Z</time>
      </trkpt>
      <trkpt lat="42.80613" lon="1.41425">
        <ele>1488.26</ele>
        <time>2013-12-08T10:35:57Z</time>
      </trkpt>
      <trkpt lat="42.80614" lon="1.41419">
        <ele>1488.74</ele>
        <time>2013-12-08T10:36:14Z</time>
      </trkpt>
      <trkpt lat="42.80617" lon="1.41406">
        <ele>1489.7</ele>
        <time>2013-12-08T10:36:28Z</time>
      </trkpt>
      <trkpt lat="42.80618" lon="1.41393">
        <ele>1492.58</ele>
        <time>2013-12-08T10:36:43Z</time>
      </trkpt>
      <trkpt lat="42.80618" lon="1.41383">
        <ele>1493.55</ele>
        <time>2013-12-08T10:36:56Z</time>
      </trkpt>
      <trkpt lat="42.80617" lon="1.4137">
        <ele>1493.55</ele>
        <time>2013-12-08T10:37:09Z</time>
      </trkpt>
      <trkpt lat="42.80617" lon="1.4136">
        <ele>1492.58</ele>
        <time>2013-12-08T10:37:22Z</time>
      </trkpt>
      <trkpt lat="42.80617" lon="1.41346">
        <ele>1494.51</ele>
        <time>2013-12-08T10:37:36Z</time>
      </trkpt>
      <trkpt lat="42.80617" lon="1.41338">
        <ele>1496.91</ele>
        <time>2013-12-08T10:37:49Z</time>
      </trkpt>
      <trkpt lat="42.80617" lon="1.41326">
        <ele>1499.31</ele>
        <time>2013-12-08T10:38:01Z</time>
      </trkpt>
      <trkpt lat="42.80621" lon="1.41323">
        <ele>1500.76</ele>
        <time>2013-12-08T10:38:13Z</time>
      </trkpt>
      <trkpt lat="42.8063" lon="1.41318">
        <ele>1501.72</ele>
        <time>2013-12-08T10:38:28Z</time>
      </trkpt>
      <trkpt lat="42.80632" lon="1.41317">
        <ele>1503.64</ele>
        <time>2013-12-08T10:38:42Z</time>
      </trkpt>
      <trkpt lat="42.80632" lon="1.41315">
        <ele>1503.16</ele>
        <time>2013-12-08T10:39:03Z</time>
      </trkpt>
      <trkpt lat="42.80637" lon="1.41311">
        <ele>1503.64</ele>
        <time>2013-12-08T10:39:23Z</time>
      </trkpt>
      <trkpt lat="42.80644" lon="1.41305">
        <ele>1504.12</ele>
        <time>2013-12-08T10:39:36Z</time>
      </trkpt>
      <trkpt lat="42.80654" lon="1.41299">
        <ele>1505.08</ele>
        <time>2013-12-08T10:39:51Z</time>
      </trkpt>
      <trkpt lat="42.80664" lon="1.41296">
        <ele>1507.97</ele>
        <time>2013-12-08T10:40:06Z</time>
      </trkpt>
      <trkpt lat="42.80675" lon="1.41292">
        <ele>1511.33</ele>
        <time>2013-12-08T10:40:20Z</time>
      </trkpt>
      <trkpt lat="42.80684" lon="1.41287">
        <ele>1514.21</ele>
        <time>2013-12-08T10:40:34Z</time>
      </trkpt>
      <trkpt lat="42.80692" lon="1.41281">
        <ele>1516.62</ele>
        <time>2013-12-08T10:40:47Z</time>
      </trkpt>
      <trkpt lat="42.80699" lon="1.41276">
        <ele>1518.54</ele>
        <time>2013-12-08T10:41:00Z</time>
      </trkpt>
      <trkpt lat="42.807" lon="1.41275">
        <ele>1518.54</ele>
        <time>2013-12-08T10:41:19Z</time>
      </trkpt>
      <trkpt lat="42.80703" lon="1.41273">
        <ele>1519.02</ele>
        <time>2013-12-08T10:41:37Z</time>
      </trkpt>
      <trkpt lat="42.80702" lon="1.41273">
        <ele>1519.98</ele>
        <time>2013-12-08T10:41:57Z</time>
      </trkpt>
      <trkpt lat="42.80702" lon="1.41273">
        <ele>1519.98</ele>
        <time>2013-12-08T10:42:22Z</time>
      </trkpt>
      <trkpt lat="42.80703" lon="1.41275">
        <ele>1519.5</ele>
        <time>2013-12-08T10:42:43Z</time>
      </trkpt>
      <trkpt lat="42.80709" lon="1.41283">
        <ele>1520.94</ele>
        <time>2013-12-08T10:42:56Z</time>
      </trkpt>
      <trkpt lat="42.80714" lon="1.41292">
        <ele>1522.87</ele>
        <time>2013-12-08T10:43:09Z</time>
      </trkpt>
      <trkpt lat="42.8072" lon="1.41302">
        <ele>1524.79</ele>
        <time>2013-12-08T10:43:26Z</time>
      </trkpt>
      <trkpt lat="42.80723" lon="1.4131">
        <ele>1527.19</ele>
        <time>2013-12-08T10:43:41Z</time>
      </trkpt>
      <trkpt lat="42.80727" lon="1.4132">
        <ele>1531.04</ele>
        <time>2013-12-08T10:43:54Z</time>
      </trkpt>
      <trkpt lat="42.80731" lon="1.41327">
        <ele>1532.48</ele>
        <time>2013-12-08T10:44:07Z</time>
      </trkpt>
      <trkpt lat="42.80735" lon="1.41335">
        <ele>1533.44</ele>
        <time>2013-12-08T10:44:20Z</time>
      </trkpt>
      <trkpt lat="42.80739" lon="1.41342">
        <ele>1536.32</ele>
        <time>2013-12-08T10:44:34Z</time>
      </trkpt>
      <trkpt lat="42.80746" lon="1.41353">
        <ele>1541.13</ele>
        <time>2013-12-08T10:44:50Z</time>
      </trkpt>
      <trkpt lat="42.80752" lon="1.41358">
        <ele>1543.53</ele>
        <time>2013-12-08T10:45:04Z</time>
      </trkpt>
      <trkpt lat="42.80758" lon="1.41367">
        <ele>1543.53</ele>
        <time>2013-12-08T10:45:17Z</time>
      </trkpt>
      <trkpt lat="42.80762" lon="1.41368">
        <ele>1545.46</ele>
        <time>2013-12-08T10:45:30Z</time>
      </trkpt>
      <trkpt lat="42.80767" lon="1.41358">
        <ele>1549.78</ele>
        <time>2013-12-08T10:45:46Z</time>
      </trkpt>
      <trkpt lat="42.80772" lon="1.41345">
        <ele>1550.74</ele>
        <time>2013-12-08T10:46:04Z</time>
      </trkpt>
      <trkpt lat="42.80777" lon="1.41338">
        <ele>1553.15</ele>
        <time>2013-12-08T10:46:18Z</time>
      </trkpt>
      <trkpt lat="42.80781" lon="1.41329">
        <ele>1556.03</ele>
        <time>2013-12-08T10:46:30Z</time>
      </trkpt>
      <trkpt lat="42.80783" lon="1.41327">
        <ele>1556.99</ele>
        <time>2013-12-08T10:46:33Z</time>
      </trkpt>
      <trkpt lat="42.80787" lon="1.41318">
        <ele>1558.43</ele>
        <time>2013-12-08T10:46:46Z</time>
      </trkpt>
      <trkpt lat="42.80794" lon="1.41308">
        <ele>1561.8</ele>
        <time>2013-12-08T10:47:04Z</time>
      </trkpt>
      <trkpt lat="42.80799" lon="1.41299">
        <ele>1564.68</ele>
        <time>2013-12-08T10:47:18Z</time>
      </trkpt>
      <trkpt lat="42.80803" lon="1.41292">
        <ele>1567.09</ele>
        <time>2013-12-08T10:47:31Z</time>
      </trkpt>
      <trkpt lat="42.8081" lon="1.41284">
        <ele>1569.49</ele>
        <time>2013-12-08T10:47:46Z</time>
      </trkpt>
      <trkpt lat="42.80817" lon="1.41276">
        <ele>1572.85</ele>
        <time>2013-12-08T10:48:01Z</time>
      </trkpt>
      <trkpt lat="42.80821" lon="1.41272">
        <ele>1573.82</ele>
        <time>2013-12-08T10:48:14Z</time>
      </trkpt>
      <trkpt lat="42.80828" lon="1.41268">
        <ele>1575.26</ele>
        <time>2013-12-08T10:48:28Z</time>
      </trkpt>
      <trkpt lat="42.80837" lon="1.41263">
        <ele>1577.66</ele>
        <time>2013-12-08T10:48:44Z</time>
      </trkpt>
      <trkpt lat="42.80846" lon="1.41261">
        <ele>1579.58</ele>
        <time>2013-12-08T10:49:00Z</time>
      </trkpt>
      <trkpt lat="42.80856" lon="1.41257">
        <ele>1582.95</ele>
        <time>2013-12-08T10:49:17Z</time>
      </trkpt>
      <trkpt lat="42.80863" lon="1.41253">
        <ele>1585.35</ele>
        <time>2013-12-08T10:49:30Z</time>
      </trkpt>
      <trkpt lat="42.8087" lon="1.41246">
        <ele>1586.79</ele>
        <time>2013-12-08T10:49:46Z</time>
      </trkpt>
      <trkpt lat="42.80878" lon="1.4124">
        <ele>1590.16</ele>
        <time>2013-12-08T10:50:02Z</time>
      </trkpt>
      <trkpt lat="42.80883" lon="1.41237">
        <ele>1592.56</ele>
        <time>2013-12-08T10:50:18Z</time>
      </trkpt>
      <trkpt lat="42.80883" lon="1.41238">
        <ele>1592.56</ele>
        <time>2013-12-08T10:50:38Z</time>
      </trkpt>
      <trkpt lat="42.80883" lon="1.41237">
        <ele>1592.56</ele>
        <time>2013-12-08T10:51:01Z</time>
      </trkpt>
      <trkpt lat="42.80883" lon="1.41238">
        <ele>1592.56</ele>
        <time>2013-12-08T10:51:24Z</time>
      </trkpt>
      <trkpt lat="42.80883" lon="1.41238">
        <ele>1593.04</ele>
        <time>2013-12-08T10:51:51Z</time>
      </trkpt>
      <trkpt lat="42.80884" lon="1.41238">
        <ele>1593.04</ele>
        <time>2013-12-08T10:52:13Z</time>
      </trkpt>
      <trkpt lat="42.80884" lon="1.41239">
        <ele>1593.52</ele>
        <time>2013-12-08T10:52:40Z</time>
      </trkpt>
      <trkpt lat="42.80884" lon="1.41239">
        <ele>1593.52</ele>
        <time>2013-12-08T10:53:07Z</time>
      </trkpt>
      <trkpt lat="42.80883" lon="1.41238">
        <ele>1593.52</ele>
        <time>2013-12-08T10:53:24Z</time>
      </trkpt>
      <trkpt lat="42.80883" lon="1.41238">
        <ele>1593.52</ele>
        <time>2013-12-08T10:53:45Z</time>
      </trkpt>
      <trkpt lat="42.80883" lon="1.41238">
        <ele>1594.48</ele>
        <time>2013-12-08T10:54:07Z</time>
      </trkpt>
      <trkpt lat="42.80883" lon="1.41238">
        <ele>1594</ele>
        <time>2013-12-08T10:54:31Z</time>
      </trkpt>
      <trkpt lat="42.80883" lon="1.41238">
        <ele>1594.48</ele>
        <time>2013-12-08T10:54:58Z</time>
      </trkpt>
      <trkpt lat="42.80883" lon="1.41238">
        <ele>1594.48</ele>
        <time>2013-12-08T10:55:18Z</time>
      </trkpt>
      <trkpt lat="42.80883" lon="1.41237">
        <ele>1594</ele>
        <time>2013-12-08T10:55:42Z</time>
      </trkpt>
      <trkpt lat="42.80883" lon="1.41237">
        <ele>1594</ele>
        <time>2013-12-08T10:56:07Z</time>
      </trkpt>
      <trkpt lat="42.80884" lon="1.41239">
        <ele>1593.04</ele>
        <time>2013-12-08T10:56:34Z</time>
      </trkpt>
      <trkpt lat="42.80889" lon="1.41247">
        <ele>1593.04</ele>
        <time>2013-12-08T10:56:47Z</time>
      </trkpt>
      <trkpt lat="42.80893" lon="1.41256">
        <ele>1594.48</ele>
        <time>2013-12-08T10:57:00Z</time>
      </trkpt>
      <trkpt lat="42.80899" lon="1.41267">
        <ele>1598.33</ele>
        <time>2013-12-08T10:57:14Z</time>
      </trkpt>
      <trkpt lat="42.80905" lon="1.41277">
        <ele>1602.66</ele>
        <time>2013-12-08T10:57:27Z</time>
      </trkpt>
      <trkpt lat="42.80913" lon="1.41283">
        <ele>1604.1</ele>
        <time>2013-12-08T10:57:42Z</time>
      </trkpt>
      <trkpt lat="42.80922" lon="1.41277">
        <ele>1607.94</ele>
        <time>2013-12-08T10:57:58Z</time>
      </trkpt>
      <trkpt lat="42.8093" lon="1.4127">
        <ele>1609.86</ele>
        <time>2013-12-08T10:58:12Z</time>
      </trkpt>
      <trkpt lat="42.8094" lon="1.41265">
        <ele>1612.27</ele>
        <time>2013-12-08T10:58:27Z</time>
      </trkpt>
      <trkpt lat="42.80948" lon="1.41261">
        <ele>1615.63</ele>
        <time>2013-12-08T10:58:42Z</time>
      </trkpt>
      <trkpt lat="42.80957" lon="1.4126">
        <ele>1618.04</ele>
        <time>2013-12-08T10:58:56Z</time>
      </trkpt>
      <trkpt lat="42.80966" lon="1.41259">
        <ele>1619.48</ele>
        <time>2013-12-08T10:59:11Z</time>
      </trkpt>
      <trkpt lat="42.80974" lon="1.41258">
        <ele>1621.4</ele>
        <time>2013-12-08T10:59:26Z</time>
      </trkpt>
      <trkpt lat="42.80984" lon="1.41254">
        <ele>1623.8</ele>
        <time>2013-12-08T10:59:42Z</time>
      </trkpt>
      <trkpt lat="42.80993" lon="1.4125">
        <ele>1625.73</ele>
        <time>2013-12-08T10:59:57Z</time>
      </trkpt>
      <trkpt lat="42.81002" lon="1.41243">
        <ele>1630.05</ele>
        <time>2013-12-08T11:00:14Z</time>
      </trkpt>
      <trkpt lat="42.81011" lon="1.41235">
        <ele>1631.49</ele>
        <time>2013-12-08T11:00:30Z</time>
      </trkpt>
      <trkpt lat="42.81019" lon="1.41228">
        <ele>1634.86</ele>
        <time>2013-12-08T11:00:45Z</time>
      </trkpt>
      <trkpt lat="42.81021" lon="1.41228">
        <ele>1635.34</ele>
        <time>2013-12-08T11:00:48Z</time>
      </trkpt>
      <trkpt lat="42.8103" lon="1.4122">
        <ele>1634.38</ele>
        <time>2013-12-08T11:01:05Z</time>
      </trkpt>
      <trkpt lat="42.81037" lon="1.41215">
        <ele>1633.9</ele>
        <time>2013-12-08T11:01:17Z</time>
      </trkpt>
      <trkpt lat="42.81044" lon="1.41209">
        <ele>1633.9</ele>
        <time>2013-12-08T11:01:30Z</time>
      </trkpt>
      <trkpt lat="42.81052" lon="1.41204">
        <ele>1634.86</ele>
        <time>2013-12-08T11:01:44Z</time>
      </trkpt>
      <trkpt lat="42.81061" lon="1.41205">
        <ele>1636.78</ele>
        <time>2013-12-08T11:01:59Z</time>
      </trkpt>
      <trkpt lat="42.81066" lon="1.41206">
        <ele>1636.78</ele>
        <time>2013-12-08T11:02:07Z</time>
      </trkpt>
      <trkpt lat="42.81073" lon="1.41209">
        <ele>1637.74</ele>
        <time>2013-12-08T11:02:21Z</time>
      </trkpt>
      <trkpt lat="42.8108" lon="1.41211">
        <ele>1636.78</ele>
        <time>2013-12-08T11:02:36Z</time>
      </trkpt>
      <trkpt lat="42.81086" lon="1.41214">
        <ele>1637.74</ele>
        <time>2013-12-08T11:02:49Z</time>
      </trkpt>
      <trkpt lat="42.81091" lon="1.41217">
        <ele>1638.22</ele>
        <time>2013-12-08T11:03:03Z</time>
      </trkpt>
      <trkpt lat="42.811" lon="1.41221">
        <ele>1640.63</ele>
        <time>2013-12-08T11:03:19Z</time>
      </trkpt>
      <trkpt lat="42.81108" lon="1.41228">
        <ele>1645.43</ele>
        <time>2013-12-08T11:03:35Z</time>
      </trkpt>
      <trkpt lat="42.81115" lon="1.41234">
        <ele>1649.28</ele>
        <time>2013-12-08T11:03:50Z</time>
      </trkpt>
      <trkpt lat="42.8112" lon="1.41239">
        <ele>1652.16</ele>
        <time>2013-12-08T11:04:02Z</time>
      </trkpt>
      <trkpt lat="42.81127" lon="1.41237">
        <ele>1656.01</ele>
        <time>2013-12-08T11:04:10Z</time>
      </trkpt>
      <trkpt lat="42.8113" lon="1.41232">
        <ele>1660.81</ele>
        <time>2013-12-08T11:04:25Z</time>
      </trkpt>
      <trkpt lat="42.8113" lon="1.41232">
        <ele>1662.26</ele>
        <time>2013-12-08T11:04:48Z</time>
      </trkpt>
      <trkpt lat="42.81131" lon="1.41231">
        <ele>1663.22</ele>
        <time>2013-12-08T11:05:11Z</time>
      </trkpt>
      <trkpt lat="42.81138" lon="1.41223">
        <ele>1665.62</ele>
        <time>2013-12-08T11:05:27Z</time>
      </trkpt>
      <trkpt lat="42.81146" lon="1.41219">
        <ele>1669.95</ele>
        <time>2013-12-08T11:05:43Z</time>
      </trkpt>
      <trkpt lat="42.81152" lon="1.41214">
        <ele>1672.35</ele>
        <time>2013-12-08T11:05:58Z</time>
      </trkpt>
      <trkpt lat="42.81159" lon="1.41207">
        <ele>1675.23</ele>
        <time>2013-12-08T11:06:14Z</time>
      </trkpt>
      <trkpt lat="42.81168" lon="1.41197">
        <ele>1676.68</ele>
        <time>2013-12-08T11:06:31Z</time>
      </trkpt>
      <trkpt lat="42.81177" lon="1.41195">
        <ele>1678.6</ele>
        <time>2013-12-08T11:06:46Z</time>
      </trkpt>
      <trkpt lat="42.81185" lon="1.41195">
        <ele>1682.93</ele>
        <time>2013-12-08T11:07:02Z</time>
      </trkpt>
      <trkpt lat="42.81192" lon="1.41195">
        <ele>1683.89</ele>
        <time>2013-12-08T11:07:14Z</time>
      </trkpt>
      <trkpt lat="42.81201" lon="1.41195">
        <ele>1686.29</ele>
        <time>2013-12-08T11:07:31Z</time>
      </trkpt>
      <trkpt lat="42.81207" lon="1.41195">
        <ele>1687.73</ele>
        <time>2013-12-08T11:07:44Z</time>
      </trkpt>
      <trkpt lat="42.81213" lon="1.41194">
        <ele>1689.17</ele>
        <time>2013-12-08T11:08:00Z</time>
      </trkpt>
      <trkpt lat="42.81221" lon="1.41195">
        <ele>1690.14</ele>
        <time>2013-12-08T11:08:16Z</time>
      </trkpt>
      <trkpt lat="42.81222" lon="1.41195">
        <ele>1690.62</ele>
        <time>2013-12-08T11:08:34Z</time>
      </trkpt>
      <trkpt lat="42.81228" lon="1.41194">
        <ele>1691.1</ele>
        <time>2013-12-08T11:08:49Z</time>
      </trkpt>
      <trkpt lat="42.81234" lon="1.41195">
        <ele>1693.02</ele>
        <time>2013-12-08T11:09:00Z</time>
      </trkpt>
      <trkpt lat="42.81236" lon="1.41196">
        <ele>1693.98</ele>
        <time>2013-12-08T11:09:16Z</time>
      </trkpt>
      <trkpt lat="42.81237" lon="1.41195">
        <ele>1694.94</ele>
        <time>2013-12-08T11:09:42Z</time>
      </trkpt>
      <trkpt lat="42.81239" lon="1.41195">
        <ele>1694.94</ele>
        <time>2013-12-08T11:09:53Z</time>
      </trkpt>
      <trkpt lat="42.81246" lon="1.41202">
        <ele>1696.38</ele>
        <time>2013-12-08T11:10:08Z</time>
      </trkpt>
      <trkpt lat="42.81254" lon="1.41204">
        <ele>1697.83</ele>
        <time>2013-12-08T11:10:23Z</time>
      </trkpt>
      <trkpt lat="42.8126" lon="1.41201">
        <ele>1700.71</ele>
        <time>2013-12-08T11:10:35Z</time>
      </trkpt>
      <trkpt lat="42.81269" lon="1.412">
        <ele>1704.55</ele>
        <time>2013-12-08T11:10:50Z</time>
      </trkpt>
      <trkpt lat="42.81275" lon="1.41199">
        <ele>1706</ele>
        <time>2013-12-08T11:11:06Z</time>
      </trkpt>
      <trkpt lat="42.81283" lon="1.41198">
        <ele>1707.44</ele>
        <time>2013-12-08T11:11:21Z</time>
      </trkpt>
      <trkpt lat="42.81293" lon="1.41196">
        <ele>1709.36</ele>
        <time>2013-12-08T11:11:37Z</time>
      </trkpt>
      <trkpt lat="42.81302" lon="1.41193">
        <ele>1710.32</ele>
        <time>2013-12-08T11:11:52Z</time>
      </trkpt>
      <trkpt lat="42.81307" lon="1.41195">
        <ele>1709.84</ele>
        <time>2013-12-08T11:12:06Z</time>
      </trkpt>
      <trkpt lat="42.81307" lon="1.41207">
        <ele>1711.28</ele>
        <time>2013-12-08T11:12:21Z</time>
      </trkpt>
      <trkpt lat="42.81313" lon="1.41211">
        <ele>1712.25</ele>
        <time>2013-12-08T11:12:35Z</time>
      </trkpt>
      <trkpt lat="42.81322" lon="1.41209">
        <ele>1714.65</ele>
        <time>2013-12-08T11:12:50Z</time>
      </trkpt>
      <trkpt lat="42.81331" lon="1.41211">
        <ele>1718.49</ele>
        <time>2013-12-08T11:13:07Z</time>
      </trkpt>
      <trkpt lat="42.8134" lon="1.41209">
        <ele>1720.9</ele>
        <time>2013-12-08T11:13:24Z</time>
      </trkpt>
      <trkpt lat="42.81347" lon="1.41213">
        <ele>1724.74</ele>
        <time>2013-12-08T11:13:41Z</time>
      </trkpt>
      <trkpt lat="42.81349" lon="1.41213">
        <ele>1726.18</ele>
        <time>2013-12-08T11:13:56Z</time>
      </trkpt>
      <trkpt lat="42.81349" lon="1.41213">
        <ele>1726.67</ele>
        <time>2013-12-08T11:14:16Z</time>
      </trkpt>
      <trkpt lat="42.8135" lon="1.41213">
        <ele>1726.18</ele>
        <time>2013-12-08T11:14:36Z</time>
      </trkpt>
      <trkpt lat="42.8135" lon="1.41213">
        <ele>1726.67</ele>
        <time>2013-12-08T11:15:01Z</time>
      </trkpt>
      <trkpt lat="42.8135" lon="1.41213">
        <ele>1727.15</ele>
        <time>2013-12-08T11:15:25Z</time>
      </trkpt>
      <trkpt lat="42.8135" lon="1.41213">
        <ele>1727.63</ele>
        <time>2013-12-08T11:15:50Z</time>
      </trkpt>
      <trkpt lat="42.8135" lon="1.41214">
        <ele>1727.63</ele>
        <time>2013-12-08T11:16:16Z</time>
      </trkpt>
      <trkpt lat="42.8135" lon="1.41214">
        <ele>1727.63</ele>
        <time>2013-12-08T11:16:35Z</time>
      </trkpt>
      <trkpt lat="42.81349" lon="1.41215">
        <ele>1728.11</ele>
        <time>2013-12-08T11:16:57Z</time>
      </trkpt>
      <trkpt lat="42.81351" lon="1.41214">
        <ele>1727.63</ele>
        <time>2013-12-08T11:17:15Z</time>
      </trkpt>
      <trkpt lat="42.8135" lon="1.41214">
        <ele>1727.63</ele>
        <time>2013-12-08T11:17:36Z</time>
      </trkpt>
      <trkpt lat="42.8135" lon="1.41214">
        <ele>1727.63</ele>
        <time>2013-12-08T11:17:50Z</time>
      </trkpt>
      <trkpt lat="42.81349" lon="1.41214">
        <ele>1728.11</ele>
        <time>2013-12-08T11:18:12Z</time>
      </trkpt>
      <trkpt lat="42.81349" lon="1.41214">
        <ele>1728.11</ele>
        <time>2013-12-08T11:18:39Z</time>
      </trkpt>
      <trkpt lat="42.81349" lon="1.41214">
        <ele>1728.59</ele>
        <time>2013-12-08T11:19:04Z</time>
      </trkpt>
      <trkpt lat="42.81349" lon="1.41214">
        <ele>1728.59</ele>
        <time>2013-12-08T11:19:30Z</time>
      </trkpt>
      <trkpt lat="42.81349" lon="1.41214">
        <ele>1728.11</ele>
        <time>2013-12-08T11:19:48Z</time>
      </trkpt>
      <trkpt lat="42.81349" lon="1.41214">
        <ele>1728.11</ele>
        <time>2013-12-08T11:20:12Z</time>
      </trkpt>
      <trkpt lat="42.81349" lon="1.41214">
        <ele>1728.11</ele>
        <time>2013-12-08T11:20:36Z</time>
      </trkpt>
      <trkpt lat="42.81349" lon="1.41214">
        <ele>1728.11</ele>
        <time>2013-12-08T11:21:03Z</time>
      </trkpt>
      <trkpt lat="42.81349" lon="1.41214">
        <ele>1728.59</ele>
        <time>2013-12-08T11:21:23Z</time>
      </trkpt>
      <trkpt lat="42.81349" lon="1.41214">
        <ele>1728.59</ele>
        <time>2013-12-08T11:21:43Z</time>
      </trkpt>
      <trkpt lat="42.81349" lon="1.41214">
        <ele>1728.59</ele>
        <time>2013-12-08T11:22:13Z</time>
      </trkpt>
      <trkpt lat="42.81349" lon="1.41214">
        <ele>1728.59</ele>
        <time>2013-12-08T11:22:43Z</time>
      </trkpt>
      <trkpt lat="42.81349" lon="1.41214">
        <ele>1729.07</ele>
        <time>2013-12-08T11:23:08Z</time>
      </trkpt>
      <trkpt lat="42.81349" lon="1.41214">
        <ele>1729.07</ele>
        <time>2013-12-08T11:23:35Z</time>
      </trkpt>
      <trkpt lat="42.81349" lon="1.41214">
        <ele>1728.59</ele>
        <time>2013-12-08T11:24:02Z</time>
      </trkpt>
      <trkpt lat="42.81348" lon="1.41217">
        <ele>1728.59</ele>
        <time>2013-12-08T11:24:13Z</time>
      </trkpt>
      <trkpt lat="42.81348" lon="1.41217">
        <ele>1728.59</ele>
        <time>2013-12-08T11:24:32Z</time>
      </trkpt>
      <trkpt lat="42.81348" lon="1.41218">
        <ele>1728.59</ele>
        <time>2013-12-08T11:24:48Z</time>
      </trkpt>
      <trkpt lat="42.81346" lon="1.41222">
        <ele>1730.03</ele>
        <time>2013-12-08T11:25:00Z</time>
      </trkpt>
      <trkpt lat="42.81344" lon="1.41221">
        <ele>1730.03</ele>
        <time>2013-12-08T11:25:17Z</time>
      </trkpt>
      <trkpt lat="42.81343" lon="1.41233">
        <ele>1732.91</ele>
        <time>2013-12-08T11:25:29Z</time>
      </trkpt>
      <trkpt lat="42.81341" lon="1.41245">
        <ele>1736.28</ele>
        <time>2013-12-08T11:25:48Z</time>
      </trkpt>
      <trkpt lat="42.81342" lon="1.41252">
        <ele>1735.32</ele>
        <time>2013-12-08T11:26:03Z</time>
      </trkpt>
      <trkpt lat="42.81343" lon="1.41262">
        <ele>1738.68</ele>
        <time>2013-12-08T11:26:19Z</time>
      </trkpt>
      <trkpt lat="42.81342" lon="1.41272">
        <ele>1740.6</ele>
        <time>2013-12-08T11:26:35Z</time>
      </trkpt>
      <trkpt lat="42.81341" lon="1.41277">
        <ele>1742.05</ele>
        <time>2013-12-08T11:26:49Z</time>
      </trkpt>
      <trkpt lat="42.81339" lon="1.41286">
        <ele>1743.01</ele>
        <time>2013-12-08T11:27:03Z</time>
      </trkpt>
      <trkpt lat="42.81338" lon="1.41293">
        <ele>1743.49</ele>
        <time>2013-12-08T11:27:20Z</time>
      </trkpt>
      <trkpt lat="42.81335" lon="1.41303">
        <ele>1747.33</ele>
        <time>2013-12-08T11:27:34Z</time>
      </trkpt>
      <trkpt lat="42.81335" lon="1.41307">
        <ele>1748.29</ele>
        <time>2013-12-08T11:27:50Z</time>
      </trkpt>
      <trkpt lat="42.81336" lon="1.41307">
        <ele>1748.29</ele>
        <time>2013-12-08T11:28:09Z</time>
      </trkpt>
      <trkpt lat="42.81338" lon="1.41308">
        <ele>1748.29</ele>
        <time>2013-12-08T11:28:28Z</time>
      </trkpt>
      <trkpt lat="42.81341" lon="1.41308">
        <ele>1748.78</ele>
        <time>2013-12-08T11:28:41Z</time>
      </trkpt>
      <trkpt lat="42.81345" lon="1.41307">
        <ele>1749.26</ele>
        <time>2013-12-08T11:28:57Z</time>
      </trkpt>
      <trkpt lat="42.81352" lon="1.41304">
        <ele>1751.18</ele>
        <time>2013-12-08T11:29:13Z</time>
      </trkpt>
      <trkpt lat="42.81353" lon="1.41304">
        <ele>1751.66</ele>
        <time>2013-12-08T11:29:41Z</time>
      </trkpt>
      <trkpt lat="42.81353" lon="1.41305">
        <ele>1752.14</ele>
        <time>2013-12-08T11:30:07Z</time>
      </trkpt>
      <trkpt lat="42.81359" lon="1.41301">
        <ele>1754.54</ele>
        <time>2013-12-08T11:30:22Z</time>
      </trkpt>
      <trkpt lat="42.8137" lon="1.41299">
        <ele>1757.91</ele>
        <time>2013-12-08T11:30:38Z</time>
      </trkpt>
      <trkpt lat="42.81378" lon="1.41298">
        <ele>1760.31</ele>
        <time>2013-12-08T11:30:52Z</time>
      </trkpt>
      <trkpt lat="42.81383" lon="1.41296">
        <ele>1761.75</ele>
        <time>2013-12-08T11:31:10Z</time>
      </trkpt>
      <trkpt lat="42.81391" lon="1.41296">
        <ele>1764.16</ele>
        <time>2013-12-08T11:31:23Z</time>
      </trkpt>
      <trkpt lat="42.81399" lon="1.41294">
        <ele>1766.08</ele>
        <time>2013-12-08T11:31:37Z</time>
      </trkpt>
      <trkpt lat="42.81406" lon="1.41292">
        <ele>1768.48</ele>
        <time>2013-12-08T11:31:50Z</time>
      </trkpt>
      <trkpt lat="42.81414" lon="1.41291">
        <ele>1769.92</ele>
        <time>2013-12-08T11:32:03Z</time>
      </trkpt>
      <trkpt lat="42.8142" lon="1.41291">
        <ele>1771.85</ele>
        <time>2013-12-08T11:32:16Z</time>
      </trkpt>
      <trkpt lat="42.81428" lon="1.4129">
        <ele>1774.25</ele>
        <time>2013-12-08T11:32:28Z</time>
      </trkpt>
      <trkpt lat="42.81435" lon="1.41289">
        <ele>1776.17</ele>
        <time>2013-12-08T11:32:41Z</time>
      </trkpt>
      <trkpt lat="42.81437" lon="1.41289">
        <ele>1777.13</ele>
        <time>2013-12-08T11:33:01Z</time>
      </trkpt>
      <trkpt lat="42.81441" lon="1.41288">
        <ele>1778.1</ele>
        <time>2013-12-08T11:33:14Z</time>
      </trkpt>
      <trkpt lat="42.81443" lon="1.41287">
        <ele>1779.06</ele>
        <time>2013-12-08T11:33:27Z</time>
      </trkpt>
      <trkpt lat="42.81441" lon="1.41292">
        <ele>1780.5</ele>
        <time>2013-12-08T11:33:42Z</time>
      </trkpt>
      <trkpt lat="42.81439" lon="1.41299">
        <ele>1782.9</ele>
        <time>2013-12-08T11:33:57Z</time>
      </trkpt>
      <trkpt lat="42.81439" lon="1.413">
        <ele>1782.9</ele>
        <time>2013-12-08T11:34:07Z</time>
      </trkpt>
      <trkpt lat="42.81439" lon="1.41299">
        <ele>1783.38</ele>
        <time>2013-12-08T11:34:20Z</time>
      </trkpt>
      <trkpt lat="42.81439" lon="1.41299">
        <ele>1783.38</ele>
        <time>2013-12-08T11:34:50Z</time>
      </trkpt>
      <trkpt lat="42.81438" lon="1.41299">
        <ele>1783.38</ele>
        <time>2013-12-08T11:35:20Z</time>
      </trkpt>
      <trkpt lat="42.81437" lon="1.41301">
        <ele>1784.34</ele>
        <time>2013-12-08T11:35:42Z</time>
      </trkpt>
      <trkpt lat="42.81433" lon="1.41312">
        <ele>1786.27</ele>
        <time>2013-12-08T11:35:57Z</time>
      </trkpt>
      <trkpt lat="42.81432" lon="1.41313">
        <ele>1786.27</ele>
        <time>2013-12-08T11:36:17Z</time>
      </trkpt>
      <trkpt lat="42.81431" lon="1.41315">
        <ele>1786.75</ele>
        <time>2013-12-08T11:36:29Z</time>
      </trkpt>
      <trkpt lat="42.81428" lon="1.41326">
        <ele>1789.15</ele>
        <time>2013-12-08T11:36:44Z</time>
      </trkpt>
      <trkpt lat="42.81424" lon="1.41338">
        <ele>1791.55</ele>
        <time>2013-12-08T11:36:58Z</time>
      </trkpt>
      <trkpt lat="42.81421" lon="1.41348">
        <ele>1794.44</ele>
        <time>2013-12-08T11:37:11Z</time>
      </trkpt>
      <trkpt lat="42.81417" lon="1.41356">
        <ele>1793.48</ele>
        <time>2013-12-08T11:37:25Z</time>
      </trkpt>
      <trkpt lat="42.81415" lon="1.41364">
        <ele>1794.44</ele>
        <time>2013-12-08T11:37:37Z</time>
      </trkpt>
      <trkpt lat="42.81414" lon="1.41377">
        <ele>1798.76</ele>
        <time>2013-12-08T11:37:53Z</time>
      </trkpt>
      <trkpt lat="42.81415" lon="1.41384">
        <ele>1800.21</ele>
        <time>2013-12-08T11:38:09Z</time>
      </trkpt>
      <trkpt lat="42.8142" lon="1.41381">
        <ele>1800.69</ele>
        <time>2013-12-08T11:38:21Z</time>
      </trkpt>
      <trkpt lat="42.81428" lon="1.41375">
        <ele>1800.69</ele>
        <time>2013-12-08T11:38:36Z</time>
      </trkpt>
      <trkpt lat="42.81431" lon="1.41373">
        <ele>1801.17</ele>
        <time>2013-12-08T11:38:41Z</time>
      </trkpt>
      <trkpt lat="42.8144" lon="1.41367">
        <ele>1802.61</ele>
        <time>2013-12-08T11:38:55Z</time>
      </trkpt>
      <trkpt lat="42.81442" lon="1.41366">
        <ele>1802.61</ele>
        <time>2013-12-08T11:39:09Z</time>
      </trkpt>
      <trkpt lat="42.81444" lon="1.41364">
        <ele>1803.09</ele>
        <time>2013-12-08T11:39:29Z</time>
      </trkpt>
      <trkpt lat="42.81453" lon="1.4136">
        <ele>1803.57</ele>
        <time>2013-12-08T11:39:42Z</time>
      </trkpt>
      <trkpt lat="42.81463" lon="1.41355">
        <ele>1804.05</ele>
        <time>2013-12-08T11:39:57Z</time>
      </trkpt>
      <trkpt lat="42.81469" lon="1.41352">
        <ele>1804.53</ele>
        <time>2013-12-08T11:40:09Z</time>
      </trkpt>
      <trkpt lat="42.81473" lon="1.41351">
        <ele>1805.01</ele>
        <time>2013-12-08T11:40:22Z</time>
      </trkpt>
      <trkpt lat="42.81473" lon="1.41351">
        <ele>1805.01</ele>
        <time>2013-12-08T11:40:26Z</time>
      </trkpt>
      <trkpt lat="42.81475" lon="1.4135">
        <ele>1805.01</ele>
        <time>2013-12-08T11:40:40Z</time>
      </trkpt>
      <trkpt lat="42.81476" lon="1.41351">
        <ele>1805.49</ele>
        <time>2013-12-08T11:40:56Z</time>
      </trkpt>
      <trkpt lat="42.81476" lon="1.41352">
        <ele>1805.97</ele>
        <time>2013-12-08T11:41:23Z</time>
      </trkpt>
      <trkpt lat="42.81476" lon="1.41352">
        <ele>1806.45</ele>
        <time>2013-12-08T11:41:55Z</time>
      </trkpt>
      <trkpt lat="42.81476" lon="1.41352">
        <ele>1806.45</ele>
        <time>2013-12-08T11:42:26Z</time>
      </trkpt>
      <trkpt lat="42.81476" lon="1.41352">
        <ele>1806.45</ele>
        <time>2013-12-08T11:42:54Z</time>
      </trkpt>
      <trkpt lat="42.81476" lon="1.41352">
        <ele>1806.45</ele>
        <time>2013-12-08T11:43:19Z</time>
      </trkpt>
      <trkpt lat="42.81476" lon="1.41352">
        <ele>1807.42</ele>
        <time>2013-12-08T11:43:51Z</time>
      </trkpt>
      <trkpt lat="42.81476" lon="1.41352">
        <ele>1807.9</ele>
        <time>2013-12-08T11:44:23Z</time>
      </trkpt>
      <trkpt lat="42.81476" lon="1.41352">
        <ele>1807.9</ele>
        <time>2013-12-08T11:44:52Z</time>
      </trkpt>
      <trkpt lat="42.81475" lon="1.41351">
        <ele>1807.9</ele>
        <time>2013-12-08T11:45:13Z</time>
      </trkpt>
      <trkpt lat="42.81479" lon="1.41348">
        <ele>1807.9</ele>
        <time>2013-12-08T11:45:28Z</time>
      </trkpt>
      <trkpt lat="42.81487" lon="1.41347">
        <ele>1809.34</ele>
        <time>2013-12-08T11:45:41Z</time>
      </trkpt>
      <trkpt lat="42.81494" lon="1.41346">
        <ele>1810.78</ele>
        <time>2013-12-08T11:45:58Z</time>
      </trkpt>
      <trkpt lat="42.81502" lon="1.41346">
        <ele>1811.74</ele>
        <time>2013-12-08T11:46:12Z</time>
      </trkpt>
      <trkpt lat="42.8151" lon="1.41344">
        <ele>1814.15</ele>
        <time>2013-12-08T11:46:29Z</time>
      </trkpt>
      <trkpt lat="42.81511" lon="1.41346">
        <ele>1815.11</ele>
        <time>2013-12-08T11:46:43Z</time>
      </trkpt>
      <trkpt lat="42.81508" lon="1.41355">
        <ele>1820.39</ele>
        <time>2013-12-08T11:46:58Z</time>
      </trkpt>
      <trkpt lat="42.81508" lon="1.41356">
        <ele>1820.87</ele>
        <time>2013-12-08T11:46:59Z</time>
      </trkpt>
      <trkpt lat="42.81505" lon="1.41366">
        <ele>1822.32</ele>
        <time>2013-12-08T11:47:13Z</time>
      </trkpt>
      <trkpt lat="42.81504" lon="1.41373">
        <ele>1823.76</ele>
        <time>2013-12-08T11:47:28Z</time>
      </trkpt>
      <trkpt lat="42.81502" lon="1.41379">
        <ele>1825.68</ele>
        <time>2013-12-08T11:47:41Z</time>
      </trkpt>
      <trkpt lat="42.81502" lon="1.4138">
        <ele>1826.16</ele>
        <time>2013-12-08T11:48:07Z</time>
      </trkpt>
      <trkpt lat="42.81501" lon="1.41381">
        <ele>1826.64</ele>
        <time>2013-12-08T11:48:24Z</time>
      </trkpt>
      <trkpt lat="42.815" lon="1.41386">
        <ele>1827.12</ele>
        <time>2013-12-08T11:48:40Z</time>
      </trkpt>
      <trkpt lat="42.81501" lon="1.4139">
        <ele>1827.6</ele>
        <time>2013-12-08T11:48:55Z</time>
      </trkpt>
      <trkpt lat="42.81509" lon="1.41392">
        <ele>1831.45</ele>
        <time>2013-12-08T11:49:09Z</time>
      </trkpt>
      <trkpt lat="42.81514" lon="1.41392">
        <ele>1832.89</ele>
        <time>2013-12-08T11:49:16Z</time>
      </trkpt>
      <trkpt lat="42.81522" lon="1.41388">
        <ele>1834.81</ele>
        <time>2013-12-08T11:49:28Z</time>
      </trkpt>
      <trkpt lat="42.81528" lon="1.41386">
        <ele>1835.29</ele>
        <time>2013-12-08T11:49:40Z</time>
      </trkpt>
      <trkpt lat="42.81528" lon="1.41389">
        <ele>1835.77</ele>
        <time>2013-12-08T11:49:51Z</time>
      </trkpt>
      <trkpt lat="42.81525" lon="1.41399">
        <ele>1839.14</ele>
        <time>2013-12-08T11:50:04Z</time>
      </trkpt>
      <trkpt lat="42.81525" lon="1.41402">
        <ele>1840.58</ele>
        <time>2013-12-08T11:50:17Z</time>
      </trkpt>
      <trkpt lat="42.81531" lon="1.41401">
        <ele>1841.54</ele>
        <time>2013-12-08T11:50:31Z</time>
      </trkpt>
      <trkpt lat="42.8154" lon="1.414">
        <ele>1843.47</ele>
        <time>2013-12-08T11:50:45Z</time>
      </trkpt>
      <trkpt lat="42.81547" lon="1.414">
        <ele>1845.39</ele>
        <time>2013-12-08T11:50:57Z</time>
      </trkpt>
      <trkpt lat="42.81547" lon="1.414">
        <ele>1845.87</ele>
        <time>2013-12-08T11:51:14Z</time>
      </trkpt>
      <trkpt lat="42.81546" lon="1.41405">
        <ele>1846.83</ele>
        <time>2013-12-08T11:51:28Z</time>
      </trkpt>
      <trkpt lat="42.81543" lon="1.41417">
        <ele>1849.71</ele>
        <time>2013-12-08T11:51:43Z</time>
      </trkpt>
      <trkpt lat="42.8154" lon="1.41423">
        <ele>1852.12</ele>
        <time>2013-12-08T11:51:57Z</time>
      </trkpt>
      <trkpt lat="42.81544" lon="1.41425">
        <ele>1853.08</ele>
        <time>2013-12-08T11:52:12Z</time>
      </trkpt>
      <trkpt lat="42.81549" lon="1.41425">
        <ele>1854.52</ele>
        <time>2013-12-08T11:52:25Z</time>
      </trkpt>
      <trkpt lat="42.81556" lon="1.41424">
        <ele>1856.44</ele>
        <time>2013-12-08T11:52:37Z</time>
      </trkpt>
      <trkpt lat="42.81564" lon="1.41424">
        <ele>1858.85</ele>
        <time>2013-12-08T11:52:50Z</time>
      </trkpt>
      <trkpt lat="42.81573" lon="1.41423">
        <ele>1862.21</ele>
        <time>2013-12-08T11:53:05Z</time>
      </trkpt>
      <trkpt lat="42.81579" lon="1.41423">
        <ele>1862.69</ele>
        <time>2013-12-08T11:53:18Z</time>
      </trkpt>
      <trkpt lat="42.81582" lon="1.41429">
        <ele>1866.06</ele>
        <time>2013-12-08T11:53:31Z</time>
      </trkpt>
      <trkpt lat="42.8158" lon="1.41444">
        <ele>1869.9</ele>
        <time>2013-12-08T11:53:48Z</time>
      </trkpt>
      <trkpt lat="42.81578" lon="1.41458">
        <ele>1873.75</ele>
        <time>2013-12-08T11:54:05Z</time>
      </trkpt>
      <trkpt lat="42.81581" lon="1.41463">
        <ele>1877.11</ele>
        <time>2013-12-08T11:54:19Z</time>
      </trkpt>
      <trkpt lat="42.81589" lon="1.41461">
        <ele>1877.59</ele>
        <time>2013-12-08T11:54:32Z</time>
      </trkpt>
      <trkpt lat="42.81598" lon="1.41458">
        <ele>1878.07</ele>
        <time>2013-12-08T11:54:45Z</time>
      </trkpt>
      <trkpt lat="42.816" lon="1.41458">
        <ele>1879.51</ele>
        <time>2013-12-08T11:55:05Z</time>
      </trkpt>
      <trkpt lat="42.81606" lon="1.41457">
        <ele>1880.48</ele>
        <time>2013-12-08T11:55:22Z</time>
      </trkpt>
      <trkpt lat="42.81612" lon="1.41456">
        <ele>1882.88</ele>
        <time>2013-12-08T11:55:34Z</time>
      </trkpt>
      <trkpt lat="42.81619" lon="1.41454">
        <ele>1883.84</ele>
        <time>2013-12-08T11:55:47Z</time>
      </trkpt>
      <trkpt lat="42.81628" lon="1.4145">
        <ele>1887.21</ele>
        <time>2013-12-08T11:56:02Z</time>
      </trkpt>
      <trkpt lat="42.81634" lon="1.41449">
        <ele>1889.61</ele>
        <time>2013-12-08T11:56:17Z</time>
      </trkpt>
      <trkpt lat="42.81642" lon="1.4145">
        <ele>1891.05</ele>
        <time>2013-12-08T11:56:32Z</time>
      </trkpt>
      <trkpt lat="42.81641" lon="1.41465">
        <ele>1895.38</ele>
        <time>2013-12-08T11:56:46Z</time>
      </trkpt>
      <trkpt lat="42.81639" lon="1.41475">
        <ele>1896.82</ele>
        <time>2013-12-08T11:56:56Z</time>
      </trkpt>
      <trkpt lat="42.81638" lon="1.41483">
        <ele>1898.26</ele>
        <time>2013-12-08T11:57:10Z</time>
      </trkpt>
      <trkpt lat="42.81642" lon="1.41482">
        <ele>1897.78</ele>
        <time>2013-12-08T11:57:24Z</time>
      </trkpt>
      <trkpt lat="42.81648" lon="1.41474">
        <ele>1900.18</ele>
        <time>2013-12-08T11:57:37Z</time>
      </trkpt>
      <trkpt lat="42.8165" lon="1.41473">
        <ele>1900.66</ele>
        <time>2013-12-08T11:57:40Z</time>
      </trkpt>
      <trkpt lat="42.81657" lon="1.41469">
        <ele>1902.11</ele>
        <time>2013-12-08T11:57:53Z</time>
      </trkpt>
      <trkpt lat="42.81663" lon="1.41466">
        <ele>1904.03</ele>
        <time>2013-12-08T11:58:05Z</time>
      </trkpt>
      <trkpt lat="42.81669" lon="1.41465">
        <ele>1905.95</ele>
        <time>2013-12-08T11:58:18Z</time>
      </trkpt>
      <trkpt lat="42.81674" lon="1.41465">
        <ele>1906.43</ele>
        <time>2013-12-08T11:58:30Z</time>
      </trkpt>
      <trkpt lat="42.8168" lon="1.41462">
        <ele>1907.87</ele>
        <time>2013-12-08T11:58:48Z</time>
      </trkpt>
      <trkpt lat="42.81681" lon="1.41461">
        <ele>1909.8</ele>
        <time>2013-12-08T11:59:13Z</time>
      </trkpt>
      <trkpt lat="42.81681" lon="1.41461">
        <ele>1909.32</ele>
        <time>2013-12-08T11:59:29Z</time>
      </trkpt>
      <trkpt lat="42.81687" lon="1.4146">
        <ele>1909.8</ele>
        <time>2013-12-08T11:59:41Z</time>
      </trkpt>
      <trkpt lat="42.81696" lon="1.41458">
        <ele>1912.2</ele>
        <time>2013-12-08T11:59:55Z</time>
      </trkpt>
      <trkpt lat="42.81702" lon="1.41458">
        <ele>1914.12</ele>
        <time>2013-12-08T12:00:10Z</time>
      </trkpt>
      <trkpt lat="42.81702" lon="1.41464">
        <ele>1917.49</ele>
        <time>2013-12-08T12:00:28Z</time>
      </trkpt>
      <trkpt lat="42.81699" lon="1.41476">
        <ele>1921.33</ele>
        <time>2013-12-08T12:00:43Z</time>
      </trkpt>
      <trkpt lat="42.81695" lon="1.41485">
        <ele>1923.74</ele>
        <time>2013-12-08T12:00:57Z</time>
      </trkpt>
      <trkpt lat="42.81697" lon="1.41483">
        <ele>1923.74</ele>
        <time>2013-12-08T12:01:09Z</time>
      </trkpt>
      <trkpt lat="42.81703" lon="1.4148">
        <ele>1924.22</ele>
        <time>2013-12-08T12:01:21Z</time>
      </trkpt>
      <trkpt lat="42.81711" lon="1.41478">
        <ele>1926.14</ele>
        <time>2013-12-08T12:01:35Z</time>
      </trkpt>
      <trkpt lat="42.81719" lon="1.41478">
        <ele>1927.1</ele>
        <time>2013-12-08T12:01:48Z</time>
      </trkpt>
      <trkpt lat="42.81719" lon="1.41483">
        <ele>1929.5</ele>
        <time>2013-12-08T12:02:05Z</time>
      </trkpt>
      <trkpt lat="42.81719" lon="1.41494">
        <ele>1933.35</ele>
        <time>2013-12-08T12:02:23Z</time>
      </trkpt>
      <trkpt lat="42.81718" lon="1.41498">
        <ele>1935.27</ele>
        <time>2013-12-08T12:02:39Z</time>
      </trkpt>
      <trkpt lat="42.81724" lon="1.41494">
        <ele>1935.27</ele>
        <time>2013-12-08T12:02:52Z</time>
      </trkpt>
      <trkpt lat="42.81733" lon="1.41493">
        <ele>1937.67</ele>
        <time>2013-12-08T12:03:07Z</time>
      </trkpt>
      <trkpt lat="42.81741" lon="1.41492">
        <ele>1940.08</ele>
        <time>2013-12-08T12:03:21Z</time>
      </trkpt>
      <trkpt lat="42.81749" lon="1.41493">
        <ele>1942</ele>
        <time>2013-12-08T12:03:35Z</time>
      </trkpt>
      <trkpt lat="42.81753" lon="1.41494">
        <ele>1943.92</ele>
        <time>2013-12-08T12:03:49Z</time>
      </trkpt>
      <trkpt lat="42.81753" lon="1.41496">
        <ele>1945.85</ele>
        <time>2013-12-08T12:04:06Z</time>
      </trkpt>
      <trkpt lat="42.81753" lon="1.41507">
        <ele>1951.13</ele>
        <time>2013-12-08T12:04:17Z</time>
      </trkpt>
      <trkpt lat="42.81751" lon="1.4152">
        <ele>1954.98</ele>
        <time>2013-12-08T12:04:30Z</time>
      </trkpt>
      <trkpt lat="42.81752" lon="1.4152">
        <ele>1955.46</ele>
        <time>2013-12-08T12:04:49Z</time>
      </trkpt>
      <trkpt lat="42.81751" lon="1.41524">
        <ele>1955.94</ele>
        <time>2013-12-08T12:05:13Z</time>
      </trkpt>
      <trkpt lat="42.8175" lon="1.41523">
        <ele>1955.94</ele>
        <time>2013-12-08T12:05:27Z</time>
      </trkpt>
      <trkpt lat="42.81751" lon="1.41521">
        <ele>1954.98</ele>
        <time>2013-12-08T12:05:45Z</time>
      </trkpt>
      <trkpt lat="42.81751" lon="1.41519">
        <ele>1954.02</ele>
        <time>2013-12-08T12:06:09Z</time>
      </trkpt>
      <trkpt lat="42.81751" lon="1.41519">
        <ele>1954.02</ele>
        <time>2013-12-08T12:06:29Z</time>
      </trkpt>
      <trkpt lat="42.81751" lon="1.41518">
        <ele>1953.06</ele>
        <time>2013-12-08T12:06:59Z</time>
      </trkpt>
      <trkpt lat="42.81751" lon="1.41518">
        <ele>1952.57</ele>
        <time>2013-12-08T12:07:27Z</time>
      </trkpt>
      <trkpt lat="42.81751" lon="1.41518">
        <ele>1952.57</ele>
        <time>2013-12-08T12:07:49Z</time>
      </trkpt>
      <trkpt lat="42.81751" lon="1.41518">
        <ele>1952.57</ele>
        <time>2013-12-08T12:08:10Z</time>
      </trkpt>
      <trkpt lat="42.81751" lon="1.41518">
        <ele>1952.57</ele>
        <time>2013-12-08T12:08:35Z</time>
      </trkpt>
      <trkpt lat="42.81751" lon="1.41518">
        <ele>1953.06</ele>
        <time>2013-12-08T12:08:55Z</time>
      </trkpt>
      <trkpt lat="42.81751" lon="1.41518">
        <ele>1953.06</ele>
        <time>2013-12-08T12:09:19Z</time>
      </trkpt>
      <trkpt lat="42.81751" lon="1.41518">
        <ele>1952.57</ele>
        <time>2013-12-08T12:09:46Z</time>
      </trkpt>
      <trkpt lat="42.81751" lon="1.41517">
        <ele>1952.57</ele>
        <time>2013-12-08T12:10:13Z</time>
      </trkpt>
      <trkpt lat="42.81751" lon="1.41516">
        <ele>1952.57</ele>
        <time>2013-12-08T12:10:41Z</time>
      </trkpt>
      <trkpt lat="42.81751" lon="1.41517">
        <ele>1952.57</ele>
        <time>2013-12-08T12:11:09Z</time>
      </trkpt>
      <trkpt lat="42.81751" lon="1.41517">
        <ele>1952.57</ele>
        <time>2013-12-08T12:11:29Z</time>
      </trkpt>
      <trkpt lat="42.81751" lon="1.41516">
        <ele>1952.57</ele>
        <time>2013-12-08T12:11:57Z</time>
      </trkpt>
      <trkpt lat="42.81751" lon="1.41517">
        <ele>1952.09</ele>
        <time>2013-12-08T12:12:25Z</time>
      </trkpt>
      <trkpt lat="42.81751" lon="1.41517">
        <ele>1951.61</ele>
        <time>2013-12-08T12:12:41Z</time>
      </trkpt>
      <trkpt lat="42.81751" lon="1.41517">
        <ele>1951.61</ele>
        <time>2013-12-08T12:13:10Z</time>
      </trkpt>
      <trkpt lat="42.81751" lon="1.41518">
        <ele>1951.13</ele>
        <time>2013-12-08T12:13:39Z</time>
      </trkpt>
      <trkpt lat="42.81751" lon="1.41518">
        <ele>1951.13</ele>
        <time>2013-12-08T12:14:01Z</time>
      </trkpt>
      <trkpt lat="42.81751" lon="1.41518">
        <ele>1951.13</ele>
        <time>2013-12-08T12:14:31Z</time>
      </trkpt>
      <trkpt lat="42.81751" lon="1.41518">
        <ele>1951.13</ele>
        <time>2013-12-08T12:14:51Z</time>
      </trkpt>
      <trkpt lat="42.81751" lon="1.41518">
        <ele>1950.65</ele>
        <time>2013-12-08T12:15:12Z</time>
      </trkpt>
      <trkpt lat="42.81751" lon="1.41518">
        <ele>1950.65</ele>
        <time>2013-12-08T12:15:34Z</time>
      </trkpt>
      <trkpt lat="42.81751" lon="1.41518">
        <ele>1950.65</ele>
        <time>2013-12-08T12:16:04Z</time>
      </trkpt>
      <trkpt lat="42.81751" lon="1.41518">
        <ele>1950.65</ele>
        <time>2013-12-08T12:16:31Z</time>
      </trkpt>
      <trkpt lat="42.81751" lon="1.41518">
        <ele>1950.17</ele>
        <time>2013-12-08T12:17:00Z</time>
      </trkpt>
      <trkpt lat="42.81751" lon="1.41518">
        <ele>1950.17</ele>
        <time>2013-12-08T12:17:29Z</time>
      </trkpt>
      <trkpt lat="42.81751" lon="1.41518">
        <ele>1950.17</ele>
        <time>2013-12-08T12:17:57Z</time>
      </trkpt>
      <trkpt lat="42.81751" lon="1.41518">
        <ele>1950.17</ele>
        <time>2013-12-08T12:18:30Z</time>
      </trkpt>
      <trkpt lat="42.81751" lon="1.41518">
        <ele>1950.17</ele>
        <time>2013-12-08T12:18:59Z</time>
      </trkpt>
      <trkpt lat="42.81751" lon="1.41518">
        <ele>1950.17</ele>
        <time>2013-12-08T12:19:25Z</time>
      </trkpt>
      <trkpt lat="42.8175" lon="1.41518">
        <ele>1950.17</ele>
        <time>2013-12-08T12:19:55Z</time>
      </trkpt>
      <trkpt lat="42.81751" lon="1.41518">
        <ele>1948.73</ele>
        <time>2013-12-08T12:20:25Z</time>
      </trkpt>
      <trkpt lat="42.8175" lon="1.41518">
        <ele>1949.21</ele>
        <time>2013-12-08T12:20:47Z</time>
      </trkpt>
      <trkpt lat="42.8175" lon="1.41518">
        <ele>1949.21</ele>
        <time>2013-12-08T12:21:08Z</time>
      </trkpt>
      <trkpt lat="42.8175" lon="1.41518">
        <ele>1949.69</ele>
        <time>2013-12-08T12:21:33Z</time>
      </trkpt>
      <trkpt lat="42.8175" lon="1.41518">
        <ele>1949.69</ele>
        <time>2013-12-08T12:21:57Z</time>
      </trkpt>
      <trkpt lat="42.8175" lon="1.41519">
        <ele>1949.21</ele>
        <time>2013-12-08T12:22:30Z</time>
      </trkpt>
      <trkpt lat="42.8175" lon="1.41518">
        <ele>1949.69</ele>
        <time>2013-12-08T12:22:58Z</time>
      </trkpt>
      <trkpt lat="42.8175" lon="1.41519">
        <ele>1949.69</ele>
        <time>2013-12-08T12:23:21Z</time>
      </trkpt>
      <trkpt lat="42.8175" lon="1.41518">
        <ele>1949.69</ele>
        <time>2013-12-08T12:23:42Z</time>
      </trkpt>
      <trkpt lat="42.8175" lon="1.41518">
        <ele>1949.69</ele>
        <time>2013-12-08T12:24:08Z</time>
      </trkpt>
      <trkpt lat="42.8175" lon="1.41518">
        <ele>1950.17</ele>
        <time>2013-12-08T12:24:35Z</time>
      </trkpt>
      <trkpt lat="42.8175" lon="1.41517">
        <ele>1949.69</ele>
        <time>2013-12-08T12:24:56Z</time>
      </trkpt>
      <trkpt lat="42.8175" lon="1.41518">
        <ele>1950.17</ele>
        <time>2013-12-08T12:25:25Z</time>
      </trkpt>
      <trkpt lat="42.8175" lon="1.41518">
        <ele>1950.17</ele>
        <time>2013-12-08T12:25:48Z</time>
      </trkpt>
      <trkpt lat="42.81751" lon="1.41517">
        <ele>1949.69</ele>
        <time>2013-12-08T12:26:08Z</time>
      </trkpt>
      <trkpt lat="42.81753" lon="1.41516">
        <ele>1949.69</ele>
        <time>2013-12-08T12:26:24Z</time>
      </trkpt>
      <trkpt lat="42.81763" lon="1.41512">
        <ele>1950.17</ele>
        <time>2013-12-08T12:26:37Z</time>
      </trkpt>
      <trkpt lat="42.81775" lon="1.41508">
        <ele>1952.09</ele>
        <time>2013-12-08T12:26:51Z</time>
      </trkpt>
      <trkpt lat="42.81785" lon="1.41506">
        <ele>1955.94</ele>
        <time>2013-12-08T12:27:06Z</time>
      </trkpt>
      <trkpt lat="42.81795" lon="1.41506">
        <ele>1959.3</ele>
        <time>2013-12-08T12:27:21Z</time>
      </trkpt>
      <trkpt lat="42.818" lon="1.41507">
        <ele>1960.27</ele>
        <time>2013-12-08T12:27:29Z</time>
      </trkpt>
      <trkpt lat="42.81807" lon="1.41511">
        <ele>1960.75</ele>
        <time>2013-12-08T12:27:41Z</time>
      </trkpt>
      <trkpt lat="42.81809" lon="1.41512">
        <ele>1960.75</ele>
        <time>2013-12-08T12:27:56Z</time>
      </trkpt>
      <trkpt lat="42.81814" lon="1.41516">
        <ele>1960.75</ele>
        <time>2013-12-08T12:28:16Z</time>
      </trkpt>
      <trkpt lat="42.81825" lon="1.41526">
        <ele>1961.23</ele>
        <time>2013-12-08T12:28:27Z</time>
      </trkpt>
      <trkpt lat="42.81836" lon="1.41531">
        <ele>1963.63</ele>
        <time>2013-12-08T12:28:42Z</time>
      </trkpt>
      <trkpt lat="42.81845" lon="1.41536">
        <ele>1963.63</ele>
        <time>2013-12-08T12:28:55Z</time>
      </trkpt>
      <trkpt lat="42.81858" lon="1.41544">
        <ele>1962.67</ele>
        <time>2013-12-08T12:29:05Z</time>
      </trkpt>
      <trkpt lat="42.81867" lon="1.41543">
        <ele>1961.23</ele>
        <time>2013-12-08T12:29:19Z</time>
      </trkpt>
      <trkpt lat="42.81868" lon="1.41543">
        <ele>1961.71</ele>
        <time>2013-12-08T12:29:41Z</time>
      </trkpt>
      <trkpt lat="42.8188" lon="1.41549">
        <ele>1959.78</ele>
        <time>2013-12-08T12:29:55Z</time>
      </trkpt>
      <trkpt lat="42.81893" lon="1.41553">
        <ele>1957.86</ele>
        <time>2013-12-08T12:30:03Z</time>
      </trkpt>
      <trkpt lat="42.81892" lon="1.41553">
        <ele>1957.38</ele>
        <time>2013-12-08T12:30:20Z</time>
      </trkpt>
      <trkpt lat="42.81892" lon="1.41553">
        <ele>1956.9</ele>
        <time>2013-12-08T12:30:43Z</time>
      </trkpt>
      <trkpt lat="42.81893" lon="1.41553">
        <ele>1956.9</ele>
        <time>2013-12-08T12:31:07Z</time>
      </trkpt>
      <trkpt lat="42.81893" lon="1.41553">
        <ele>1956.9</ele>
        <time>2013-12-08T12:31:33Z</time>
      </trkpt>
      <trkpt lat="42.81893" lon="1.41553">
        <ele>1956.42</ele>
        <time>2013-12-08T12:31:57Z</time>
      </trkpt>
      <trkpt lat="42.81895" lon="1.41554">
        <ele>1955.94</ele>
        <time>2013-12-08T12:32:19Z</time>
      </trkpt>
      <trkpt lat="42.81897" lon="1.41556">
        <ele>1954.98</ele>
        <time>2013-12-08T12:32:34Z</time>
      </trkpt>
      <trkpt lat="42.81897" lon="1.41556">
        <ele>1954.98</ele>
        <time>2013-12-08T12:32:53Z</time>
      </trkpt>
      <trkpt lat="42.81898" lon="1.41556">
        <ele>1954.98</ele>
        <time>2013-12-08T12:33:18Z</time>
      </trkpt>
      <trkpt lat="42.81899" lon="1.41558">
        <ele>1954.98</ele>
        <time>2013-12-08T12:33:37Z</time>
      </trkpt>
      <trkpt lat="42.81919" lon="1.41578">
        <ele>1952.09</ele>
        <time>2013-12-08T12:33:48Z</time>
      </trkpt>
      <trkpt lat="42.81932" lon="1.41588">
        <ele>1950.65</ele>
        <time>2013-12-08T12:33:51Z</time>
      </trkpt>
      <trkpt lat="42.81936" lon="1.41589">
        <ele>1950.17</ele>
        <time>2013-12-08T12:33:52Z</time>
      </trkpt>
      <trkpt lat="42.8194" lon="1.41591">
        <ele>1947.77</ele>
        <time>2013-12-08T12:34:00Z</time>
      </trkpt>
      <trkpt lat="42.81941" lon="1.41592">
        <ele>1945.85</ele>
        <time>2013-12-08T12:34:21Z</time>
      </trkpt>
      <trkpt lat="42.81941" lon="1.41592">
        <ele>1944.88</ele>
        <time>2013-12-08T12:34:42Z</time>
      </trkpt>
      <trkpt lat="42.81941" lon="1.41592">
        <ele>1943.92</ele>
        <time>2013-12-08T12:35:14Z</time>
      </trkpt>
      <trkpt lat="42.81941" lon="1.41591">
        <ele>1944.4</ele>
        <time>2013-12-08T12:35:38Z</time>
      </trkpt>
      <trkpt lat="42.81942" lon="1.41591">
        <ele>1944.4</ele>
        <time>2013-12-08T12:35:55Z</time>
      </trkpt>
      <trkpt lat="42.81942" lon="1.41591">
        <ele>1944.88</ele>
        <time>2013-12-08T12:36:10Z</time>
      </trkpt>
      <trkpt lat="42.81943" lon="1.4159">
        <ele>1945.36</ele>
        <time>2013-12-08T12:36:26Z</time>
      </trkpt>
      <trkpt lat="42.81944" lon="1.4159">
        <ele>1945.36</ele>
        <time>2013-12-08T12:36:45Z</time>
      </trkpt>
      <trkpt lat="42.81947" lon="1.41592">
        <ele>1945.85</ele>
        <time>2013-12-08T12:36:59Z</time>
      </trkpt>
      <trkpt lat="42.81948" lon="1.41591">
        <ele>1946.81</ele>
        <time>2013-12-08T12:37:15Z</time>
      </trkpt>
      <trkpt lat="42.8195" lon="1.41589">
        <ele>1947.77</ele>
        <time>2013-12-08T12:37:30Z</time>
      </trkpt>
      <trkpt lat="42.81951" lon="1.41588">
        <ele>1948.73</ele>
        <time>2013-12-08T12:37:48Z</time>
      </trkpt>
      <trkpt lat="42.81951" lon="1.41587">
        <ele>1949.69</ele>
        <time>2013-12-08T12:38:10Z</time>
      </trkpt>
      <trkpt lat="42.81952" lon="1.41586">
        <ele>1950.17</ele>
        <time>2013-12-08T12:38:35Z</time>
      </trkpt>
      <trkpt lat="42.81952" lon="1.41586">
        <ele>1950.65</ele>
        <time>2013-12-08T12:38:58Z</time>
      </trkpt>
      <trkpt lat="42.81952" lon="1.41586">
        <ele>1950.65</ele>
        <time>2013-12-08T12:39:18Z</time>
      </trkpt>
      <trkpt lat="42.81953" lon="1.41586">
        <ele>1951.13</ele>
        <time>2013-12-08T12:39:34Z</time>
      </trkpt>
      <trkpt lat="42.81953" lon="1.41586">
        <ele>1951.13</ele>
        <time>2013-12-08T12:39:52Z</time>
      </trkpt>
      <trkpt lat="42.81953" lon="1.41586">
        <ele>1951.61</ele>
        <time>2013-12-08T12:40:09Z</time>
      </trkpt>
      <trkpt lat="42.81952" lon="1.41586">
        <ele>1951.13</ele>
        <time>2013-12-08T12:40:24Z</time>
      </trkpt>
      <trkpt lat="42.81951" lon="1.41589">
        <ele>1950.65</ele>
        <time>2013-12-08T12:40:38Z</time>
      </trkpt>
      <trkpt lat="42.81951" lon="1.41589">
        <ele>1950.65</ele>
        <time>2013-12-08T12:40:53Z</time>
      </trkpt>
      <trkpt lat="42.81952" lon="1.41595">
        <ele>1951.61</ele>
        <time>2013-12-08T12:41:07Z</time>
      </trkpt>
      <trkpt lat="42.81953" lon="1.41597">
        <ele>1952.57</ele>
        <time>2013-12-08T12:41:24Z</time>
      </trkpt>
      <trkpt lat="42.81953" lon="1.41597">
        <ele>1953.54</ele>
        <time>2013-12-08T12:41:41Z</time>
      </trkpt>
      <trkpt lat="42.81953" lon="1.41596">
        <ele>1953.54</ele>
        <time>2013-12-08T12:42:04Z</time>
      </trkpt>
      <trkpt lat="42.81954" lon="1.41597">
        <ele>1954.02</ele>
        <time>2013-12-08T12:42:32Z</time>
      </trkpt>
      <trkpt lat="42.81954" lon="1.41597">
        <ele>1953.54</ele>
        <time>2013-12-08T12:42:54Z</time>
      </trkpt>
      <trkpt lat="42.81955" lon="1.41597">
        <ele>1953.06</ele>
        <time>2013-12-08T12:43:20Z</time>
      </trkpt>
      <trkpt lat="42.81956" lon="1.41596">
        <ele>1953.06</ele>
        <time>2013-12-08T12:43:49Z</time>
      </trkpt>
      <trkpt lat="42.81955" lon="1.41596">
        <ele>1953.06</ele>
        <time>2013-12-08T12:44:17Z</time>
      </trkpt>
      <trkpt lat="42.81955" lon="1.41597">
        <ele>1953.54</ele>
        <time>2013-12-08T12:44:45Z</time>
      </trkpt>
      <trkpt lat="42.81955" lon="1.41597">
        <ele>1953.06</ele>
        <time>2013-12-08T12:45:11Z</time>
      </trkpt>
      <trkpt lat="42.81954" lon="1.41597">
        <ele>1953.06</ele>
        <time>2013-12-08T12:45:36Z</time>
      </trkpt>
      <trkpt lat="42.81953" lon="1.41596">
        <ele>1952.09</ele>
        <time>2013-12-08T12:45:53Z</time>
      </trkpt>
      <trkpt lat="42.81953" lon="1.41592">
        <ele>1949.69</ele>
        <time>2013-12-08T12:46:06Z</time>
      </trkpt>
      <trkpt lat="42.81952" lon="1.41585">
        <ele>1950.65</ele>
        <time>2013-12-08T12:46:22Z</time>
      </trkpt>
      <trkpt lat="42.81951" lon="1.41584">
        <ele>1950.17</ele>
        <time>2013-12-08T12:46:23Z</time>
      </trkpt>
      <trkpt lat="42.81952" lon="1.41584">
        <ele>1950.17</ele>
        <time>2013-12-08T12:46:36Z</time>
      </trkpt>
      <trkpt lat="42.81952" lon="1.41583">
        <ele>1950.17</ele>
        <time>2013-12-08T12:46:49Z</time>
      </trkpt>
      <trkpt lat="42.81952" lon="1.41583">
        <ele>1949.69</ele>
        <time>2013-12-08T12:47:07Z</time>
      </trkpt>
      <trkpt lat="42.81951" lon="1.41584">
        <ele>1949.69</ele>
        <time>2013-12-08T12:47:27Z</time>
      </trkpt>
      <trkpt lat="42.81951" lon="1.41584">
        <ele>1949.21</ele>
        <time>2013-12-08T12:47:44Z</time>
      </trkpt>
      <trkpt lat="42.81951" lon="1.41585">
        <ele>1948.73</ele>
        <time>2013-12-08T12:48:02Z</time>
      </trkpt>
      <trkpt lat="42.81951" lon="1.41584">
        <ele>1949.21</ele>
        <time>2013-12-08T12:48:26Z</time>
      </trkpt>
      <trkpt lat="42.81951" lon="1.41584">
        <ele>1948.73</ele>
        <time>2013-12-08T12:48:51Z</time>
      </trkpt>
      <trkpt lat="42.8195" lon="1.41584">
        <ele>1948.25</ele>
        <time>2013-12-08T12:49:16Z</time>
      </trkpt>
      <trkpt lat="42.8195" lon="1.41584">
        <ele>1948.73</ele>
        <time>2013-12-08T12:49:39Z</time>
      </trkpt>
      <trkpt lat="42.8195" lon="1.41584">
        <ele>1948.73</ele>
        <time>2013-12-08T12:50:04Z</time>
      </trkpt>
      <trkpt lat="42.8195" lon="1.41584">
        <ele>1948.73</ele>
        <time>2013-12-08T12:50:27Z</time>
      </trkpt>
      <trkpt lat="42.8195" lon="1.41584">
        <ele>1948.73</ele>
        <time>2013-12-08T12:50:49Z</time>
      </trkpt>
      <trkpt lat="42.8195" lon="1.41584">
        <ele>1948.73</ele>
        <time>2013-12-08T12:51:13Z</time>
      </trkpt>
      <trkpt lat="42.8195" lon="1.41584">
        <ele>1948.73</ele>
        <time>2013-12-08T12:51:43Z</time>
      </trkpt>
      <trkpt lat="42.8195" lon="1.41584">
        <ele>1948.73</ele>
        <time>2013-12-08T12:52:07Z</time>
      </trkpt>
      <trkpt lat="42.8195" lon="1.41584">
        <ele>1948.73</ele>
        <time>2013-12-08T12:52:31Z</time>
      </trkpt>
      <trkpt lat="42.8195" lon="1.41584">
        <ele>1948.73</ele>
        <time>2013-12-08T12:52:57Z</time>
      </trkpt>
      <trkpt lat="42.8195" lon="1.41584">
        <ele>1949.21</ele>
        <time>2013-12-08T12:53:28Z</time>
      </trkpt>
      <trkpt lat="42.8195" lon="1.41584">
        <ele>1948.73</ele>
        <time>2013-12-08T12:53:49Z</time>
      </trkpt>
      <trkpt lat="42.81949" lon="1.41584">
        <ele>1949.21</ele>
        <time>2013-12-08T12:54:12Z</time>
      </trkpt>
      <trkpt lat="42.81949" lon="1.41583">
        <ele>1949.69</ele>
        <time>2013-12-08T12:54:42Z</time>
      </trkpt>
      <trkpt lat="42.81949" lon="1.41583">
        <ele>1949.69</ele>
        <time>2013-12-08T12:55:09Z</time>
      </trkpt>
      <trkpt lat="42.81949" lon="1.41583">
        <ele>1949.69</ele>
        <time>2013-12-08T12:55:36Z</time>
      </trkpt>
      <trkpt lat="42.81948" lon="1.41583">
        <ele>1949.69</ele>
        <time>2013-12-08T12:55:58Z</time>
      </trkpt>
      <trkpt lat="42.81949" lon="1.41583">
        <ele>1949.69</ele>
        <time>2013-12-08T12:56:28Z</time>
      </trkpt>
      <trkpt lat="42.81949" lon="1.41583">
        <ele>1949.69</ele>
        <time>2013-12-08T12:56:56Z</time>
      </trkpt>
      <trkpt lat="42.81948" lon="1.41583">
        <ele>1950.17</ele>
        <time>2013-12-08T12:57:13Z</time>
      </trkpt>
      <trkpt lat="42.81949" lon="1.41583">
        <ele>1950.65</ele>
        <time>2013-12-08T12:57:36Z</time>
      </trkpt>
      <trkpt lat="42.81949" lon="1.41583">
        <ele>1951.61</ele>
        <time>2013-12-08T12:58:01Z</time>
      </trkpt>
      <trkpt lat="42.81949" lon="1.41583">
        <ele>1951.61</ele>
        <time>2013-12-08T12:58:27Z</time>
      </trkpt>
      <trkpt lat="42.81948" lon="1.41583">
        <ele>1951.61</ele>
        <time>2013-12-08T12:58:49Z</time>
      </trkpt>
      <trkpt lat="42.81948" lon="1.41583">
        <ele>1952.09</ele>
        <time>2013-12-08T12:59:11Z</time>
      </trkpt>
      <trkpt lat="42.81949" lon="1.41583">
        <ele>1952.09</ele>
        <time>2013-12-08T12:59:37Z</time>
      </trkpt>
      <trkpt lat="42.81948" lon="1.41583">
        <ele>1952.09</ele>
        <time>2013-12-08T13:00:02Z</time>
      </trkpt>
      <trkpt lat="42.81948" lon="1.41583">
        <ele>1952.09</ele>
        <time>2013-12-08T13:00:27Z</time>
      </trkpt>
      <trkpt lat="42.81948" lon="1.41583">
        <ele>1951.61</ele>
        <time>2013-12-08T13:00:51Z</time>
      </trkpt>
      <trkpt lat="42.81949" lon="1.41583">
        <ele>1951.61</ele>
        <time>2013-12-08T13:01:18Z</time>
      </trkpt>
      <trkpt lat="42.81948" lon="1.41583">
        <ele>1952.09</ele>
        <time>2013-12-08T13:01:53Z</time>
      </trkpt>
      <trkpt lat="42.81949" lon="1.41583">
        <ele>1952.09</ele>
        <time>2013-12-08T13:02:20Z</time>
      </trkpt>
      <trkpt lat="42.81948" lon="1.41583">
        <ele>1952.09</ele>
        <time>2013-12-08T13:02:49Z</time>
      </trkpt>
      <trkpt lat="42.81948" lon="1.41583">
        <ele>1951.61</ele>
        <time>2013-12-08T13:03:17Z</time>
      </trkpt>
      <trkpt lat="42.81948" lon="1.41583">
        <ele>1952.09</ele>
        <time>2013-12-08T13:03:43Z</time>
      </trkpt>
      <trkpt lat="42.81948" lon="1.41582">
        <ele>1952.09</ele>
        <time>2013-12-08T13:04:12Z</time>
      </trkpt>
      <trkpt lat="42.81948" lon="1.41583">
        <ele>1952.09</ele>
        <time>2013-12-08T13:04:33Z</time>
      </trkpt>
      <trkpt lat="42.81948" lon="1.41583">
        <ele>1952.09</ele>
        <time>2013-12-08T13:04:55Z</time>
      </trkpt>
      <trkpt lat="42.81948" lon="1.41583">
        <ele>1952.09</ele>
        <time>2013-12-08T13:05:22Z</time>
      </trkpt>
      <trkpt lat="42.81948" lon="1.41582">
        <ele>1951.61</ele>
        <time>2013-12-08T13:05:52Z</time>
      </trkpt>
      <trkpt lat="42.81948" lon="1.41582">
        <ele>1952.09</ele>
        <time>2013-12-08T13:06:15Z</time>
      </trkpt>
      <trkpt lat="42.81948" lon="1.41581">
        <ele>1952.57</ele>
        <time>2013-12-08T13:06:41Z</time>
      </trkpt>
      <trkpt lat="42.81948" lon="1.41581">
        <ele>1952.57</ele>
        <time>2013-12-08T13:07:09Z</time>
      </trkpt>
      <trkpt lat="42.81947" lon="1.41581">
        <ele>1952.57</ele>
        <time>2013-12-08T13:07:33Z</time>
      </trkpt>
      <trkpt lat="42.81948" lon="1.41581">
        <ele>1953.06</ele>
        <time>2013-12-08T13:07:59Z</time>
      </trkpt>
      <trkpt lat="42.81948" lon="1.41582">
        <ele>1954.5</ele>
        <time>2013-12-08T13:08:32Z</time>
      </trkpt>
      <trkpt lat="42.81949" lon="1.41582">
        <ele>1954.98</ele>
        <time>2013-12-08T13:09:01Z</time>
      </trkpt>
      <trkpt lat="42.81948" lon="1.41581">
        <ele>1954.5</ele>
        <time>2013-12-08T13:09:33Z</time>
      </trkpt>
      <trkpt lat="42.81948" lon="1.41581">
        <ele>1954.98</ele>
        <time>2013-12-08T13:09:57Z</time>
      </trkpt>
      <trkpt lat="42.81948" lon="1.41581">
        <ele>1954.5</ele>
        <time>2013-12-08T13:10:24Z</time>
      </trkpt>
      <trkpt lat="42.81948" lon="1.41582">
        <ele>1954.5</ele>
        <time>2013-12-08T13:10:55Z</time>
      </trkpt>
      <trkpt lat="42.81948" lon="1.41581">
        <ele>1954.5</ele>
        <time>2013-12-08T13:11:22Z</time>
      </trkpt>
      <trkpt lat="42.81948" lon="1.41581">
        <ele>1954.98</ele>
        <time>2013-12-08T13:11:52Z</time>
      </trkpt>
      <trkpt lat="42.81948" lon="1.41581">
        <ele>1955.46</ele>
        <time>2013-12-08T13:12:15Z</time>
      </trkpt>
      <trkpt lat="42.81947" lon="1.41581">
        <ele>1955.46</ele>
        <time>2013-12-08T13:12:48Z</time>
      </trkpt>
      <trkpt lat="42.81948" lon="1.4158">
        <ele>1955.94</ele>
        <time>2013-12-08T13:13:14Z</time>
      </trkpt>
      <trkpt lat="42.81948" lon="1.41581">
        <ele>1955.94</ele>
        <time>2013-12-08T13:13:41Z</time>
      </trkpt>
      <trkpt lat="42.81948" lon="1.41579">
        <ele>1955.94</ele>
        <time>2013-12-08T13:14:15Z</time>
      </trkpt>
      <trkpt lat="42.81947" lon="1.41579">
        <ele>1955.46</ele>
        <time>2013-12-08T13:14:50Z</time>
      </trkpt>
      <trkpt lat="42.81947" lon="1.41579">
        <ele>1954.98</ele>
        <time>2013-12-08T13:15:25Z</time>
      </trkpt>
      <trkpt lat="42.81947" lon="1.41579">
        <ele>1954.98</ele>
        <time>2013-12-08T13:15:57Z</time>
      </trkpt>
      <trkpt lat="42.81947" lon="1.41578">
        <ele>1954.98</ele>
        <time>2013-12-08T13:16:26Z</time>
      </trkpt>
      <trkpt lat="42.81947" lon="1.41578">
        <ele>1954.98</ele>
        <time>2013-12-08T13:16:59Z</time>
      </trkpt>
      <trkpt lat="42.81947" lon="1.41578">
        <ele>1954.98</ele>
        <time>2013-12-08T13:17:25Z</time>
      </trkpt>
      <trkpt lat="42.81947" lon="1.41578">
        <ele>1954.98</ele>
        <time>2013-12-08T13:17:50Z</time>
      </trkpt>
      <trkpt lat="42.81947" lon="1.41578">
        <ele>1954.98</ele>
        <time>2013-12-08T13:18:25Z</time>
      </trkpt>
      <trkpt lat="42.81947" lon="1.41579">
        <ele>1956.42</ele>
        <time>2013-12-08T13:18:55Z</time>
      </trkpt>
      <trkpt lat="42.81947" lon="1.41579">
        <ele>1956.42</ele>
        <time>2013-12-08T13:19:22Z</time>
      </trkpt>
      <trkpt lat="42.81947" lon="1.41579">
        <ele>1956.42</ele>
        <time>2013-12-08T13:19:49Z</time>
      </trkpt>
      <trkpt lat="42.81947" lon="1.41579">
        <ele>1956.9</ele>
        <time>2013-12-08T13:20:24Z</time>
      </trkpt>
      <trkpt lat="42.81947" lon="1.41579">
        <ele>1956.9</ele>
        <time>2013-12-08T13:20:51Z</time>
      </trkpt>
      <trkpt lat="42.81948" lon="1.4158">
        <ele>1956.42</ele>
        <time>2013-12-08T13:21:16Z</time>
      </trkpt>
      <trkpt lat="42.81949" lon="1.41582">
        <ele>1955.94</ele>
        <time>2013-12-08T13:21:41Z</time>
      </trkpt>
      <trkpt lat="42.81948" lon="1.41581">
        <ele>1955.94</ele>
        <time>2013-12-08T13:22:03Z</time>
      </trkpt>
      <trkpt lat="42.8195" lon="1.41577">
        <ele>1955.46</ele>
        <time>2013-12-08T13:22:09Z</time>
      </trkpt>
      <trkpt lat="42.81952" lon="1.41578">
        <ele>1954.98</ele>
        <time>2013-12-08T13:22:25Z</time>
      </trkpt>
      <trkpt lat="42.81948" lon="1.41566">
        <ele>1954.98</ele>
        <time>2013-12-08T13:22:35Z</time>
      </trkpt>
      <trkpt lat="42.81938" lon="1.41564">
        <ele>1955.46</ele>
        <time>2013-12-08T13:22:53Z</time>
      </trkpt>
      <trkpt lat="42.81944" lon="1.41574">
        <ele>1956.42</ele>
        <time>2013-12-08T13:23:07Z</time>
      </trkpt>
      <trkpt lat="42.81946" lon="1.41577">
        <ele>1956.9</ele>
        <time>2013-12-08T13:23:30Z</time>
      </trkpt>
      <trkpt lat="42.81947" lon="1.41579">
        <ele>1956.9</ele>
        <time>2013-12-08T13:23:55Z</time>
      </trkpt>
      <trkpt lat="42.81947" lon="1.41579">
        <ele>1957.38</ele>
        <time>2013-12-08T13:24:20Z</time>
      </trkpt>
      <trkpt lat="42.81948" lon="1.41579">
        <ele>1957.38</ele>
        <time>2013-12-08T13:24:39Z</time>
      </trkpt>
      <trkpt lat="42.81951" lon="1.4158">
        <ele>1956.9</ele>
        <time>2013-12-08T13:24:53Z</time>
      </trkpt>
      <trkpt lat="42.81951" lon="1.41581">
        <ele>1957.38</ele>
        <time>2013-12-08T13:25:16Z</time>
      </trkpt>
      <trkpt lat="42.81951" lon="1.41583">
        <ele>1956.9</ele>
        <time>2013-12-08T13:25:34Z</time>
      </trkpt>
      <trkpt lat="42.81952" lon="1.41585">
        <ele>1956.42</ele>
        <time>2013-12-08T13:25:52Z</time>
      </trkpt>
      <trkpt lat="42.81953" lon="1.41584">
        <ele>1955.46</ele>
        <time>2013-12-08T13:26:14Z</time>
      </trkpt>
      <trkpt lat="42.81953" lon="1.41584">
        <ele>1954.5</ele>
        <time>2013-12-08T13:26:33Z</time>
      </trkpt>
      <trkpt lat="42.81953" lon="1.41584">
        <ele>1953.54</ele>
        <time>2013-12-08T13:26:54Z</time>
      </trkpt>
      <trkpt lat="42.81953" lon="1.41583">
        <ele>1953.54</ele>
        <time>2013-12-08T13:27:10Z</time>
      </trkpt>
      <trkpt lat="42.81953" lon="1.41584">
        <ele>1953.54</ele>
        <time>2013-12-08T13:27:31Z</time>
      </trkpt>
      <trkpt lat="42.81953" lon="1.41584">
        <ele>1953.54</ele>
        <time>2013-12-08T13:27:52Z</time>
      </trkpt>
      <trkpt lat="42.81953" lon="1.41584">
        <ele>1953.06</ele>
        <time>2013-12-08T13:28:12Z</time>
      </trkpt>
      <trkpt lat="42.81954" lon="1.41584">
        <ele>1953.06</ele>
        <time>2013-12-08T13:28:28Z</time>
      </trkpt>
      <trkpt lat="42.81953" lon="1.41584">
        <ele>1953.06</ele>
        <time>2013-12-08T13:28:52Z</time>
      </trkpt>
      <trkpt lat="42.81953" lon="1.41584">
        <ele>1953.06</ele>
        <time>2013-12-08T13:29:14Z</time>
      </trkpt>
      <trkpt lat="42.81953" lon="1.41584">
        <ele>1952.57</ele>
        <time>2013-12-08T13:29:34Z</time>
      </trkpt>
      <trkpt lat="42.81953" lon="1.41584">
        <ele>1952.57</ele>
        <time>2013-12-08T13:29:59Z</time>
      </trkpt>
      <trkpt lat="42.81954" lon="1.41585">
        <ele>1952.57</ele>
        <time>2013-12-08T13:30:18Z</time>
      </trkpt>
      <trkpt lat="42.81954" lon="1.41587">
        <ele>1952.57</ele>
        <time>2013-12-08T13:30:38Z</time>
      </trkpt>
      <trkpt lat="42.81955" lon="1.41588">
        <ele>1952.57</ele>
        <time>2013-12-08T13:30:55Z</time>
      </trkpt>
      <trkpt lat="42.81955" lon="1.41588">
        <ele>1952.57</ele>
        <time>2013-12-08T13:31:09Z</time>
      </trkpt>
      <trkpt lat="42.81955" lon="1.41588">
        <ele>1953.06</ele>
        <time>2013-12-08T13:31:29Z</time>
      </trkpt>
      <trkpt lat="42.81955" lon="1.41588">
        <ele>1953.06</ele>
        <time>2013-12-08T13:31:51Z</time>
      </trkpt>
      <trkpt lat="42.81955" lon="1.41588">
        <ele>1952.57</ele>
        <time>2013-12-08T13:32:17Z</time>
      </trkpt>
      <trkpt lat="42.81955" lon="1.41588">
        <ele>1953.06</ele>
        <time>2013-12-08T13:32:36Z</time>
      </trkpt>
      <trkpt lat="42.81955" lon="1.41588">
        <ele>1952.57</ele>
        <time>2013-12-08T13:33:01Z</time>
      </trkpt>
      <trkpt lat="42.81955" lon="1.41588">
        <ele>1953.54</ele>
        <time>2013-12-08T13:33:27Z</time>
      </trkpt>
      <trkpt lat="42.81955" lon="1.41588">
        <ele>1953.54</ele>
        <time>2013-12-08T13:33:44Z</time>
      </trkpt>
      <trkpt lat="42.81955" lon="1.41588">
        <ele>1953.54</ele>
        <time>2013-12-08T13:34:12Z</time>
      </trkpt>
      <trkpt lat="42.81955" lon="1.4159">
        <ele>1953.54</ele>
        <time>2013-12-08T13:34:35Z</time>
      </trkpt>
      <trkpt lat="42.81959" lon="1.41599">
        <ele>1956.9</ele>
        <time>2013-12-08T13:34:49Z</time>
      </trkpt>
      <trkpt lat="42.81962" lon="1.4161">
        <ele>1959.3</ele>
        <time>2013-12-08T13:35:01Z</time>
      </trkpt>
      <trkpt lat="42.81968" lon="1.41617">
        <ele>1961.71</ele>
        <time>2013-12-08T13:35:15Z</time>
      </trkpt>
      <trkpt lat="42.81974" lon="1.41625">
        <ele>1962.67</ele>
        <time>2013-12-08T13:35:29Z</time>
      </trkpt>
      <trkpt lat="42.81985" lon="1.41633">
        <ele>1965.07</ele>
        <time>2013-12-08T13:35:44Z</time>
      </trkpt>
      <trkpt lat="42.81992" lon="1.41642">
        <ele>1968.92</ele>
        <time>2013-12-08T13:35:59Z</time>
      </trkpt>
      <trkpt lat="42.81998" lon="1.41647">
        <ele>1969.88</ele>
        <time>2013-12-08T13:36:14Z</time>
      </trkpt>
      <trkpt lat="42.81999" lon="1.41648">
        <ele>1970.84</ele>
        <time>2013-12-08T13:36:29Z</time>
      </trkpt>
      <trkpt lat="42.82004" lon="1.41654">
        <ele>1972.76</ele>
        <time>2013-12-08T13:36:43Z</time>
      </trkpt>
      <trkpt lat="42.82008" lon="1.41656">
        <ele>1974.69</ele>
        <time>2013-12-08T13:37:00Z</time>
      </trkpt>
      <trkpt lat="42.82009" lon="1.41657">
        <ele>1975.65</ele>
        <time>2013-12-08T13:37:17Z</time>
      </trkpt>
      <trkpt lat="42.8201" lon="1.41659">
        <ele>1976.61</ele>
        <time>2013-12-08T13:37:36Z</time>
      </trkpt>
      <trkpt lat="42.82009" lon="1.41662">
        <ele>1978.53</ele>
        <time>2013-12-08T13:37:52Z</time>
      </trkpt>
      <trkpt lat="42.82011" lon="1.41665">
        <ele>1979.49</ele>
        <time>2013-12-08T13:38:09Z</time>
      </trkpt>
      <trkpt lat="42.82013" lon="1.4167">
        <ele>1981.41</ele>
        <time>2013-12-08T13:38:26Z</time>
      </trkpt>
      <trkpt lat="42.82016" lon="1.41673">
        <ele>1982.38</ele>
        <time>2013-12-08T13:38:49Z</time>
      </trkpt>
      <trkpt lat="42.82021" lon="1.41681">
        <ele>1983.34</ele>
        <time>2013-12-08T13:39:04Z</time>
      </trkpt>
      <trkpt lat="42.82028" lon="1.41688">
        <ele>1985.26</ele>
        <time>2013-12-08T13:39:20Z</time>
      </trkpt>
      <trkpt lat="42.82034" lon="1.41696">
        <ele>1987.18</ele>
        <time>2013-12-08T13:39:34Z</time>
      </trkpt>
      <trkpt lat="42.82038" lon="1.41705">
        <ele>1988.14</ele>
        <time>2013-12-08T13:39:47Z</time>
      </trkpt>
      <trkpt lat="42.8204" lon="1.41709">
        <ele>1990.07</ele>
        <time>2013-12-08T13:40:06Z</time>
      </trkpt>
      <trkpt lat="42.82043" lon="1.41716">
        <ele>1991.51</ele>
        <time>2013-12-08T13:40:28Z</time>
      </trkpt>
      <trkpt lat="42.82049" lon="1.41726">
        <ele>1991.99</ele>
        <time>2013-12-08T13:40:42Z</time>
      </trkpt>
      <trkpt lat="42.82056" lon="1.41734">
        <ele>1993.43</ele>
        <time>2013-12-08T13:40:54Z</time>
      </trkpt>
      <trkpt lat="42.82062" lon="1.41737">
        <ele>1993.43</ele>
        <time>2013-12-08T13:41:03Z</time>
      </trkpt>
      <trkpt lat="42.82069" lon="1.41742">
        <ele>1995.83</ele>
        <time>2013-12-08T13:41:17Z</time>
      </trkpt>
      <trkpt lat="42.82079" lon="1.41749">
        <ele>1997.76</ele>
        <time>2013-12-08T13:41:28Z</time>
      </trkpt>
      <trkpt lat="42.82087" lon="1.41756">
        <ele>1998.72</ele>
        <time>2013-12-08T13:41:38Z</time>
      </trkpt>
      <trkpt lat="42.82096" lon="1.41768">
        <ele>2001.12</ele>
        <time>2013-12-08T13:41:53Z</time>
      </trkpt>
      <trkpt lat="42.82098" lon="1.41772">
        <ele>2002.08</ele>
        <time>2013-12-08T13:42:11Z</time>
      </trkpt>
      <trkpt lat="42.82098" lon="1.41775">
        <ele>2002.56</ele>
        <time>2013-12-08T13:42:23Z</time>
      </trkpt>
      <trkpt lat="42.82097" lon="1.41775">
        <ele>2002.56</ele>
        <time>2013-12-08T13:42:45Z</time>
      </trkpt>
      <trkpt lat="42.82099" lon="1.41777">
        <ele>2002.08</ele>
        <time>2013-12-08T13:43:03Z</time>
      </trkpt>
      <trkpt lat="42.82099" lon="1.41777">
        <ele>2002.56</ele>
        <time>2013-12-08T13:43:24Z</time>
      </trkpt>
      <trkpt lat="42.821" lon="1.41777">
        <ele>2003.04</ele>
        <time>2013-12-08T13:43:47Z</time>
      </trkpt>
      <trkpt lat="42.82101" lon="1.41779">
        <ele>2003.04</ele>
        <time>2013-12-08T13:44:07Z</time>
      </trkpt>
      <trkpt lat="42.82101" lon="1.41779">
        <ele>2004.01</ele>
        <time>2013-12-08T13:44:20Z</time>
      </trkpt>
      <trkpt lat="42.82102" lon="1.4178">
        <ele>2004.49</ele>
        <time>2013-12-08T13:44:35Z</time>
      </trkpt>
      <trkpt lat="42.82103" lon="1.41781">
        <ele>2004.97</ele>
        <time>2013-12-08T13:44:38Z</time>
      </trkpt>
      <trkpt lat="42.82118" lon="1.41796">
        <ele>2004.01</ele>
        <time>2013-12-08T13:44:53Z</time>
      </trkpt>
      <trkpt lat="42.82123" lon="1.418">
        <ele>2002.56</ele>
        <time>2013-12-08T13:45:03Z</time>
      </trkpt>
      <trkpt lat="42.82126" lon="1.41805">
        <ele>1999.68</ele>
        <time>2013-12-08T13:45:17Z</time>
      </trkpt>
      <trkpt lat="42.82127" lon="1.41805">
        <ele>1997.28</ele>
        <time>2013-12-08T13:45:37Z</time>
      </trkpt>
      <trkpt lat="42.82129" lon="1.41805">
        <ele>1998.24</ele>
        <time>2013-12-08T13:46:02Z</time>
      </trkpt>
      <trkpt lat="42.82137" lon="1.41814">
        <ele>1996.8</ele>
        <time>2013-12-08T13:46:13Z</time>
      </trkpt>
      <trkpt lat="42.82145" lon="1.41822">
        <ele>1993.43</ele>
        <time>2013-12-08T13:46:25Z</time>
      </trkpt>
      <trkpt lat="42.82149" lon="1.41828">
        <ele>1991.51</ele>
        <time>2013-12-08T13:46:28Z</time>
      </trkpt>
      <trkpt lat="42.82149" lon="1.41826">
        <ele>1985.74</ele>
        <time>2013-12-08T13:46:38Z</time>
      </trkpt>
      <trkpt lat="42.82152" lon="1.41828">
        <ele>1984.78</ele>
        <time>2013-12-08T13:46:50Z</time>
      </trkpt>
      <trkpt lat="42.82152" lon="1.41829">
        <ele>1984.3</ele>
        <time>2013-12-08T13:46:52Z</time>
      </trkpt>
      <trkpt lat="42.82169" lon="1.41845">
        <ele>1980.45</ele>
        <time>2013-12-08T13:47:06Z</time>
      </trkpt>
      <trkpt lat="42.82183" lon="1.4186">
        <ele>1975.17</ele>
        <time>2013-12-08T13:47:17Z</time>
      </trkpt>
      <trkpt lat="42.82204" lon="1.41884">
        <ele>1968.44</ele>
        <time>2013-12-08T13:47:29Z</time>
      </trkpt>
      <trkpt lat="42.82248" lon="1.41906">
        <ele>1959.3</ele>
        <time>2013-12-08T13:47:37Z</time>
      </trkpt>
      <trkpt lat="42.82258" lon="1.4191">
        <ele>1956.9</ele>
        <time>2013-12-08T13:47:44Z</time>
      </trkpt>
      <trkpt lat="42.82263" lon="1.41915">
        <ele>1955.94</ele>
        <time>2013-12-08T13:48:02Z</time>
      </trkpt>
      <trkpt lat="42.82277" lon="1.41926">
        <ele>1954.5</ele>
        <time>2013-12-08T13:48:13Z</time>
      </trkpt>
      <trkpt lat="42.8228" lon="1.41928">
        <ele>1955.46</ele>
        <time>2013-12-08T13:48:28Z</time>
      </trkpt>
      <trkpt lat="42.8228" lon="1.41931">
        <ele>1955.94</ele>
        <time>2013-12-08T13:48:55Z</time>
      </trkpt>
      <trkpt lat="42.8228" lon="1.41931">
        <ele>1955.94</ele>
        <time>2013-12-08T13:49:13Z</time>
      </trkpt>
      <trkpt lat="42.82281" lon="1.4193">
        <ele>1955.94</ele>
        <time>2013-12-08T13:49:31Z</time>
      </trkpt>
      <trkpt lat="42.82282" lon="1.4193">
        <ele>1955.94</ele>
        <time>2013-12-08T13:49:45Z</time>
      </trkpt>
      <trkpt lat="42.82282" lon="1.4193">
        <ele>1955.46</ele>
        <time>2013-12-08T13:50:08Z</time>
      </trkpt>
      <trkpt lat="42.82283" lon="1.4193">
        <ele>1954.98</ele>
        <time>2013-12-08T13:50:32Z</time>
      </trkpt>
      <trkpt lat="42.82283" lon="1.4193">
        <ele>1954.98</ele>
        <time>2013-12-08T13:50:54Z</time>
      </trkpt>
      <trkpt lat="42.82283" lon="1.4193">
        <ele>1954.5</ele>
        <time>2013-12-08T13:51:19Z</time>
      </trkpt>
      <trkpt lat="42.82283" lon="1.4193">
        <ele>1954.5</ele>
        <time>2013-12-08T13:51:46Z</time>
      </trkpt>
      <trkpt lat="42.82283" lon="1.4193">
        <ele>1954.98</ele>
        <time>2013-12-08T13:52:16Z</time>
      </trkpt>
      <trkpt lat="42.82288" lon="1.41934">
        <ele>1955.46</ele>
        <time>2013-12-08T13:52:34Z</time>
      </trkpt>
      <trkpt lat="42.82292" lon="1.41936">
        <ele>1955.46</ele>
        <time>2013-12-08T13:52:48Z</time>
      </trkpt>
      <trkpt lat="42.82303" lon="1.41941">
        <ele>1956.9</ele>
        <time>2013-12-08T13:53:01Z</time>
      </trkpt>
      <trkpt lat="42.8231" lon="1.41945">
        <ele>1958.34</ele>
        <time>2013-12-08T13:53:13Z</time>
      </trkpt>
      <trkpt lat="42.82323" lon="1.41951">
        <ele>1960.27</ele>
        <time>2013-12-08T13:53:29Z</time>
      </trkpt>
      <trkpt lat="42.82333" lon="1.41955">
        <ele>1961.23</ele>
        <time>2013-12-08T13:53:43Z</time>
      </trkpt>
      <trkpt lat="42.82341" lon="1.41957">
        <ele>1961.71</ele>
        <time>2013-12-08T13:53:51Z</time>
      </trkpt>
      <trkpt lat="42.82342" lon="1.41957">
        <ele>1961.71</ele>
        <time>2013-12-08T13:53:52Z</time>
      </trkpt>
      <trkpt lat="42.82352" lon="1.41962">
        <ele>1960.75</ele>
        <time>2013-12-08T13:54:04Z</time>
      </trkpt>
      <trkpt lat="42.82363" lon="1.41969">
        <ele>1960.75</ele>
        <time>2013-12-08T13:54:18Z</time>
      </trkpt>
      <trkpt lat="42.82372" lon="1.41976">
        <ele>1962.67</ele>
        <time>2013-12-08T13:54:30Z</time>
      </trkpt>
      <trkpt lat="42.82381" lon="1.41984">
        <ele>1963.63</ele>
        <time>2013-12-08T13:54:44Z</time>
      </trkpt>
      <trkpt lat="42.82387" lon="1.4199">
        <ele>1964.11</ele>
        <time>2013-12-08T13:54:54Z</time>
      </trkpt>
      <trkpt lat="42.82394" lon="1.41999">
        <ele>1966.51</ele>
        <time>2013-12-08T13:55:09Z</time>
      </trkpt>
      <trkpt lat="42.824" lon="1.42007">
        <ele>1968.44</ele>
        <time>2013-12-08T13:55:23Z</time>
      </trkpt>
      <trkpt lat="42.82407" lon="1.42018">
        <ele>1969.4</ele>
        <time>2013-12-08T13:55:42Z</time>
      </trkpt>
      <trkpt lat="42.82413" lon="1.42025">
        <ele>1971.32</ele>
        <time>2013-12-08T13:55:55Z</time>
      </trkpt>
      <trkpt lat="42.82419" lon="1.42033">
        <ele>1972.76</ele>
        <time>2013-12-08T13:56:09Z</time>
      </trkpt>
      <trkpt lat="42.82428" lon="1.42043">
        <ele>1976.13</ele>
        <time>2013-12-08T13:56:24Z</time>
      </trkpt>
      <trkpt lat="42.82436" lon="1.42052">
        <ele>1978.53</ele>
        <time>2013-12-08T13:56:35Z</time>
      </trkpt>
      <trkpt lat="42.82442" lon="1.42058">
        <ele>1979.49</ele>
        <time>2013-12-08T13:56:44Z</time>
      </trkpt>
      <trkpt lat="42.8245" lon="1.42067">
        <ele>1981.41</ele>
        <time>2013-12-08T13:56:57Z</time>
      </trkpt>
      <trkpt lat="42.82451" lon="1.42067">
        <ele>1981.41</ele>
        <time>2013-12-08T13:56:58Z</time>
      </trkpt>
      <trkpt lat="42.82458" lon="1.42073">
        <ele>1982.38</ele>
        <time>2013-12-08T13:57:11Z</time>
      </trkpt>
      <trkpt lat="42.82464" lon="1.42078">
        <ele>1982.86</ele>
        <time>2013-12-08T13:57:26Z</time>
      </trkpt>
      <trkpt lat="42.82472" lon="1.42082">
        <ele>1986.7</ele>
        <time>2013-12-08T13:57:43Z</time>
      </trkpt>
      <trkpt lat="42.82481" lon="1.42091">
        <ele>1990.07</ele>
        <time>2013-12-08T13:57:57Z</time>
      </trkpt>
      <trkpt lat="42.82487" lon="1.42099">
        <ele>1992.47</ele>
        <time>2013-12-08T13:58:13Z</time>
      </trkpt>
      <trkpt lat="42.82493" lon="1.42108">
        <ele>1994.87</ele>
        <time>2013-12-08T13:58:28Z</time>
      </trkpt>
      <trkpt lat="42.82496" lon="1.42123">
        <ele>1998.24</ele>
        <time>2013-12-08T13:58:43Z</time>
      </trkpt>
      <trkpt lat="42.82497" lon="1.42138">
        <ele>1999.2</ele>
        <time>2013-12-08T13:58:58Z</time>
      </trkpt>
      <trkpt lat="42.82498" lon="1.42144">
        <ele>2000.16</ele>
        <time>2013-12-08T13:59:04Z</time>
      </trkpt>
      <trkpt lat="42.82499" lon="1.4215">
        <ele>2001.6</ele>
        <time>2013-12-08T13:59:17Z</time>
      </trkpt>
      <trkpt lat="42.82502" lon="1.42157">
        <ele>2001.6</ele>
        <time>2013-12-08T13:59:36Z</time>
      </trkpt>
      <trkpt lat="42.82504" lon="1.42167">
        <ele>2002.56</ele>
        <time>2013-12-08T13:59:43Z</time>
      </trkpt>
      <trkpt lat="42.82505" lon="1.42169">
        <ele>2003.04</ele>
        <time>2013-12-08T13:59:44Z</time>
      </trkpt>
      <trkpt lat="42.82509" lon="1.42187">
        <ele>2002.56</ele>
        <time>2013-12-08T13:59:56Z</time>
      </trkpt>
      <trkpt lat="42.8251" lon="1.42192">
        <ele>2003.04</ele>
        <time>2013-12-08T13:59:59Z</time>
      </trkpt>
      <trkpt lat="42.82511" lon="1.42197">
        <ele>2003.52</ele>
        <time>2013-12-08T14:00:03Z</time>
      </trkpt>
      <trkpt lat="42.82512" lon="1.42204">
        <ele>2004.01</ele>
        <time>2013-12-08T14:00:19Z</time>
      </trkpt>
      <trkpt lat="42.82516" lon="1.42218">
        <ele>2005.45</ele>
        <time>2013-12-08T14:00:31Z</time>
      </trkpt>
      <trkpt lat="42.82519" lon="1.42232">
        <ele>2008.33</ele>
        <time>2013-12-08T14:00:45Z</time>
      </trkpt>
      <trkpt lat="42.82524" lon="1.42243">
        <ele>2010.73</ele>
        <time>2013-12-08T14:00:59Z</time>
      </trkpt>
      <trkpt lat="42.82528" lon="1.4225">
        <ele>2011.7</ele>
        <time>2013-12-08T14:01:09Z</time>
      </trkpt>
      <trkpt lat="42.82532" lon="1.42261">
        <ele>2013.62</ele>
        <time>2013-12-08T14:01:22Z</time>
      </trkpt>
      <trkpt lat="42.82535" lon="1.42273">
        <ele>2013.62</ele>
        <time>2013-12-08T14:01:35Z</time>
      </trkpt>
      <trkpt lat="42.82539" lon="1.42286">
        <ele>2015.54</ele>
        <time>2013-12-08T14:01:51Z</time>
      </trkpt>
      <trkpt lat="42.82542" lon="1.42291">
        <ele>2016.02</ele>
        <time>2013-12-08T14:01:56Z</time>
      </trkpt>
      <trkpt lat="42.82547" lon="1.42302">
        <ele>2016.98</ele>
        <time>2013-12-08T14:02:06Z</time>
      </trkpt>
      <trkpt lat="42.82553" lon="1.42312">
        <ele>2019.87</ele>
        <time>2013-12-08T14:02:19Z</time>
      </trkpt>
      <trkpt lat="42.82557" lon="1.42322">
        <ele>2021.31</ele>
        <time>2013-12-08T14:02:30Z</time>
      </trkpt>
      <trkpt lat="42.82561" lon="1.42332">
        <ele>2023.23</ele>
        <time>2013-12-08T14:02:44Z</time>
      </trkpt>
      <trkpt lat="42.82564" lon="1.42345">
        <ele>2025.64</ele>
        <time>2013-12-08T14:02:58Z</time>
      </trkpt>
      <trkpt lat="42.82565" lon="1.42348">
        <ele>2026.6</ele>
        <time>2013-12-08T14:03:20Z</time>
      </trkpt>
      <trkpt lat="42.82567" lon="1.42356">
        <ele>2026.6</ele>
        <time>2013-12-08T14:03:31Z</time>
      </trkpt>
      <trkpt lat="42.82568" lon="1.42368">
        <ele>2029.48</ele>
        <time>2013-12-08T14:03:48Z</time>
      </trkpt>
      <trkpt lat="42.82569" lon="1.4238">
        <ele>2031.4</ele>
        <time>2013-12-08T14:04:02Z</time>
      </trkpt>
      <trkpt lat="42.82573" lon="1.42388">
        <ele>2031.88</ele>
        <time>2013-12-08T14:04:15Z</time>
      </trkpt>
      <trkpt lat="42.82574" lon="1.42392">
        <ele>2032.84</ele>
        <time>2013-12-08T14:04:30Z</time>
      </trkpt>
      <trkpt lat="42.82578" lon="1.42398">
        <ele>2033.33</ele>
        <time>2013-12-08T14:04:45Z</time>
      </trkpt>
      <trkpt lat="42.82583" lon="1.42408">
        <ele>2033.33</ele>
        <time>2013-12-08T14:04:59Z</time>
      </trkpt>
      <trkpt lat="42.82581" lon="1.42408">
        <ele>2032.84</ele>
        <time>2013-12-08T14:05:23Z</time>
      </trkpt>
      <trkpt lat="42.8258" lon="1.42408">
        <ele>2032.36</ele>
        <time>2013-12-08T14:05:47Z</time>
      </trkpt>
      <trkpt lat="42.8258" lon="1.42408">
        <ele>2031.88</ele>
        <time>2013-12-08T14:06:11Z</time>
      </trkpt>
      <trkpt lat="42.8258" lon="1.42409">
        <ele>2031.88</ele>
        <time>2013-12-08T14:06:31Z</time>
      </trkpt>
      <trkpt lat="42.8258" lon="1.42409">
        <ele>2031.88</ele>
        <time>2013-12-08T14:06:56Z</time>
      </trkpt>
      <trkpt lat="42.8258" lon="1.42409">
        <ele>2031.88</ele>
        <time>2013-12-08T14:07:12Z</time>
      </trkpt>
      <trkpt lat="42.8258" lon="1.42409">
        <ele>2031.88</ele>
        <time>2013-12-08T14:07:39Z</time>
      </trkpt>
      <trkpt lat="42.82584" lon="1.42418">
        <ele>2033.81</ele>
        <time>2013-12-08T14:07:54Z</time>
      </trkpt>
      <trkpt lat="42.82584" lon="1.42424">
        <ele>2034.29</ele>
        <time>2013-12-08T14:08:14Z</time>
      </trkpt>
      <trkpt lat="42.82585" lon="1.42424">
        <ele>2034.29</ele>
        <time>2013-12-08T14:08:38Z</time>
      </trkpt>
      <trkpt lat="42.82584" lon="1.42424">
        <ele>2034.29</ele>
        <time>2013-12-08T14:09:01Z</time>
      </trkpt>
      <trkpt lat="42.82584" lon="1.42424">
        <ele>2034.29</ele>
        <time>2013-12-08T14:09:34Z</time>
      </trkpt>
      <trkpt lat="42.82584" lon="1.42424">
        <ele>2034.29</ele>
        <time>2013-12-08T14:10:02Z</time>
      </trkpt>
      <trkpt lat="42.82584" lon="1.42424">
        <ele>2034.29</ele>
        <time>2013-12-08T14:10:24Z</time>
      </trkpt>
      <trkpt lat="42.82585" lon="1.42424">
        <ele>2034.29</ele>
        <time>2013-12-08T14:10:53Z</time>
      </trkpt>
      <trkpt lat="42.82585" lon="1.42424">
        <ele>2034.29</ele>
        <time>2013-12-08T14:11:10Z</time>
      </trkpt>
      <trkpt lat="42.82584" lon="1.42424">
        <ele>2033.81</ele>
        <time>2013-12-08T14:11:37Z</time>
      </trkpt>
      <trkpt lat="42.82585" lon="1.42424">
        <ele>2034.29</ele>
        <time>2013-12-08T14:11:54Z</time>
      </trkpt>
      <trkpt lat="42.82586" lon="1.42427">
        <ele>2033.81</ele>
        <time>2013-12-08T14:12:10Z</time>
      </trkpt>
      <trkpt lat="42.82587" lon="1.42427">
        <ele>2033.81</ele>
        <time>2013-12-08T14:12:36Z</time>
      </trkpt>
      <trkpt lat="42.82587" lon="1.42428">
        <ele>2033.81</ele>
        <time>2013-12-08T14:12:55Z</time>
      </trkpt>
      <trkpt lat="42.82587" lon="1.42429">
        <ele>2033.81</ele>
        <time>2013-12-08T14:13:18Z</time>
      </trkpt>
      <trkpt lat="42.82587" lon="1.42429">
        <ele>2033.81</ele>
        <time>2013-12-08T14:13:40Z</time>
      </trkpt>
      <trkpt lat="42.82587" lon="1.4243">
        <ele>2034.29</ele>
        <time>2013-12-08T14:14:01Z</time>
      </trkpt>
      <trkpt lat="42.82589" lon="1.42434">
        <ele>2033.81</ele>
        <time>2013-12-08T14:14:20Z</time>
      </trkpt>
      <trkpt lat="42.82591" lon="1.4244">
        <ele>2034.29</ele>
        <time>2013-12-08T14:14:26Z</time>
      </trkpt>
      <trkpt lat="42.82596" lon="1.42447">
        <ele>2036.69</ele>
        <time>2013-12-08T14:14:39Z</time>
      </trkpt>
      <trkpt lat="42.82599" lon="1.42454">
        <ele>2037.65</ele>
        <time>2013-12-08T14:14:54Z</time>
      </trkpt>
      <trkpt lat="42.82599" lon="1.42455">
        <ele>2038.13</ele>
        <time>2013-12-08T14:15:12Z</time>
      </trkpt>
      <trkpt lat="42.826" lon="1.42456">
        <ele>2038.13</ele>
        <time>2013-12-08T14:15:25Z</time>
      </trkpt>
      <trkpt lat="42.826" lon="1.42458">
        <ele>2037.65</ele>
        <time>2013-12-08T14:15:42Z</time>
      </trkpt>
      <trkpt lat="42.82603" lon="1.42474">
        <ele>2035.25</ele>
        <time>2013-12-08T14:15:53Z</time>
      </trkpt>
      <trkpt lat="42.82603" lon="1.42477">
        <ele>2034.29</ele>
        <time>2013-12-08T14:16:13Z</time>
      </trkpt>
      <trkpt lat="42.82607" lon="1.42487">
        <ele>2033.81</ele>
        <time>2013-12-08T14:16:22Z</time>
      </trkpt>
      <trkpt lat="42.82612" lon="1.42498">
        <ele>2034.77</ele>
        <time>2013-12-08T14:16:34Z</time>
      </trkpt>
      <trkpt lat="42.82615" lon="1.42509">
        <ele>2036.69</ele>
        <time>2013-12-08T14:16:48Z</time>
      </trkpt>
      <trkpt lat="42.82616" lon="1.42513">
        <ele>2036.21</ele>
        <time>2013-12-08T14:17:01Z</time>
      </trkpt>
      <trkpt lat="42.82616" lon="1.42513">
        <ele>2035.73</ele>
        <time>2013-12-08T14:17:21Z</time>
      </trkpt>
      <trkpt lat="42.82616" lon="1.42515">
        <ele>2036.21</ele>
        <time>2013-12-08T14:17:37Z</time>
      </trkpt>
      <trkpt lat="42.82617" lon="1.42517">
        <ele>2036.21</ele>
        <time>2013-12-08T14:17:54Z</time>
      </trkpt>
      <trkpt lat="42.82617" lon="1.42516">
        <ele>2036.21</ele>
        <time>2013-12-08T14:18:17Z</time>
      </trkpt>
      <trkpt lat="42.82618" lon="1.42517">
        <ele>2036.69</ele>
        <time>2013-12-08T14:18:39Z</time>
      </trkpt>
      <trkpt lat="42.82618" lon="1.42518">
        <ele>2036.21</ele>
        <time>2013-12-08T14:19:00Z</time>
      </trkpt>
      <trkpt lat="42.82626" lon="1.42542">
        <ele>2034.29</ele>
        <time>2013-12-08T14:19:15Z</time>
      </trkpt>
      <trkpt lat="42.82635" lon="1.42574">
        <ele>2030.92</ele>
        <time>2013-12-08T14:19:26Z</time>
      </trkpt>
      <trkpt lat="42.82641" lon="1.42587">
        <ele>2029</ele>
        <time>2013-12-08T14:19:38Z</time>
      </trkpt>
      <trkpt lat="42.82641" lon="1.42587">
        <ele>2027.56</ele>
        <time>2013-12-08T14:20:02Z</time>
      </trkpt>
      <trkpt lat="42.82646" lon="1.42596">
        <ele>2027.08</ele>
        <time>2013-12-08T14:20:15Z</time>
      </trkpt>
      <trkpt lat="42.82648" lon="1.42599">
        <ele>2026.12</ele>
        <time>2013-12-08T14:20:29Z</time>
      </trkpt>
      <trkpt lat="42.82655" lon="1.4261">
        <ele>2027.56</ele>
        <time>2013-12-08T14:20:41Z</time>
      </trkpt>
      <trkpt lat="42.82662" lon="1.4262">
        <ele>2029.48</ele>
        <time>2013-12-08T14:20:52Z</time>
      </trkpt>
      <trkpt lat="42.82668" lon="1.42633">
        <ele>2030.92</ele>
        <time>2013-12-08T14:21:04Z</time>
      </trkpt>
      <trkpt lat="42.82676" lon="1.42655">
        <ele>2030.92</ele>
        <time>2013-12-08T14:21:14Z</time>
      </trkpt>
      <trkpt lat="42.82678" lon="1.4266">
        <ele>2029.96</ele>
        <time>2013-12-08T14:21:17Z</time>
      </trkpt>
      <trkpt lat="42.82683" lon="1.4268">
        <ele>2028.52</ele>
        <time>2013-12-08T14:21:26Z</time>
      </trkpt>
      <trkpt lat="42.82688" lon="1.42707">
        <ele>2027.08</ele>
        <time>2013-12-08T14:21:38Z</time>
      </trkpt>
      <trkpt lat="42.82689" lon="1.42714">
        <ele>2026.12</ele>
        <time>2013-12-08T14:21:43Z</time>
      </trkpt>
      <trkpt lat="42.8269" lon="1.42718">
        <ele>2025.64</ele>
        <time>2013-12-08T14:21:46Z</time>
      </trkpt>
      <trkpt lat="42.82696" lon="1.42741">
        <ele>2023.23</ele>
        <time>2013-12-08T14:21:56Z</time>
      </trkpt>
      <trkpt lat="42.82698" lon="1.42764">
        <ele>2024.19</ele>
        <time>2013-12-08T14:22:10Z</time>
      </trkpt>
      <trkpt lat="42.827" lon="1.4278">
        <ele>2023.71</ele>
        <time>2013-12-08T14:22:21Z</time>
      </trkpt>
      <trkpt lat="42.827" lon="1.42782">
        <ele>2023.71</ele>
        <time>2013-12-08T14:22:36Z</time>
      </trkpt>
      <trkpt lat="42.82702" lon="1.42804">
        <ele>2024.19</ele>
        <time>2013-12-08T14:22:44Z</time>
      </trkpt>
      <trkpt lat="42.82702" lon="1.42809">
        <ele>2025.15</ele>
        <time>2013-12-08T14:22:58Z</time>
      </trkpt>
      <trkpt lat="42.82702" lon="1.4281">
        <ele>2024.67</ele>
        <time>2013-12-08T14:23:12Z</time>
      </trkpt>
      <trkpt lat="42.82703" lon="1.42813">
        <ele>2023.71</ele>
        <time>2013-12-08T14:23:30Z</time>
      </trkpt>
      <trkpt lat="42.82704" lon="1.42813">
        <ele>2023.71</ele>
        <time>2013-12-08T14:23:59Z</time>
      </trkpt>
      <trkpt lat="42.82704" lon="1.42813">
        <ele>2023.23</ele>
        <time>2013-12-08T14:24:26Z</time>
      </trkpt>
      <trkpt lat="42.82704" lon="1.42812">
        <ele>2023.23</ele>
        <time>2013-12-08T14:24:50Z</time>
      </trkpt>
      <trkpt lat="42.82703" lon="1.42814">
        <ele>2023.71</ele>
        <time>2013-12-08T14:25:09Z</time>
      </trkpt>
      <trkpt lat="42.82703" lon="1.42814">
        <ele>2024.19</ele>
        <time>2013-12-08T14:25:30Z</time>
      </trkpt>
      <trkpt lat="42.82703" lon="1.42814">
        <ele>2024.19</ele>
        <time>2013-12-08T14:25:54Z</time>
      </trkpt>
      <trkpt lat="42.82703" lon="1.42815">
        <ele>2024.19</ele>
        <time>2013-12-08T14:26:14Z</time>
      </trkpt>
      <trkpt lat="42.82703" lon="1.42815">
        <ele>2024.67</ele>
        <time>2013-12-08T14:26:33Z</time>
      </trkpt>
      <trkpt lat="42.82703" lon="1.42816">
        <ele>2025.15</ele>
        <time>2013-12-08T14:26:50Z</time>
      </trkpt>
      <trkpt lat="42.82703" lon="1.42815">
        <ele>2025.15</ele>
        <time>2013-12-08T14:27:04Z</time>
      </trkpt>
      <trkpt lat="42.82703" lon="1.42815">
        <ele>2024.67</ele>
        <time>2013-12-08T14:27:29Z</time>
      </trkpt>
      <trkpt lat="42.82703" lon="1.42815">
        <ele>2024.67</ele>
        <time>2013-12-08T14:27:54Z</time>
      </trkpt>
      <trkpt lat="42.82703" lon="1.42814">
        <ele>2024.19</ele>
        <time>2013-12-08T14:28:15Z</time>
      </trkpt>
      <trkpt lat="42.82703" lon="1.42814">
        <ele>2023.71</ele>
        <time>2013-12-08T14:28:46Z</time>
      </trkpt>
      <trkpt lat="42.82703" lon="1.42814">
        <ele>2023.71</ele>
        <time>2013-12-08T14:29:17Z</time>
      </trkpt>
      <trkpt lat="42.82703" lon="1.42814">
        <ele>2024.19</ele>
        <time>2013-12-08T14:29:40Z</time>
      </trkpt>
      <trkpt lat="42.82703" lon="1.42814">
        <ele>2023.71</ele>
        <time>2013-12-08T14:30:01Z</time>
      </trkpt>
      <trkpt lat="42.82703" lon="1.42814">
        <ele>2023.71</ele>
        <time>2013-12-08T14:30:28Z</time>
      </trkpt>
      <trkpt lat="42.82704" lon="1.42814">
        <ele>2024.19</ele>
        <time>2013-12-08T14:30:52Z</time>
      </trkpt>
      <trkpt lat="42.82703" lon="1.42814">
        <ele>2024.19</ele>
        <time>2013-12-08T14:31:20Z</time>
      </trkpt>
      <trkpt lat="42.82704" lon="1.42814">
        <ele>2024.19</ele>
        <time>2013-12-08T14:31:41Z</time>
      </trkpt>
      <trkpt lat="42.82704" lon="1.42814">
        <ele>2023.71</ele>
        <time>2013-12-08T14:32:02Z</time>
      </trkpt>
      <trkpt lat="42.82704" lon="1.42815">
        <ele>2023.71</ele>
        <time>2013-12-08T14:32:22Z</time>
      </trkpt>
      <trkpt lat="42.82704" lon="1.42815">
        <ele>2023.23</ele>
        <time>2013-12-08T14:32:46Z</time>
      </trkpt>
      <trkpt lat="42.82704" lon="1.42815">
        <ele>2023.23</ele>
        <time>2013-12-08T14:33:13Z</time>
      </trkpt>
      <trkpt lat="42.82704" lon="1.42815">
        <ele>2022.75</ele>
        <time>2013-12-08T14:33:38Z</time>
      </trkpt>
      <trkpt lat="42.82704" lon="1.42814">
        <ele>2022.75</ele>
        <time>2013-12-08T14:33:58Z</time>
      </trkpt>
      <trkpt lat="42.82704" lon="1.42815">
        <ele>2022.75</ele>
        <time>2013-12-08T14:34:23Z</time>
      </trkpt>
      <trkpt lat="42.82704" lon="1.42815">
        <ele>2023.23</ele>
        <time>2013-12-08T14:34:44Z</time>
      </trkpt>
      <trkpt lat="42.82704" lon="1.42814">
        <ele>2022.75</ele>
        <time>2013-12-08T14:35:06Z</time>
      </trkpt>
      <trkpt lat="42.82704" lon="1.42814">
        <ele>2023.23</ele>
        <time>2013-12-08T14:35:33Z</time>
      </trkpt>
      <trkpt lat="42.82704" lon="1.42815">
        <ele>2023.23</ele>
        <time>2013-12-08T14:35:47Z</time>
      </trkpt>
      <trkpt lat="42.82704" lon="1.42815">
        <ele>2024.19</ele>
        <time>2013-12-08T14:36:12Z</time>
      </trkpt>
      <trkpt lat="42.82704" lon="1.42815">
        <ele>2023.71</ele>
        <time>2013-12-08T14:36:39Z</time>
      </trkpt>
      <trkpt lat="42.82704" lon="1.42815">
        <ele>2024.19</ele>
        <time>2013-12-08T14:37:00Z</time>
      </trkpt>
      <trkpt lat="42.82704" lon="1.42814">
        <ele>2024.19</ele>
        <time>2013-12-08T14:37:25Z</time>
      </trkpt>
      <trkpt lat="42.82704" lon="1.42815">
        <ele>2024.19</ele>
        <time>2013-12-08T14:37:47Z</time>
      </trkpt>
      <trkpt lat="42.82704" lon="1.42815">
        <ele>2023.71</ele>
        <time>2013-12-08T14:38:07Z</time>
      </trkpt>
      <trkpt lat="42.82704" lon="1.42814">
        <ele>2023.23</ele>
        <time>2013-12-08T14:38:26Z</time>
      </trkpt>
      <trkpt lat="42.82704" lon="1.42814">
        <ele>2023.71</ele>
        <time>2013-12-08T14:38:40Z</time>
      </trkpt>
      <trkpt lat="42.82704" lon="1.42815">
        <ele>2023.71</ele>
        <time>2013-12-08T14:39:01Z</time>
      </trkpt>
      <trkpt lat="42.82705" lon="1.42815">
        <ele>2023.71</ele>
        <time>2013-12-08T14:39:24Z</time>
      </trkpt>
      <trkpt lat="42.82705" lon="1.42815">
        <ele>2023.71</ele>
        <time>2013-12-08T14:39:47Z</time>
      </trkpt>
      <trkpt lat="42.82705" lon="1.42815">
        <ele>2023.71</ele>
        <time>2013-12-08T14:40:10Z</time>
      </trkpt>
      <trkpt lat="42.82704" lon="1.42815">
        <ele>2023.71</ele>
        <time>2013-12-08T14:40:33Z</time>
      </trkpt>
      <trkpt lat="42.82704" lon="1.42815">
        <ele>2024.19</ele>
        <time>2013-12-08T14:40:57Z</time>
      </trkpt>
      <trkpt lat="42.82705" lon="1.42815">
        <ele>2024.19</ele>
        <time>2013-12-08T14:41:15Z</time>
      </trkpt>
      <trkpt lat="42.82705" lon="1.42816">
        <ele>2025.15</ele>
        <time>2013-12-08T14:41:29Z</time>
      </trkpt>
      <trkpt lat="42.82704" lon="1.42815">
        <ele>2024.67</ele>
        <time>2013-12-08T14:41:46Z</time>
      </trkpt>
      <trkpt lat="42.82705" lon="1.42815">
        <ele>2025.64</ele>
        <time>2013-12-08T14:42:11Z</time>
      </trkpt>
      <trkpt lat="42.82705" lon="1.42816">
        <ele>2025.64</ele>
        <time>2013-12-08T14:42:31Z</time>
      </trkpt>
      <trkpt lat="42.82705" lon="1.42816">
        <ele>2025.64</ele>
        <time>2013-12-08T14:42:56Z</time>
      </trkpt>
      <trkpt lat="42.82705" lon="1.42817">
        <ele>2026.12</ele>
        <time>2013-12-08T14:43:16Z</time>
      </trkpt>
      <trkpt lat="42.82705" lon="1.42818">
        <ele>2025.64</ele>
        <time>2013-12-08T14:43:35Z</time>
      </trkpt>
      <trkpt lat="42.82705" lon="1.42817">
        <ele>2024.67</ele>
        <time>2013-12-08T14:43:49Z</time>
      </trkpt>
      <trkpt lat="42.82705" lon="1.42817">
        <ele>2024.67</ele>
        <time>2013-12-08T14:44:07Z</time>
      </trkpt>
      <trkpt lat="42.82705" lon="1.42817">
        <ele>2024.67</ele>
        <time>2013-12-08T14:44:29Z</time>
      </trkpt>
      <trkpt lat="42.82705" lon="1.42816">
        <ele>2024.67</ele>
        <time>2013-12-08T14:44:49Z</time>
      </trkpt>
      <trkpt lat="42.82705" lon="1.42816">
        <ele>2025.15</ele>
        <time>2013-12-08T14:45:11Z</time>
      </trkpt>
      <trkpt lat="42.82704" lon="1.42821">
        <ele>2025.64</ele>
        <time>2013-12-08T14:45:24Z</time>
      </trkpt>
      <trkpt lat="42.82691" lon="1.42825">
        <ele>2021.79</ele>
        <time>2013-12-08T14:45:29Z</time>
      </trkpt>
      <trkpt lat="42.82684" lon="1.42822">
        <ele>2017.46</ele>
        <time>2013-12-08T14:45:33Z</time>
      </trkpt>
      <trkpt lat="42.82677" lon="1.42808">
        <ele>2013.62</ele>
        <time>2013-12-08T14:45:37Z</time>
      </trkpt>
      <trkpt lat="42.8266" lon="1.42805">
        <ele>2004.01</ele>
        <time>2013-12-08T14:45:44Z</time>
      </trkpt>
      <trkpt lat="42.82643" lon="1.42811">
        <ele>1995.35</ele>
        <time>2013-12-08T14:45:49Z</time>
      </trkpt>
      <trkpt lat="42.82635" lon="1.4281">
        <ele>1991.99</ele>
        <time>2013-12-08T14:45:51Z</time>
      </trkpt>
      <trkpt lat="42.82609" lon="1.42812">
        <ele>1982.38</ele>
        <time>2013-12-08T14:45:56Z</time>
      </trkpt>
      <trkpt lat="42.82586" lon="1.42815">
        <ele>1975.65</ele>
        <time>2013-12-08T14:46:00Z</time>
      </trkpt>
      <trkpt lat="42.82579" lon="1.42815">
        <ele>1971.8</ele>
        <time>2013-12-08T14:46:10Z</time>
      </trkpt>
      <trkpt lat="42.82581" lon="1.42813">
        <ele>1969.88</ele>
        <time>2013-12-08T14:46:25Z</time>
      </trkpt>
      <trkpt lat="42.8258" lon="1.42813">
        <ele>1967.96</ele>
        <time>2013-12-08T14:46:41Z</time>
      </trkpt>
      <trkpt lat="42.8258" lon="1.42812">
        <ele>1966.51</ele>
        <time>2013-12-08T14:47:01Z</time>
      </trkpt>
      <trkpt lat="42.82574" lon="1.42811">
        <ele>1966.51</ele>
        <time>2013-12-08T14:47:27Z</time>
      </trkpt>
      <trkpt lat="42.8257" lon="1.42811">
        <ele>1966.51</ele>
        <time>2013-12-08T14:47:28Z</time>
      </trkpt>
      <trkpt lat="42.82528" lon="1.42812">
        <ele>1962.19</ele>
        <time>2013-12-08T14:47:34Z</time>
      </trkpt>
      <trkpt lat="42.82514" lon="1.42814">
        <ele>1960.27</ele>
        <time>2013-12-08T14:47:36Z</time>
      </trkpt>
      <trkpt lat="42.82501" lon="1.42812">
        <ele>1958.82</ele>
        <time>2013-12-08T14:47:38Z</time>
      </trkpt>
      <trkpt lat="42.82494" lon="1.42808">
        <ele>1955.94</ele>
        <time>2013-12-08T14:47:45Z</time>
      </trkpt>
      <trkpt lat="42.82495" lon="1.42805">
        <ele>1955.94</ele>
        <time>2013-12-08T14:47:56Z</time>
      </trkpt>
      <trkpt lat="42.82486" lon="1.42797">
        <ele>1955.94</ele>
        <time>2013-12-08T14:48:07Z</time>
      </trkpt>
      <trkpt lat="42.82482" lon="1.42795">
        <ele>1955.94</ele>
        <time>2013-12-08T14:48:08Z</time>
      </trkpt>
      <trkpt lat="42.82463" lon="1.42807">
        <ele>1951.61</ele>
        <time>2013-12-08T14:48:13Z</time>
      </trkpt>
      <trkpt lat="42.82429" lon="1.42797">
        <ele>1945.85</ele>
        <time>2013-12-08T14:48:18Z</time>
      </trkpt>
      <trkpt lat="42.82418" lon="1.42776">
        <ele>1944.4</ele>
        <time>2013-12-08T14:48:21Z</time>
      </trkpt>
      <trkpt lat="42.82403" lon="1.42733">
        <ele>1942</ele>
        <time>2013-12-08T14:48:27Z</time>
      </trkpt>
      <trkpt lat="42.82395" lon="1.42733">
        <ele>1942</ele>
        <time>2013-12-08T14:48:28Z</time>
      </trkpt>
      <trkpt lat="42.8237" lon="1.42733">
        <ele>1940.56</ele>
        <time>2013-12-08T14:48:31Z</time>
      </trkpt>
      <trkpt lat="42.82337" lon="1.42683">
        <ele>1938.16</ele>
        <time>2013-12-08T14:48:37Z</time>
      </trkpt>
      <trkpt lat="42.82322" lon="1.42677">
        <ele>1935.27</ele>
        <time>2013-12-08T14:48:39Z</time>
      </trkpt>
      <trkpt lat="42.82283" lon="1.42677">
        <ele>1926.14</ele>
        <time>2013-12-08T14:48:45Z</time>
      </trkpt>
      <trkpt lat="42.82266" lon="1.4265">
        <ele>1918.93</ele>
        <time>2013-12-08T14:48:50Z</time>
      </trkpt>
      <trkpt lat="42.82274" lon="1.42648">
        <ele>1914.6</ele>
        <time>2013-12-08T14:48:57Z</time>
      </trkpt>
      <trkpt lat="42.82278" lon="1.42647">
        <ele>1910.76</ele>
        <time>2013-12-08T14:49:16Z</time>
      </trkpt>
      <trkpt lat="42.82277" lon="1.42646">
        <ele>1909.32</ele>
        <time>2013-12-08T14:49:31Z</time>
      </trkpt>
      <trkpt lat="42.82277" lon="1.42646">
        <ele>1909.32</ele>
        <time>2013-12-08T14:49:32Z</time>
      </trkpt>
      <trkpt lat="42.82263" lon="1.42614">
        <ele>1904.99</ele>
        <time>2013-12-08T14:49:38Z</time>
      </trkpt>
      <trkpt lat="42.82241" lon="1.42577">
        <ele>1899.7</ele>
        <time>2013-12-08T14:49:42Z</time>
      </trkpt>
      <trkpt lat="42.82226" lon="1.42568">
        <ele>1898.26</ele>
        <time>2013-12-08T14:49:44Z</time>
      </trkpt>
      <trkpt lat="42.82203" lon="1.42516">
        <ele>1896.82</ele>
        <time>2013-12-08T14:49:50Z</time>
      </trkpt>
      <trkpt lat="42.82182" lon="1.42526">
        <ele>1895.86</ele>
        <time>2013-12-08T14:49:55Z</time>
      </trkpt>
      <trkpt lat="42.82149" lon="1.42512">
        <ele>1892.01</ele>
        <time>2013-12-08T14:50:01Z</time>
      </trkpt>
      <trkpt lat="42.82147" lon="1.42528">
        <ele>1886.24</ele>
        <time>2013-12-08T14:50:05Z</time>
      </trkpt>
      <trkpt lat="42.82151" lon="1.42536">
        <ele>1873.75</ele>
        <time>2013-12-08T14:50:26Z</time>
      </trkpt>
      <trkpt lat="42.82152" lon="1.42537">
        <ele>1867.5</ele>
        <time>2013-12-08T14:50:44Z</time>
      </trkpt>
      <trkpt lat="42.82153" lon="1.42535">
        <ele>1861.25</ele>
        <time>2013-12-08T14:51:09Z</time>
      </trkpt>
      <trkpt lat="42.82154" lon="1.42535">
        <ele>1858.37</ele>
        <time>2013-12-08T14:51:25Z</time>
      </trkpt>
      <trkpt lat="42.82142" lon="1.4251">
        <ele>1855.96</ele>
        <time>2013-12-08T14:51:29Z</time>
      </trkpt>
      <trkpt lat="42.82092" lon="1.42441">
        <ele>1847.79</ele>
        <time>2013-12-08T14:51:36Z</time>
      </trkpt>
      <trkpt lat="42.82066" lon="1.42415">
        <ele>1836.26</ele>
        <time>2013-12-08T14:51:42Z</time>
      </trkpt>
      <trkpt lat="42.82075" lon="1.42422">
        <ele>1816.07</ele>
        <time>2013-12-08T14:51:58Z</time>
      </trkpt>
      <trkpt lat="42.82074" lon="1.42426">
        <ele>1814.15</ele>
        <time>2013-12-08T14:52:17Z</time>
      </trkpt>
      <trkpt lat="42.82072" lon="1.42432">
        <ele>1814.15</ele>
        <time>2013-12-08T14:52:32Z</time>
      </trkpt>
      <trkpt lat="42.82071" lon="1.42433">
        <ele>1813.18</ele>
        <time>2013-12-08T14:52:45Z</time>
      </trkpt>
      <trkpt lat="42.8206" lon="1.42445">
        <ele>1811.74</ele>
        <time>2013-12-08T14:52:49Z</time>
      </trkpt>
      <trkpt lat="42.82037" lon="1.4243">
        <ele>1805.01</ele>
        <time>2013-12-08T14:52:54Z</time>
      </trkpt>
      <trkpt lat="42.8202" lon="1.42432">
        <ele>1800.69</ele>
        <time>2013-12-08T14:52:58Z</time>
      </trkpt>
      <trkpt lat="42.82004" lon="1.42476">
        <ele>1793</ele>
        <time>2013-12-08T14:53:04Z</time>
      </trkpt>
      <trkpt lat="42.81999" lon="1.42492">
        <ele>1790.59</ele>
        <time>2013-12-08T14:53:07Z</time>
      </trkpt>
      <trkpt lat="42.81994" lon="1.42498">
        <ele>1787.71</ele>
        <time>2013-12-08T14:53:22Z</time>
      </trkpt>
      <trkpt lat="42.81994" lon="1.42498">
        <ele>1787.71</ele>
        <time>2013-12-08T14:53:25Z</time>
      </trkpt>
      <trkpt lat="42.8197" lon="1.42494">
        <ele>1785.79</ele>
        <time>2013-12-08T14:53:30Z</time>
      </trkpt>
      <trkpt lat="42.81938" lon="1.42511">
        <ele>1784.82</ele>
        <time>2013-12-08T14:53:33Z</time>
      </trkpt>
      <trkpt lat="42.81875" lon="1.42555">
        <ele>1781.94</ele>
        <time>2013-12-08T14:53:38Z</time>
      </trkpt>
      <trkpt lat="42.81825" lon="1.42559">
        <ele>1778.58</ele>
        <time>2013-12-08T14:53:42Z</time>
      </trkpt>
      <trkpt lat="42.81753" lon="1.42537">
        <ele>1770.89</ele>
        <time>2013-12-08T14:53:51Z</time>
      </trkpt>
      <trkpt lat="42.81743" lon="1.42534">
        <ele>1763.2</ele>
        <time>2013-12-08T14:53:58Z</time>
      </trkpt>
      <trkpt lat="42.81744" lon="1.42532">
        <ele>1755.99</ele>
        <time>2013-12-08T14:54:14Z</time>
      </trkpt>
      <trkpt lat="42.81746" lon="1.42533">
        <ele>1751.66</ele>
        <time>2013-12-08T14:54:35Z</time>
      </trkpt>
      <trkpt lat="42.81745" lon="1.42533">
        <ele>1749.74</ele>
        <time>2013-12-08T14:54:44Z</time>
      </trkpt>
      <trkpt lat="42.81734" lon="1.42541">
        <ele>1747.33</ele>
        <time>2013-12-08T14:54:48Z</time>
      </trkpt>
      <trkpt lat="42.81696" lon="1.42562">
        <ele>1741.57</ele>
        <time>2013-12-08T14:54:53Z</time>
      </trkpt>
      <trkpt lat="42.81661" lon="1.4257">
        <ele>1735.32</ele>
        <time>2013-12-08T14:54:58Z</time>
      </trkpt>
      <trkpt lat="42.81652" lon="1.42586">
        <ele>1731.95</ele>
        <time>2013-12-08T14:55:03Z</time>
      </trkpt>
      <trkpt lat="42.8164" lon="1.42571">
        <ele>1726.67</ele>
        <time>2013-12-08T14:55:09Z</time>
      </trkpt>
      <trkpt lat="42.81632" lon="1.42553">
        <ele>1719.46</ele>
        <time>2013-12-08T14:55:14Z</time>
      </trkpt>
      <trkpt lat="42.81627" lon="1.42516">
        <ele>1714.65</ele>
        <time>2013-12-08T14:55:18Z</time>
      </trkpt>
      <trkpt lat="42.81616" lon="1.42532">
        <ele>1704.07</ele>
        <time>2013-12-08T14:55:25Z</time>
      </trkpt>
      <trkpt lat="42.816" lon="1.42569">
        <ele>1699.27</ele>
        <time>2013-12-08T14:55:32Z</time>
      </trkpt>
      <trkpt lat="42.8158" lon="1.42548">
        <ele>1697.34</ele>
        <time>2013-12-08T14:55:36Z</time>
      </trkpt>
      <trkpt lat="42.81574" lon="1.42538">
        <ele>1696.86</ele>
        <time>2013-12-08T14:55:37Z</time>
      </trkpt>
      <trkpt lat="42.81544" lon="1.4253">
        <ele>1692.54</ele>
        <time>2013-12-08T14:55:45Z</time>
      </trkpt>
      <trkpt lat="42.81542" lon="1.42557">
        <ele>1692.06</ele>
        <time>2013-12-08T14:55:48Z</time>
      </trkpt>
      <trkpt lat="42.81548" lon="1.42599">
        <ele>1689.65</ele>
        <time>2013-12-08T14:55:58Z</time>
      </trkpt>
      <trkpt lat="42.81551" lon="1.42604">
        <ele>1685.81</ele>
        <time>2013-12-08T14:56:17Z</time>
      </trkpt>
      <trkpt lat="42.81552" lon="1.42604">
        <ele>1683.89</ele>
        <time>2013-12-08T14:56:38Z</time>
      </trkpt>
      <trkpt lat="42.81552" lon="1.42605">
        <ele>1683.89</ele>
        <time>2013-12-08T14:56:43Z</time>
      </trkpt>
      <trkpt lat="42.81539" lon="1.42607">
        <ele>1681</ele>
        <time>2013-12-08T14:56:48Z</time>
      </trkpt>
      <trkpt lat="42.81524" lon="1.42624">
        <ele>1677.64</ele>
        <time>2013-12-08T14:56:54Z</time>
      </trkpt>
      <trkpt lat="42.81512" lon="1.42626">
        <ele>1674.75</ele>
        <time>2013-12-08T14:56:57Z</time>
      </trkpt>
      <trkpt lat="42.8148" lon="1.42624">
        <ele>1666.58</ele>
        <time>2013-12-08T14:57:04Z</time>
      </trkpt>
      <trkpt lat="42.81467" lon="1.42641">
        <ele>1662.74</ele>
        <time>2013-12-08T14:57:07Z</time>
      </trkpt>
      <trkpt lat="42.81452" lon="1.42661">
        <ele>1658.41</ele>
        <time>2013-12-08T14:57:13Z</time>
      </trkpt>
      <trkpt lat="42.81442" lon="1.42671">
        <ele>1656.97</ele>
        <time>2013-12-08T14:57:15Z</time>
      </trkpt>
      <trkpt lat="42.81424" lon="1.42679">
        <ele>1647.36</ele>
        <time>2013-12-08T14:57:21Z</time>
      </trkpt>
      <trkpt lat="42.8141" lon="1.42657">
        <ele>1641.59</ele>
        <time>2013-12-08T14:57:25Z</time>
      </trkpt>
      <trkpt lat="42.81377" lon="1.42675">
        <ele>1633.42</ele>
        <time>2013-12-08T14:57:32Z</time>
      </trkpt>
      <trkpt lat="42.81371" lon="1.42667">
        <ele>1628.61</ele>
        <time>2013-12-08T14:57:35Z</time>
      </trkpt>
      <trkpt lat="42.81368" lon="1.42653">
        <ele>1625.73</ele>
        <time>2013-12-08T14:57:37Z</time>
      </trkpt>
      <trkpt lat="42.81349" lon="1.42662">
        <ele>1616.11</ele>
        <time>2013-12-08T14:57:43Z</time>
      </trkpt>
      <trkpt lat="42.81347" lon="1.42664">
        <ele>1606.98</ele>
        <time>2013-12-08T14:58:01Z</time>
      </trkpt>
      <trkpt lat="42.81346" lon="1.42664">
        <ele>1604.58</ele>
        <time>2013-12-08T14:58:19Z</time>
      </trkpt>
      <trkpt lat="42.81347" lon="1.42664">
        <ele>1604.1</ele>
        <time>2013-12-08T14:58:20Z</time>
      </trkpt>
      <trkpt lat="42.81339" lon="1.42635">
        <ele>1602.66</ele>
        <time>2013-12-08T14:58:27Z</time>
      </trkpt>
      <trkpt lat="42.81336" lon="1.42618">
        <ele>1601.69</ele>
        <time>2013-12-08T14:58:29Z</time>
      </trkpt>
      <trkpt lat="42.81324" lon="1.42572">
        <ele>1598.33</ele>
        <time>2013-12-08T14:58:34Z</time>
      </trkpt>
      <trkpt lat="42.81296" lon="1.42552">
        <ele>1591.6</ele>
        <time>2013-12-08T14:58:40Z</time>
      </trkpt>
      <trkpt lat="42.81267" lon="1.425">
        <ele>1581.51</ele>
        <time>2013-12-08T14:58:49Z</time>
      </trkpt>
      <trkpt lat="42.81266" lon="1.42498">
        <ele>1577.66</ele>
        <time>2013-12-08T14:59:01Z</time>
      </trkpt>
      <trkpt lat="42.81266" lon="1.42498">
        <ele>1572.37</ele>
        <time>2013-12-08T14:59:25Z</time>
      </trkpt>
      <trkpt lat="42.81253" lon="1.42516">
        <ele>1567.57</ele>
        <time>2013-12-08T14:59:31Z</time>
      </trkpt>
      <trkpt lat="42.81234" lon="1.42523">
        <ele>1560.84</ele>
        <time>2013-12-08T14:59:36Z</time>
      </trkpt>
      <trkpt lat="42.81218" lon="1.42542">
        <ele>1552.67</ele>
        <time>2013-12-08T14:59:43Z</time>
      </trkpt>
      <trkpt lat="42.81204" lon="1.42525">
        <ele>1550.26</ele>
        <time>2013-12-08T14:59:45Z</time>
      </trkpt>
      <trkpt lat="42.81125" lon="1.42518">
        <ele>1535.36</ele>
        <time>2013-12-08T14:59:52Z</time>
      </trkpt>
      <trkpt lat="42.81115" lon="1.42525">
        <ele>1532.48</ele>
        <time>2013-12-08T14:59:53Z</time>
      </trkpt>
      <trkpt lat="42.81056" lon="1.42568">
        <ele>1512.29</ele>
        <time>2013-12-08T15:00:00Z</time>
      </trkpt>
      <trkpt lat="42.81047" lon="1.42612">
        <ele>1494.99</ele>
        <time>2013-12-08T15:00:07Z</time>
      </trkpt>
      <trkpt lat="42.81048" lon="1.42609">
        <ele>1484.41</ele>
        <time>2013-12-08T15:00:12Z</time>
      </trkpt>
      <trkpt lat="42.81051" lon="1.42605">
        <ele>1471.44</ele>
        <time>2013-12-08T15:00:33Z</time>
      </trkpt>
      <trkpt lat="42.81052" lon="1.42604">
        <ele>1468.55</ele>
        <time>2013-12-08T15:00:55Z</time>
      </trkpt>
      <trkpt lat="42.81052" lon="1.42604">
        <ele>1468.07</ele>
        <time>2013-12-08T15:01:19Z</time>
      </trkpt>
      <trkpt lat="42.81052" lon="1.42603">
        <ele>1467.11</ele>
        <time>2013-12-08T15:01:44Z</time>
      </trkpt>
      <trkpt lat="42.81052" lon="1.42604">
        <ele>1467.11</ele>
        <time>2013-12-08T15:02:02Z</time>
      </trkpt>
      <trkpt lat="42.81052" lon="1.42604">
        <ele>1466.63</ele>
        <time>2013-12-08T15:02:20Z</time>
      </trkpt>
      <trkpt lat="42.81052" lon="1.42605">
        <ele>1466.63</ele>
        <time>2013-12-08T15:02:28Z</time>
      </trkpt>
      <trkpt lat="42.81036" lon="1.42626">
        <ele>1464.23</ele>
        <time>2013-12-08T15:02:34Z</time>
      </trkpt>
      <trkpt lat="42.81016" lon="1.42655">
        <ele>1458.46</ele>
        <time>2013-12-08T15:02:39Z</time>
      </trkpt>
      <trkpt lat="42.80993" lon="1.42688">
        <ele>1449.81</ele>
        <time>2013-12-08T15:02:44Z</time>
      </trkpt>
      <trkpt lat="42.80989" lon="1.4272">
        <ele>1442.6</ele>
        <time>2013-12-08T15:02:47Z</time>
      </trkpt>
      <trkpt lat="42.8099" lon="1.42743">
        <ele>1438.27</ele>
        <time>2013-12-08T15:02:49Z</time>
      </trkpt>
      <trkpt lat="42.80989" lon="1.42766">
        <ele>1433.46</ele>
        <time>2013-12-08T15:02:51Z</time>
      </trkpt>
      <trkpt lat="42.80977" lon="1.42806">
        <ele>1421.93</ele>
        <time>2013-12-08T15:02:56Z</time>
      </trkpt>
      <trkpt lat="42.80974" lon="1.42809">
        <ele>1420</ele>
        <time>2013-12-08T15:02:57Z</time>
      </trkpt>
      <trkpt lat="42.80982" lon="1.42797">
        <ele>1412.31</ele>
        <time>2013-12-08T15:03:03Z</time>
      </trkpt>
      <trkpt lat="42.80992" lon="1.42794">
        <ele>1410.39</ele>
        <time>2013-12-08T15:03:18Z</time>
      </trkpt>
      <trkpt lat="42.80996" lon="1.42793">
        <ele>1408.95</ele>
        <time>2013-12-08T15:03:29Z</time>
      </trkpt>
      <trkpt lat="42.81" lon="1.42794">
        <ele>1410.39</ele>
        <time>2013-12-08T15:03:43Z</time>
      </trkpt>
      <trkpt lat="42.81001" lon="1.42795">
        <ele>1412.79</ele>
        <time>2013-12-08T15:04:08Z</time>
      </trkpt>
      <trkpt lat="42.81004" lon="1.42795">
        <ele>1412.31</ele>
        <time>2013-12-08T15:04:19Z</time>
      </trkpt>
      <trkpt lat="42.81012" lon="1.42803">
        <ele>1412.31</ele>
        <time>2013-12-08T15:04:24Z</time>
      </trkpt>
      <trkpt lat="42.81021" lon="1.42819">
        <ele>1407.99</ele>
        <time>2013-12-08T15:04:31Z</time>
      </trkpt>
      <trkpt lat="42.81023" lon="1.42827">
        <ele>1406.55</ele>
        <time>2013-12-08T15:04:33Z</time>
      </trkpt>
      <trkpt lat="42.81025" lon="1.42832">
        <ele>1406.07</ele>
        <time>2013-12-08T15:04:34Z</time>
      </trkpt>
      <trkpt lat="42.81027" lon="1.42834">
        <ele>1405.58</ele>
        <time>2013-12-08T15:04:35Z</time>
      </trkpt>
      <trkpt lat="42.81029" lon="1.42838">
        <ele>1403.18</ele>
        <time>2013-12-08T15:04:42Z</time>
      </trkpt>
      <trkpt lat="42.81029" lon="1.4284">
        <ele>1402.7</ele>
        <time>2013-12-08T15:04:43Z</time>
      </trkpt>
      <trkpt lat="42.8103" lon="1.42843">
        <ele>1402.22</ele>
        <time>2013-12-08T15:04:44Z</time>
      </trkpt>
      <trkpt lat="42.81032" lon="1.42847">
        <ele>1401.74</ele>
        <time>2013-12-08T15:04:45Z</time>
      </trkpt>
      <trkpt lat="42.81037" lon="1.42852">
        <ele>1401.26</ele>
        <time>2013-12-08T15:04:46Z</time>
      </trkpt>
      <trkpt lat="42.81041" lon="1.42859">
        <ele>1400.78</ele>
        <time>2013-12-08T15:04:47Z</time>
      </trkpt>
      <trkpt lat="42.81043" lon="1.42866">
        <ele>1399.82</ele>
        <time>2013-12-08T15:04:48Z</time>
      </trkpt>
      <trkpt lat="42.81045" lon="1.42873">
        <ele>1399.34</ele>
        <time>2013-12-08T15:04:49Z</time>
      </trkpt>
      <trkpt lat="42.81046" lon="1.42882">
        <ele>1398.86</ele>
        <time>2013-12-08T15:04:50Z</time>
      </trkpt>
      <trkpt lat="42.81045" lon="1.42891">
        <ele>1397.89</ele>
        <time>2013-12-08T15:04:51Z</time>
      </trkpt>
      <trkpt lat="42.81046" lon="1.42898">
        <ele>1397.41</ele>
        <time>2013-12-08T15:04:52Z</time>
      </trkpt>
      <trkpt lat="42.81045" lon="1.42915">
        <ele>1395.97</ele>
        <time>2013-12-08T15:04:54Z</time>
      </trkpt>
      <trkpt lat="42.8104" lon="1.42953">
        <ele>1392.13</ele>
        <time>2013-12-08T15:04:58Z</time>
      </trkpt>
      <trkpt lat="42.8104" lon="1.42973">
        <ele>1390.2</ele>
        <time>2013-12-08T15:05:00Z</time>
      </trkpt>
      <trkpt lat="42.8104" lon="1.42982">
        <ele>1389.72</ele>
        <time>2013-12-08T15:05:01Z</time>
      </trkpt>
      <trkpt lat="42.81038" lon="1.43004">
        <ele>1386.36</ele>
        <time>2013-12-08T15:05:04Z</time>
      </trkpt>
      <trkpt lat="42.81038" lon="1.43012">
        <ele>1384.92</ele>
        <time>2013-12-08T15:05:05Z</time>
      </trkpt>
      <trkpt lat="42.81037" lon="1.4302">
        <ele>1384.44</ele>
        <time>2013-12-08T15:05:06Z</time>
      </trkpt>
      <trkpt lat="42.81036" lon="1.43026">
        <ele>1383.47</ele>
        <time>2013-12-08T15:05:07Z</time>
      </trkpt>
      <trkpt lat="42.81035" lon="1.43028">
        <ele>1382.03</ele>
        <time>2013-12-08T15:05:09Z</time>
      </trkpt>
      <trkpt lat="42.8103" lon="1.43025">
        <ele>1379.63</ele>
        <time>2013-12-08T15:05:11Z</time>
      </trkpt>
      <trkpt lat="42.81018" lon="1.43036">
        <ele>1376.26</ele>
        <time>2013-12-08T15:05:14Z</time>
      </trkpt>
      <trkpt lat="42.81011" lon="1.43061">
        <ele>1371.94</ele>
        <time>2013-12-08T15:05:17Z</time>
      </trkpt>
      <trkpt lat="42.81013" lon="1.43069">
        <ele>1368.09</ele>
        <time>2013-12-08T15:05:21Z</time>
      </trkpt>
      <trkpt lat="42.80996" lon="1.43073">
        <ele>1361.84</ele>
        <time>2013-12-08T15:05:27Z</time>
      </trkpt>
      <trkpt lat="42.80996" lon="1.4307">
        <ele>1358</ele>
        <time>2013-12-08T15:05:34Z</time>
      </trkpt>
      <trkpt lat="42.80994" lon="1.43067">
        <ele>1356.08</ele>
        <time>2013-12-08T15:05:59Z</time>
      </trkpt>
      <trkpt lat="42.80995" lon="1.43064">
        <ele>1354.63</ele>
        <time>2013-12-08T15:06:21Z</time>
      </trkpt>
      <trkpt lat="42.80994" lon="1.4306">
        <ele>1352.23</ele>
        <time>2013-12-08T15:06:39Z</time>
      </trkpt>
      <trkpt lat="42.80985" lon="1.43043">
        <ele>1351.27</ele>
        <time>2013-12-08T15:06:42Z</time>
      </trkpt>
      <trkpt lat="42.80965" lon="1.43036">
        <ele>1347.91</ele>
        <time>2013-12-08T15:06:47Z</time>
      </trkpt>
      <trkpt lat="42.80954" lon="1.4303">
        <ele>1342.62</ele>
        <time>2013-12-08T15:06:53Z</time>
      </trkpt>
      <trkpt lat="42.80954" lon="1.43029">
        <ele>1340.7</ele>
        <time>2013-12-08T15:06:56Z</time>
      </trkpt>
      <trkpt lat="42.80943" lon="1.43024">
        <ele>1336.85</ele>
        <time>2013-12-08T15:07:02Z</time>
      </trkpt>
      <trkpt lat="42.80941" lon="1.43023">
        <ele>1333.01</ele>
        <time>2013-12-08T15:07:15Z</time>
      </trkpt>
      <trkpt lat="42.80942" lon="1.43025">
        <ele>1332.52</ele>
        <time>2013-12-08T15:07:31Z</time>
      </trkpt>
      <trkpt lat="42.80941" lon="1.43032">
        <ele>1330.6</ele>
        <time>2013-12-08T15:07:49Z</time>
      </trkpt>
      <trkpt lat="42.80941" lon="1.43033">
        <ele>1330.12</ele>
        <time>2013-12-08T15:07:50Z</time>
      </trkpt>
      <trkpt lat="42.80941" lon="1.43048">
        <ele>1328.2</ele>
        <time>2013-12-08T15:07:59Z</time>
      </trkpt>
      <trkpt lat="42.80939" lon="1.43049">
        <ele>1328.2</ele>
        <time>2013-12-08T15:08:21Z</time>
      </trkpt>
      <trkpt lat="42.80938" lon="1.43049">
        <ele>1328.2</ele>
        <time>2013-12-08T15:08:26Z</time>
      </trkpt>
      <trkpt lat="42.80939" lon="1.43048">
        <ele>1327.72</ele>
        <time>2013-12-08T15:08:30Z</time>
      </trkpt>
      <trkpt lat="42.80938" lon="1.43043">
        <ele>1327.24</ele>
        <time>2013-12-08T15:08:35Z</time>
      </trkpt>
      <trkpt lat="42.80935" lon="1.43036">
        <ele>1327.24</ele>
        <time>2013-12-08T15:08:39Z</time>
      </trkpt>
      <trkpt lat="42.80929" lon="1.43016">
        <ele>1327.72</ele>
        <time>2013-12-08T15:08:50Z</time>
      </trkpt>
      <trkpt lat="42.8093" lon="1.4301">
        <ele>1325.8</ele>
        <time>2013-12-08T15:09:03Z</time>
      </trkpt>
      <trkpt lat="42.80926" lon="1.43002">
        <ele>1323.87</ele>
        <time>2013-12-08T15:09:10Z</time>
      </trkpt>
      <trkpt lat="42.80925" lon="1.42998">
        <ele>1322.91</ele>
        <time>2013-12-08T15:09:18Z</time>
      </trkpt>
      <trkpt lat="42.80925" lon="1.42997">
        <ele>1320.03</ele>
        <time>2013-12-08T15:09:35Z</time>
      </trkpt>
      <trkpt lat="42.80922" lon="1.43">
        <ele>1318.1</ele>
        <time>2013-12-08T15:09:42Z</time>
      </trkpt>
      <trkpt lat="42.80919" lon="1.43">
        <ele>1316.18</ele>
        <time>2013-12-08T15:09:51Z</time>
      </trkpt>
      <trkpt lat="42.80918" lon="1.42999">
        <ele>1315.7</ele>
        <time>2013-12-08T15:09:55Z</time>
      </trkpt>
      <trkpt lat="42.80911" lon="1.43002">
        <ele>1313.78</ele>
        <time>2013-12-08T15:10:03Z</time>
      </trkpt>
      <trkpt lat="42.8091" lon="1.43003">
        <ele>1313.78</ele>
        <time>2013-12-08T15:10:18Z</time>
      </trkpt>
      <trkpt lat="42.80911" lon="1.43007">
        <ele>1313.3</ele>
        <time>2013-12-08T15:10:31Z</time>
      </trkpt>
      <trkpt lat="42.80909" lon="1.43009">
        <ele>1312.34</ele>
        <time>2013-12-08T15:10:45Z</time>
      </trkpt>
      <trkpt lat="42.80908" lon="1.4301">
        <ele>1311.38</ele>
        <time>2013-12-08T15:11:03Z</time>
      </trkpt>
      <trkpt lat="42.80904" lon="1.43012">
        <ele>1310.9</ele>
        <time>2013-12-08T15:11:18Z</time>
      </trkpt>
      <trkpt lat="42.80904" lon="1.43015">
        <ele>1309.93</ele>
        <time>2013-12-08T15:11:28Z</time>
      </trkpt>
      <trkpt lat="42.80904" lon="1.43015">
        <ele>1309.93</ele>
        <time>2013-12-08T15:11:43Z</time>
      </trkpt>
      <trkpt lat="42.80902" lon="1.43016">
        <ele>1309.45</ele>
        <time>2013-12-08T15:12:01Z</time>
      </trkpt>
      <trkpt lat="42.80902" lon="1.43016">
        <ele>1309.93</ele>
        <time>2013-12-08T15:12:17Z</time>
      </trkpt>
      <trkpt lat="42.809" lon="1.43017">
        <ele>1310.9</ele>
        <time>2013-12-08T15:12:33Z</time>
      </trkpt>
      <trkpt lat="42.809" lon="1.43018">
        <ele>1311.86</ele>
        <time>2013-12-08T15:12:46Z</time>
      </trkpt>
      <trkpt lat="42.80898" lon="1.43019">
        <ele>1312.34</ele>
        <time>2013-12-08T15:13:02Z</time>
      </trkpt>
      <trkpt lat="42.80899" lon="1.4302">
        <ele>1312.82</ele>
        <time>2013-12-08T15:13:16Z</time>
      </trkpt>
      <trkpt lat="42.80898" lon="1.4302">
        <ele>1314.74</ele>
        <time>2013-12-08T15:13:33Z</time>
      </trkpt>
      <trkpt lat="42.80897" lon="1.43022">
        <ele>1314.26</ele>
        <time>2013-12-08T15:13:52Z</time>
      </trkpt>
      <trkpt lat="42.80897" lon="1.43023">
        <ele>1313.78</ele>
        <time>2013-12-08T15:14:01Z</time>
      </trkpt>
      <trkpt lat="42.80897" lon="1.43025">
        <ele>1312.82</ele>
        <time>2013-12-08T15:14:12Z</time>
      </trkpt>
      <trkpt lat="42.80896" lon="1.43026">
        <ele>1312.82</ele>
        <time>2013-12-08T15:14:16Z</time>
      </trkpt>
      <trkpt lat="42.8089" lon="1.43028">
        <ele>1309.93</ele>
        <time>2013-12-08T15:14:25Z</time>
      </trkpt>
      <trkpt lat="42.80889" lon="1.43026">
        <ele>1308.01</ele>
        <time>2013-12-08T15:14:44Z</time>
      </trkpt>
      <trkpt lat="42.80889" lon="1.43026">
        <ele>1307.53</ele>
        <time>2013-12-08T15:15:01Z</time>
      </trkpt>
      <trkpt lat="42.8089" lon="1.43027">
        <ele>1307.53</ele>
        <time>2013-12-08T15:15:24Z</time>
      </trkpt>
      <trkpt lat="42.8089" lon="1.43027">
        <ele>1307.53</ele>
        <time>2013-12-08T15:15:52Z</time>
      </trkpt>
      <trkpt lat="42.8089" lon="1.43027">
        <ele>1307.05</ele>
        <time>2013-12-08T15:16:13Z</time>
      </trkpt>
      <trkpt lat="42.8089" lon="1.43027">
        <ele>1306.57</ele>
        <time>2013-12-08T15:16:28Z</time>
      </trkpt>
      <trkpt lat="42.80889" lon="1.43029">
        <ele>1307.05</ele>
        <time>2013-12-08T15:16:38Z</time>
      </trkpt>
      <trkpt lat="42.80889" lon="1.43049">
        <ele>1305.61</ele>
        <time>2013-12-08T15:16:47Z</time>
      </trkpt>
      <trkpt lat="42.80889" lon="1.43053">
        <ele>1302.72</ele>
        <time>2013-12-08T15:17:04Z</time>
      </trkpt>
      <trkpt lat="42.8089" lon="1.43056">
        <ele>1302.24</ele>
        <time>2013-12-08T15:17:21Z</time>
      </trkpt>
      <trkpt lat="42.80889" lon="1.43059">
        <ele>1302.72</ele>
        <time>2013-12-08T15:17:38Z</time>
      </trkpt>
      <trkpt lat="42.80889" lon="1.43059">
        <ele>1302.72</ele>
        <time>2013-12-08T15:17:41Z</time>
      </trkpt>
      <trkpt lat="42.80888" lon="1.43064">
        <ele>1302.72</ele>
        <time>2013-12-08T15:17:45Z</time>
      </trkpt>
      <trkpt lat="42.80884" lon="1.43064">
        <ele>1300.8</ele>
        <time>2013-12-08T15:17:50Z</time>
      </trkpt>
      <trkpt lat="42.80883" lon="1.43068">
        <ele>1297.92</ele>
        <time>2013-12-08T15:17:55Z</time>
      </trkpt>
      <trkpt lat="42.8088" lon="1.43067">
        <ele>1296.48</ele>
        <time>2013-12-08T15:18:03Z</time>
      </trkpt>
      <trkpt lat="42.80879" lon="1.43067">
        <ele>1295.51</ele>
        <time>2013-12-08T15:18:09Z</time>
      </trkpt>
      <trkpt lat="42.80878" lon="1.43075">
        <ele>1292.63</ele>
        <time>2013-12-08T15:18:18Z</time>
      </trkpt>
      <trkpt lat="42.80873" lon="1.43071">
        <ele>1291.19</ele>
        <time>2013-12-08T15:18:25Z</time>
      </trkpt>
      <trkpt lat="42.8087" lon="1.43073">
        <ele>1287.34</ele>
        <time>2013-12-08T15:18:34Z</time>
      </trkpt>
      <trkpt lat="42.80865" lon="1.43073">
        <ele>1285.42</ele>
        <time>2013-12-08T15:18:41Z</time>
      </trkpt>
      <trkpt lat="42.80864" lon="1.43072">
        <ele>1285.42</ele>
        <time>2013-12-08T15:18:42Z</time>
      </trkpt>
      <trkpt lat="42.80861" lon="1.43075">
        <ele>1279.65</ele>
        <time>2013-12-08T15:18:54Z</time>
      </trkpt>
      <trkpt lat="42.80858" lon="1.43079">
        <ele>1278.21</ele>
        <time>2013-12-08T15:19:12Z</time>
      </trkpt>
      <trkpt lat="42.80859" lon="1.43079">
        <ele>1277.73</ele>
        <time>2013-12-08T15:19:32Z</time>
      </trkpt>
      <trkpt lat="42.80857" lon="1.4308">
        <ele>1276.29</ele>
        <time>2013-12-08T15:19:50Z</time>
      </trkpt>
      <trkpt lat="42.80858" lon="1.4308">
        <ele>1275.33</ele>
        <time>2013-12-08T15:20:01Z</time>
      </trkpt>
      <trkpt lat="42.80855" lon="1.43076">
        <ele>1272.44</ele>
        <time>2013-12-08T15:20:14Z</time>
      </trkpt>
      <trkpt lat="42.80853" lon="1.43075">
        <ele>1271.48</ele>
        <time>2013-12-08T15:20:30Z</time>
      </trkpt>
      <trkpt lat="42.80852" lon="1.43074">
        <ele>1271.96</ele>
        <time>2013-12-08T15:20:38Z</time>
      </trkpt>
      <trkpt lat="42.80845" lon="1.43066">
        <ele>1269.56</ele>
        <time>2013-12-08T15:20:51Z</time>
      </trkpt>
      <trkpt lat="42.80844" lon="1.43065">
        <ele>1269.08</ele>
        <time>2013-12-08T15:21:06Z</time>
      </trkpt>
      <trkpt lat="42.80844" lon="1.43064">
        <ele>1267.64</ele>
        <time>2013-12-08T15:21:17Z</time>
      </trkpt>
      <trkpt lat="42.80845" lon="1.43065">
        <ele>1266.19</ele>
        <time>2013-12-08T15:21:28Z</time>
      </trkpt>
      <trkpt lat="42.80846" lon="1.43063">
        <ele>1262.35</ele>
        <time>2013-12-08T15:21:38Z</time>
      </trkpt>
      <trkpt lat="42.80847" lon="1.43065">
        <ele>1260.91</ele>
        <time>2013-12-08T15:21:48Z</time>
      </trkpt>
      <trkpt lat="42.80847" lon="1.43064">
        <ele>1261.87</ele>
        <time>2013-12-08T15:21:58Z</time>
      </trkpt>
      <trkpt lat="42.80847" lon="1.43064">
        <ele>1262.83</ele>
        <time>2013-12-08T15:22:10Z</time>
      </trkpt>
      <trkpt lat="42.80846" lon="1.43064">
        <ele>1263.79</ele>
        <time>2013-12-08T15:22:24Z</time>
      </trkpt>
      <trkpt lat="42.80846" lon="1.43064">
        <ele>1263.79</ele>
        <time>2013-12-08T15:22:39Z</time>
      </trkpt>
      <trkpt lat="42.80845" lon="1.43064">
        <ele>1264.75</ele>
        <time>2013-12-08T15:23:02Z</time>
      </trkpt>
      <trkpt lat="42.80845" lon="1.43064">
        <ele>1265.23</ele>
        <time>2013-12-08T15:23:27Z</time>
      </trkpt>
      <trkpt lat="42.80845" lon="1.43064">
        <ele>1265.71</ele>
        <time>2013-12-08T15:23:58Z</time>
      </trkpt>
      <trkpt lat="42.80845" lon="1.43063">
        <ele>1265.71</ele>
        <time>2013-12-08T15:24:23Z</time>
      </trkpt>
      <trkpt lat="42.80847" lon="1.43062">
        <ele>1265.71</ele>
        <time>2013-12-08T15:24:44Z</time>
      </trkpt>
      <trkpt lat="42.80847" lon="1.43063">
        <ele>1266.19</ele>
        <time>2013-12-08T15:25:11Z</time>
      </trkpt>
      <trkpt lat="42.80846" lon="1.43063">
        <ele>1266.19</ele>
        <time>2013-12-08T15:25:38Z</time>
      </trkpt>
      <trkpt lat="42.80847" lon="1.43062">
        <ele>1267.16</ele>
        <time>2013-12-08T15:26:07Z</time>
      </trkpt>
      <trkpt lat="42.80848" lon="1.43063">
        <ele>1267.64</ele>
        <time>2013-12-08T15:26:34Z</time>
      </trkpt>
      <trkpt lat="42.80848" lon="1.43063">
        <ele>1267.16</ele>
        <time>2013-12-08T15:27:03Z</time>
      </trkpt>
      <trkpt lat="42.80848" lon="1.43063">
        <ele>1267.64</ele>
        <time>2013-12-08T15:27:24Z</time>
      </trkpt>
      <trkpt lat="42.80848" lon="1.43063">
        <ele>1268.12</ele>
        <time>2013-12-08T15:27:47Z</time>
      </trkpt>
      <trkpt lat="42.80856" lon="1.4308">
        <ele>1268.12</ele>
        <time>2013-12-08T15:27:53Z</time>
      </trkpt>
      <trkpt lat="42.80862" lon="1.43103">
        <ele>1266.67</ele>
        <time>2013-12-08T15:28:01Z</time>
      </trkpt>
      <trkpt lat="42.8087" lon="1.43133">
        <ele>1265.71</ele>
        <time>2013-12-08T15:28:07Z</time>
      </trkpt>
      <trkpt lat="42.80872" lon="1.43149">
        <ele>1265.23</ele>
        <time>2013-12-08T15:28:09Z</time>
      </trkpt>
      <trkpt lat="42.80872" lon="1.43157">
        <ele>1265.23</ele>
        <time>2013-12-08T15:28:10Z</time>
      </trkpt>
      <trkpt lat="42.80872" lon="1.43166">
        <ele>1265.23</ele>
        <time>2013-12-08T15:28:11Z</time>
      </trkpt>
      <trkpt lat="42.8087" lon="1.43175">
        <ele>1265.23</ele>
        <time>2013-12-08T15:28:12Z</time>
      </trkpt>
      <trkpt lat="42.80869" lon="1.43185">
        <ele>1264.75</ele>
        <time>2013-12-08T15:28:13Z</time>
      </trkpt>
      <trkpt lat="42.80867" lon="1.43193">
        <ele>1264.75</ele>
        <time>2013-12-08T15:28:14Z</time>
      </trkpt>
      <trkpt lat="42.80865" lon="1.432">
        <ele>1264.75</ele>
        <time>2013-12-08T15:28:15Z</time>
      </trkpt>
      <trkpt lat="42.80863" lon="1.43207">
        <ele>1264.75</ele>
        <time>2013-12-08T15:28:16Z</time>
      </trkpt>
      <trkpt lat="42.80863" lon="1.43214">
        <ele>1264.27</ele>
        <time>2013-12-08T15:28:17Z</time>
      </trkpt>
      <trkpt lat="42.80863" lon="1.4322">
        <ele>1264.27</ele>
        <time>2013-12-08T15:28:18Z</time>
      </trkpt>
      <trkpt lat="42.80862" lon="1.43226">
        <ele>1264.27</ele>
        <time>2013-12-08T15:28:19Z</time>
      </trkpt>
      <trkpt lat="42.80858" lon="1.43267">
        <ele>1263.31</ele>
        <time>2013-12-08T15:28:28Z</time>
      </trkpt>
      <trkpt lat="42.80854" lon="1.43278">
        <ele>1264.75</ele>
        <time>2013-12-08T15:28:33Z</time>
      </trkpt>
      <trkpt lat="42.8084" lon="1.43293">
        <ele>1264.75</ele>
        <time>2013-12-08T15:28:40Z</time>
      </trkpt>
      <trkpt lat="42.80832" lon="1.4333">
        <ele>1259.94</ele>
        <time>2013-12-08T15:28:51Z</time>
      </trkpt>
      <trkpt lat="42.80824" lon="1.43339">
        <ele>1259.46</ele>
        <time>2013-12-08T15:29:06Z</time>
      </trkpt>
      <trkpt lat="42.8082" lon="1.43341">
        <ele>1255.62</ele>
        <time>2013-12-08T15:29:19Z</time>
      </trkpt>
      <trkpt lat="42.80814" lon="1.43341">
        <ele>1254.18</ele>
        <time>2013-12-08T15:29:23Z</time>
      </trkpt>
      <trkpt lat="42.80807" lon="1.43345">
        <ele>1251.77</ele>
        <time>2013-12-08T15:29:28Z</time>
      </trkpt>
      <trkpt lat="42.80794" lon="1.43352">
        <ele>1246.97</ele>
        <time>2013-12-08T15:29:35Z</time>
      </trkpt>
      <trkpt lat="42.80766" lon="1.43363">
        <ele>1242.16</ele>
        <time>2013-12-08T15:29:47Z</time>
      </trkpt>
      <trkpt lat="42.80759" lon="1.43366">
        <ele>1238.8</ele>
        <time>2013-12-08T15:30:02Z</time>
      </trkpt>
      <trkpt lat="42.80753" lon="1.43368">
        <ele>1235.91</ele>
        <time>2013-12-08T15:30:21Z</time>
      </trkpt>
      <trkpt lat="42.80743" lon="1.43371">
        <ele>1234.95</ele>
        <time>2013-12-08T15:30:34Z</time>
      </trkpt>
      <trkpt lat="42.80737" lon="1.43375">
        <ele>1233.99</ele>
        <time>2013-12-08T15:30:48Z</time>
      </trkpt>
      <trkpt lat="42.80735" lon="1.43377">
        <ele>1234.47</ele>
        <time>2013-12-08T15:31:02Z</time>
      </trkpt>
      <trkpt lat="42.80732" lon="1.43378">
        <ele>1235.91</ele>
        <time>2013-12-08T15:31:16Z</time>
      </trkpt>
      <trkpt lat="42.80733" lon="1.43385">
        <ele>1232.55</ele>
        <time>2013-12-08T15:31:28Z</time>
      </trkpt>
      <trkpt lat="42.80732" lon="1.43382">
        <ele>1235.91</ele>
        <time>2013-12-08T15:31:41Z</time>
      </trkpt>
      <trkpt lat="42.80736" lon="1.43376">
        <ele>1236.87</ele>
        <time>2013-12-08T15:31:54Z</time>
      </trkpt>
      <trkpt lat="42.80738" lon="1.43374">
        <ele>1238.32</ele>
        <time>2013-12-08T15:32:06Z</time>
      </trkpt>
      <trkpt lat="42.80745" lon="1.43373">
        <ele>1238.8</ele>
        <time>2013-12-08T15:32:21Z</time>
      </trkpt>
      <trkpt lat="42.8075" lon="1.43371">
        <ele>1239.28</ele>
        <time>2013-12-08T15:32:34Z</time>
      </trkpt>
      <trkpt lat="42.8075" lon="1.43369">
        <ele>1239.76</ele>
        <time>2013-12-08T15:32:53Z</time>
      </trkpt>
      <trkpt lat="42.80733" lon="1.43375">
        <ele>1240.24</ele>
        <time>2013-12-08T15:33:08Z</time>
      </trkpt>
      <trkpt lat="42.80731" lon="1.43379">
        <ele>1239.76</ele>
        <time>2013-12-08T15:33:20Z</time>
      </trkpt>
      <trkpt lat="42.80732" lon="1.43377">
        <ele>1240.72</ele>
        <time>2013-12-08T15:33:32Z</time>
      </trkpt>
      <trkpt lat="42.80733" lon="1.43377">
        <ele>1241.68</ele>
        <time>2013-12-08T15:33:49Z</time>
      </trkpt>
      <trkpt lat="42.80732" lon="1.43375">
        <ele>1242.16</ele>
        <time>2013-12-08T15:34:05Z</time>
      </trkpt>
      <trkpt lat="42.80733" lon="1.43374">
        <ele>1242.64</ele>
        <time>2013-12-08T15:34:21Z</time>
      </trkpt>
      <trkpt lat="42.80734" lon="1.43377">
        <ele>1244.08</ele>
        <time>2013-12-08T15:34:47Z</time>
      </trkpt>
      <trkpt lat="42.80734" lon="1.43379">
        <ele>1243.6</ele>
        <time>2013-12-08T15:35:06Z</time>
      </trkpt>
      <trkpt lat="42.80734" lon="1.43379">
        <ele>1243.12</ele>
        <time>2013-12-08T15:35:24Z</time>
      </trkpt>
      <trkpt lat="42.80734" lon="1.43379">
        <ele>1243.12</ele>
        <time>2013-12-08T15:35:46Z</time>
      </trkpt>
      <trkpt lat="42.80736" lon="1.4338">
        <ele>1241.68</ele>
        <time>2013-12-08T15:36:08Z</time>
      </trkpt>
      <trkpt lat="42.80737" lon="1.43377">
        <ele>1240.24</ele>
        <time>2013-12-08T15:36:28Z</time>
      </trkpt>
      <trkpt lat="42.80734" lon="1.43377">
        <ele>1240.24</ele>
        <time>2013-12-08T15:36:51Z</time>
      </trkpt>
      <trkpt lat="42.80734" lon="1.43378">
        <ele>1241.68</ele>
        <time>2013-12-08T15:37:17Z</time>
      </trkpt>
      <trkpt lat="42.80732" lon="1.43375">
        <ele>1245.53</ele>
        <time>2013-12-08T15:37:36Z</time>
      </trkpt>
      <trkpt lat="42.80732" lon="1.43374">
        <ele>1244.56</ele>
        <time>2013-12-08T15:37:58Z</time>
      </trkpt>
      <trkpt lat="42.80733" lon="1.43375">
        <ele>1244.56</ele>
        <time>2013-12-08T15:38:24Z</time>
      </trkpt>
      <trkpt lat="42.80732" lon="1.43376">
        <ele>1244.56</ele>
        <time>2013-12-08T15:38:46Z</time>
      </trkpt>
      <trkpt lat="42.80732" lon="1.43375">
        <ele>1243.6</ele>
        <time>2013-12-08T15:39:04Z</time>
      </trkpt>
      <trkpt lat="42.80731" lon="1.43376">
        <ele>1243.12</ele>
        <time>2013-12-08T15:39:26Z</time>
      </trkpt>
      <trkpt lat="42.80732" lon="1.43374">
        <ele>1243.6</ele>
        <time>2013-12-08T15:39:39Z</time>
      </trkpt>
      <trkpt lat="42.80733" lon="1.43374">
        <ele>1243.6</ele>
        <time>2013-12-08T15:39:50Z</time>
      </trkpt>
      <trkpt lat="42.80733" lon="1.43374">
        <ele>1243.6</ele>
        <time>2013-12-08T15:39:52Z</time>
      </trkpt>
      <trkpt lat="42.80732" lon="1.43374">
        <ele>1242.16</ele>
        <time>2013-12-08T15:40:04Z</time>
      </trkpt>
      <trkpt lat="42.80732" lon="1.43374">
        <ele>1243.12</ele>
        <time>2013-12-08T15:40:19Z</time>
      </trkpt>
      <trkpt lat="42.80732" lon="1.43374">
        <ele>1243.6</ele>
        <time>2013-12-08T15:40:40Z</time>
      </trkpt>
      <trkpt lat="42.80732" lon="1.43374">
        <ele>1243.6</ele>
        <time>2013-12-08T15:41:03Z</time>
      </trkpt>
      <trkpt lat="42.80732" lon="1.43374">
        <ele>1244.56</ele>
        <time>2013-12-08T15:41:22Z</time>
      </trkpt>
      <trkpt lat="42.80733" lon="1.43376">
        <ele>1244.56</ele>
        <time>2013-12-08T15:41:35Z</time>
      </trkpt>
      <trkpt lat="42.80735" lon="1.43378">
        <ele>1244.56</ele>
        <time>2013-12-08T15:41:44Z</time>
      </trkpt>
      <trkpt lat="42.80731" lon="1.4338">
        <ele>1243.6</ele>
        <time>2013-12-08T15:41:52Z</time>
      </trkpt>
      <trkpt lat="42.80735" lon="1.43378">
        <ele>1242.64</ele>
        <time>2013-12-08T15:41:56Z</time>
      </trkpt>
      <trkpt lat="42.80732" lon="1.43382">
        <ele>1241.68</ele>
        <time>2013-12-08T15:42:03Z</time>
      </trkpt>
      <trkpt lat="42.80735" lon="1.43381">
        <ele>1239.28</ele>
        <time>2013-12-08T15:42:11Z</time>
      </trkpt>
      <trkpt lat="42.80731" lon="1.43384">
        <ele>1235.43</ele>
        <time>2013-12-08T15:42:22Z</time>
      </trkpt>
      <trkpt lat="42.80731" lon="1.43384">
        <ele>1235.43</ele>
        <time>2013-12-08T15:42:24Z</time>
      </trkpt>
      <trkpt lat="42.80736" lon="1.43381">
        <ele>1234.95</ele>
        <time>2013-12-08T15:42:41Z</time>
      </trkpt>
      <trkpt lat="42.80738" lon="1.4338">
        <ele>1234.47</ele>
        <time>2013-12-08T15:42:53Z</time>
      </trkpt>
      <trkpt lat="42.80731" lon="1.43381">
        <ele>1236.87</ele>
        <time>2013-12-08T15:43:04Z</time>
      </trkpt>
      <trkpt lat="42.8073" lon="1.43381">
        <ele>1237.83</ele>
        <time>2013-12-08T15:43:17Z</time>
      </trkpt>
      <trkpt lat="42.80729" lon="1.43384">
        <ele>1237.83</ele>
        <time>2013-12-08T15:43:23Z</time>
      </trkpt>
      <trkpt lat="42.80734" lon="1.4338">
        <ele>1239.28</ele>
        <time>2013-12-08T15:43:34Z</time>
      </trkpt>
      <trkpt lat="42.80734" lon="1.4338">
        <ele>1239.76</ele>
        <time>2013-12-08T15:43:53Z</time>
      </trkpt>
      <trkpt lat="42.80735" lon="1.43379">
        <ele>1240.72</ele>
        <time>2013-12-08T15:44:22Z</time>
      </trkpt>
    </trkseg>
  </trk>
</gpx>